Provisional Data: Yellow Breeches Creek near Lisburn, PA


Please select a monitoring station.
Please select start date.
Please select start date.

Toggle Unit: C/F Toggle Unit: C/F
Sample Time Temperature (C) Temperature (F) Specific Conductivity (mS/cm) pH   Turbidity (NTU+) DO (mg/L)
1/12/2021 12:00:00 AM 3.73 38.714 0.252 6.54 3724 12.85
1/12/2021 12:15:00 AM 3.71 38.678 0.256 6.54 27.83 12.83
1/12/2021 12:30:00 AM 3.68 38.624 0.164 6.54 27.23 12.49
1/12/2021 12:45:00 AM 3.66 38.588 0.25 6.54 29.03 12.72
1/12/2021 1:00:00 AM 3.63 38.534 0.277 6.54 29.14 12.75
1/12/2021 1:15:00 AM 3.58 38.444 0.275 6.55 29.37 12.9
1/12/2021 1:30:00 AM 3.56 38.408 0.235 6.55 29.31 12.91
1/12/2021 1:45:00 AM 3.52 38.336 0.264 6.55 24.84 12.93
1/12/2021 2:00:00 AM 3.48 38.264 0.261 6.56 24.01 12.93
1/12/2021 2:15:00 AM 3.45 38.21 0.277 6.56 24.58 12.92
1/12/2021 2:30:00 AM 3.42 38.156 0.274 6.56 24.05 12.95
1/12/2021 2:45:00 AM 3.39 38.102 0.278 6.56 24.7 12.94
1/12/2021 3:00:00 AM 3.36 38.048 0.274 6.55 24.75 12.96
1/12/2021 3:15:00 AM 3.32 37.976 0.273 6.54 24.98 12.95
1/12/2021 3:30:00 AM 3.28 37.904 0.276 6.54 24.6 12.91
1/12/2021 3:45:00 AM 3.25 37.85 0.275 6.55 24.37 12.82
1/12/2021 4:00:00 AM 3.21 37.778 0.275 6.54 24.41 12.96
1/12/2021 4:15:00 AM 3.17 37.706 0.274 6.54 24.81 12.94
1/12/2021 4:30:00 AM 3.12 37.616 0.263 6.53 25.11 13
1/12/2021 4:45:00 AM 3.09 37.562 0.268 6.53 25.48 12.95
1/12/2021 5:00:00 AM 3.04 37.472 0.274 6.53 24.78 13.04
1/12/2021 5:15:00 AM 3.01 37.418 0.277 6.52 24.88 12.83
1/12/2021 5:30:00 AM 2.97 37.346 0.253 6.52 25.13 13.04
1/12/2021 5:45:00 AM 2.93 37.274 0.264 6.51 24.62 13.06
1/12/2021 6:00:00 AM 2.9 37.22 0.251 6.52 24.89 13.06
1/12/2021 6:15:00 AM 2.87 37.166 0.234 6.53 25.26 13.04
1/12/2021 6:30:00 AM 2.84 37.112 0.233 6.53 25.92 13.01
1/12/2021 6:45:00 AM 2.8 37.04 0.233 6.53 25.76 13.09
1/12/2021 7:00:00 AM 2.77 36.986 0.278 6.53 26.13 13.1
1/12/2021 7:15:00 AM 2.72 36.896 0.278 6.53 310.5 13.11
1/12/2021 7:30:00 AM 2.69 36.842 0.279 6.53 25.02 13.11
1/12/2021 7:45:00 AM 2.65 36.77 0.279 6.54 24.37 13.03
1/12/2021 8:00:00 AM 2.62 36.716 0.278 6.53 24.11 13.09
1/12/2021 8:15:00 AM 2.6 36.68 0.264 6.53 4265 13.19
1/12/2021 8:30:00 AM 2.6 36.68 0.279 6.52 23.67 13.22
1/12/2021 8:45:00 AM 2.59 36.662 0.279 6.5 23.2 13.24
1/12/2021 9:00:00 AM 2.59 36.662 0.281 6.48 23.24 13.22
1/12/2021 9:15:00 AM 2.6 36.68 0.281 6.46 23.55 13.31
1/12/2021 9:30:00 AM 2.62 36.716 0.281 6.43 23.58 13.35
1/12/2021 9:45:00 AM 2.65 36.77 0.28 6.4 23.56 13.38
1/12/2021 10:00:00 AM 2.68 36.824 0.28 6.39 24.41 13.4
1/12/2021 10:15:00 AM 2.72 36.896 0.279 6.38 23.79 13.43
1/12/2021 10:30:00 AM 2.75 36.95 0.279 6.37 23.8 13.45
1/12/2021 10:45:00 AM 2.79 37.022 0.278 6.37 24.6 13.48
1/12/2021 11:00:00 AM 2.84 37.112 0.278 6.35 24.25 13.5
1/12/2021 11:15:00 AM 2.89 37.202 0.278 6.35 24.21 13.53
1/12/2021 11:30:00 AM 2.93 37.274 0.278 6.35 24.61 13.58
1/12/2021 11:45:00 AM 2.99 37.382 0.278 6.34 25.07 13.59
1/12/2021 12:00:00 PM 3.05 37.49 0.279 6.33 24.55 13.61
1/12/2021 12:15:00 PM 3.12 37.616 0.279 6.33 24.41 13.61
1/12/2021 12:30:00 PM 3.19 37.742 0.279 6.32 24.31 13.42
1/12/2021 12:45:00 PM 3.25 37.85 0.279 6.33 24.39 13.36
1/12/2021 1:00:00 PM 3.31 37.958 0.278 6.33 24.39 13.39
1/12/2021 1:15:00 PM 3.38 38.084 0.278 6.34 25.25 13.52
1/12/2021 1:30:00 PM 3.43 38.174 0.277 6.35 24.56 13.45
1/12/2021 1:45:00 PM 3.49 38.282 0.277 6.35 25.22 13.52
1/12/2021 2:00:00 PM 3.54 38.372 0.277 6.36 25.23 13.58
1/12/2021 2:15:00 PM 3.6 38.48 0.277 6.37 29.76 13.55
1/12/2021 2:30:00 PM 3.64 38.552 0.277 6.38 29.18 13.52
1/12/2021 2:45:00 PM 3.67 38.606 0.277 6.39 29.16 13.49
1/12/2021 3:00:00 PM 3.71 38.678 0.277 6.39 29.57 13.52
1/12/2021 3:15:00 PM 3.74 38.732 0.277 6.4 29.32 13.57
1/12/2021 3:30:00 PM 3.76 38.768 0.277 6.4 29.55 13.22
1/12/2021 3:45:00 PM 3.78 38.804 0.277 6.41 29.83 13.48
1/12/2021 4:00:00 PM 3.79 38.822 0.278 6.42 30.19 13.5
1/12/2021 4:15:00 PM 3.79 38.822 0.276 6.41 30.39 13.47
1/12/2021 4:30:00 PM 3.79 38.822 0.276 6.42 30.63 13.49
1/12/2021 4:45:00 PM 3.78 38.804 0.276 6.42 30.87 13.49
1/12/2021 5:00:00 PM 3.77 38.786 0.276 6.42 31.18 13.48
1/12/2021 5:15:00 PM 3.76 38.768 0.276 6.42 31.33 13.42
1/12/2021 5:30:00 PM 3.75 38.75 0.276 6.42 30.94 13.36
1/12/2021 5:45:00 PM 3.74 38.732 0.277 6.43 31.18 13.18
1/12/2021 6:00:00 PM 3.72 38.696 0.277 6.44 31.53 13.06
1/12/2021 6:15:00 PM 3.71 38.678 0.277 6.44 31.47 12.93
1/12/2021 6:30:00 PM 3.7 38.66 0.276 6.45 29.33 12.89
1/12/2021 6:45:00 PM 3.69 38.642 0.277 6.46 28.62 12.98
1/12/2021 7:00:00 PM 3.68 38.624 0.275 6.47 28.99 13.09
1/12/2021 7:15:00 PM 3.67 38.606 0.277 6.47 29.45 12.82
1/12/2021 7:30:00 PM 3.66 38.588 0.276 6.49 28.29 13.03
1/12/2021 7:45:00 PM 3.65 38.57 0.276 6.5 27.72 13.08
1/12/2021 8:00:00 PM 3.65 38.57 0.276 6.51 27.37 12.9
1/12/2021 8:15:00 PM 3.65 38.57 0.274 6.5 29.16 12.98
1/12/2021 8:30:00 PM 3.66 38.588 0.255 6.51 27.87 13
1/12/2021 8:45:00 PM 3.67 38.606 0.265 6.53 28.03 12.6
1/12/2021 9:00:00 PM 3.69 38.642 0.279 6.53 28.97 12.72
1/12/2021 9:15:00 PM 3.7 38.66 0.281 6.54 28.07 12.48
1/12/2021 9:30:00 PM 3.73 38.714 0.241 6.54 28.11 12.4
1/12/2021 9:45:00 PM 3.73 38.714 0.279 6.55 28.73 12.19
1/12/2021 10:00:00 PM 3.74 38.732 0.26 6.55 29.2 11.89
1/12/2021 10:15:00 PM 3.76 38.768 0.242 6.55 30.69 12.24
1/12/2021 10:30:00 PM 3.76 38.768 0.247 6.55 28.78 12.17
1/12/2021 10:45:00 PM 3.76 38.768 0.252 6.55 29.2 12.15
1/12/2021 11:00:00 PM 3.76 38.768 0.256 6.53 29.65 12.41
1/12/2021 11:15:00 PM 3.76 38.768 0.253 6.52 29.03 12.62
1/12/2021 11:30:00 PM 3.77 38.786 0.242 6.5 30.98 12.62
1/12/2021 11:45:00 PM 3.78 38.804 0.255 6.49 30.9 12.52
1/13/2021 12:00:00 AM 3.79 38.822 0.26 6.49 31.91 12.49
1/13/2021 12:15:00 AM 3.8 38.84 0.254 6.5 32.66 12.53
1/13/2021 12:30:00 AM 3.8 38.84 0.253 6.51 35.22 12.57
1/13/2021 12:45:00 AM 3.79 38.822 0.224 6.49 34.74 12.51
1/13/2021 1:00:00 AM 3.78 38.804 0.218 6.47 34.98 12.57
1/13/2021 1:15:00 AM 3.76 38.768 0.27 6.51 47.12 12.62
1/13/2021 1:30:00 AM 3.74 38.732 0.268 6.48 45.91 12.58
1/13/2021 1:45:00 AM 3.72 38.696 0.269 6.49 45.4 12.66
1/13/2021 2:00:00 AM 3.69 38.642 0.27 6.48 45.53 12.65
1/13/2021 2:15:00 AM 3.67 38.606 0.27 6.49 47.16 12.56
1/13/2021 2:30:00 AM 3.65 38.57 0.261 6.5 49.77 12.56
1/13/2021 2:45:00 AM 3.62 38.516 0.255 6.51 42.11 12.61
1/13/2021 3:00:00 AM 3.59 38.462 0.26 6.54 43.13 12.51
1/13/2021 3:15:00 AM 3.56 38.408 0.255 6.56 42.44 12.31
1/13/2021 3:30:00 AM 3.54 38.372 0.253 6.59 43.09 12.17
1/13/2021 3:45:00 AM 3.5 38.3 0.248 6.61 43.23 12.77
1/13/2021 4:00:00 AM 3.47 38.246 0.253 6.62 43.78 12.78
1/13/2021 4:15:00 AM 3.44 38.192 0.248 6.63 44.6 12.56
1/13/2021 4:30:00 AM 3.42 38.156 0.252 6.61 45.35 12.52
1/13/2021 4:45:00 AM 3.39 38.102 0.258 6.58 45.2 12.33
1/13/2021 5:00:00 AM 3.38 38.084 0.243 6.57 45.54 12.49
1/13/2021 5:15:00 AM 3.36 38.048 0.244 6.56 47.26 12.61
1/13/2021 5:30:00 AM 3.35 38.03 0.243 6.55 45.69 12.6
1/13/2021 5:45:00 AM 3.34 38.012 0.246 6.55 46.6 12.57
1/13/2021 6:00:00 AM 3.34 38.012 0.254 6.55 46.78 12.64
1/13/2021 6:15:00 AM 3.34 38.012 0.258 6.55 47.85 12.67
1/13/2021 6:30:00 AM 3.34 38.012 0.251 6.54 34.04 12.84
1/13/2021 6:45:00 AM 3.33 37.994 0.273 6.54 34.04 12.78
1/13/2021 7:00:00 AM 3.33 37.994 0.245 6.53 33.67 12.54
1/13/2021 7:15:00 AM 3.32 37.976 0.245 6.53 34.43 12.34
1/13/2021 7:30:00 AM 3.32 37.976 0.253 6.51 34.04 12.53
1/13/2021 7:45:00 AM 3.32 37.976 0.258 6.5 34.42 12.52
1/13/2021 8:00:00 AM 3.32 37.976 0.25 6.48 36.42 12.47
1/13/2021 8:15:00 AM 3.34 38.012 0.254 6.46 35.59 12.54
1/13/2021 8:30:00 AM 3.36 38.048 0.258 6.45 35.42 12.45
1/13/2021 8:45:00 AM 3.39 38.102 0.253 6.44 36.66 12.51
1/13/2021 9:00:00 AM 3.41 38.138 0.258 6.4 35.47 12.63
1/13/2021 9:15:00 AM 3.43 38.174 0.259 6.38 36.3 12.75
1/13/2021 9:30:00 AM 3.46 38.228 0.26 6.39 62.93 12.86
1/13/2021 9:45:00 AM 3.49 38.282 0.257 6.38 36.08 12.94
1/13/2021 10:00:00 AM 3.52 38.336 0.255 6.36 36.39 12.98
1/13/2021 10:15:00 AM 3.55 38.39 0.255 6.37 39.65 12.92
1/13/2021 10:30:00 AM 3.59 38.462 0.253 6.37 39.13 13.03
1/13/2021 10:45:00 AM 3.63 38.534 0.254 6.36 39.94 13.11
1/13/2021 11:00:00 AM 3.7 38.66 0.256 6.35 40.98 12.91
1/13/2021 11:15:00 AM 3.76 38.768 0.27 6.35 40.41 12.9
1/13/2021 11:30:00 AM 3.84 38.912 0.265 6.36 40.59 13.05
1/13/2021 11:45:00 AM 3.9 39.02 0.262 6.35 40.17 12.87
1/13/2021 12:00:00 PM 3.98 39.164 0.263 6.36 40.88 13.01
1/13/2021 12:15:00 PM 4.06 39.308 0.258 6.37 42.24 13.18
1/13/2021 12:30:00 PM 4.14 39.452 0.257 6.38 42.04 13.21
1/13/2021 12:45:00 PM 4.21 39.578 0.254 6.4 41.2 13.24
1/13/2021 1:00:00 PM 4.26 39.668 0.256 6.4 42.77 13.26
1/13/2021 1:15:00 PM 4.33 39.794 0.27 6.41 40.9 13.19
1/13/2021 1:30:00 PM 4.39 39.902 0.265 6.41 42.47 13.22
1/13/2021 1:45:00 PM 4.44 39.992 0.261 6.44 44.4 13.22
1/13/2021 2:00:00 PM 4.48 40.064 0.261 6.43 43.86 13.16
1/13/2021 2:15:00 PM 4.52 40.136 0.261 6.45 43.68 13.23
1/13/2021 2:30:00 PM 4.57 40.226 0.261 6.46 44.31 13.2
1/13/2021 2:45:00 PM 4.61 40.298 0.261 6.47 43.59 13.15
1/13/2021 3:00:00 PM 4.64 40.352 0.244 6.47 44.71 13.18
1/13/2021 3:15:00 PM 4.66 40.388 0.265 6.47 44.97 13.12
1/13/2021 3:30:00 PM 4.7 40.46 0.265 6.46 45.42 13.14
1/13/2021 3:45:00 PM 4.72 40.496 0.26 6.49 44.71 13
1/13/2021 4:00:00 PM 4.74 40.532 0.269 6.5 47.34 12.9
1/13/2021 4:15:00 PM 4.75 40.55 0.276 6.5 46.11 13
1/13/2021 4:30:00 PM 4.75 40.55 0.275 6.48 46.35 12.9
1/13/2021 4:45:00 PM 4.76 40.568 0.275 6.49 44.74 12.98
1/13/2021 5:00:00 PM 4.76 40.568 0.275 6.47 44.75 13.02
1/13/2021 5:15:00 PM 4.76 40.568 0.275 6.49 46.65 12.93
1/13/2021 5:30:00 PM 4.76 40.568 0.275 6.49 46.8 12.99
1/13/2021 5:45:00 PM 4.75 40.55 0.274 6.5 46.36 13.01
1/13/2021 6:00:00 PM 4.74 40.532 0.242 6.51 51.42 12.97
1/13/2021 6:15:00 PM 4.73 40.514 0.253 6.52 31.68 12.96
1/13/2021 6:30:00 PM 4.72 40.496 0.255 6.54 31.66 12.92
1/13/2021 6:45:00 PM 4.7 40.46 0.254 6.56 32.03 12.87
1/13/2021 7:00:00 PM 4.7 40.46 0.258 6.57 42.96 12.75
1/13/2021 7:15:00 PM 4.69 40.442 0.253 6.58 32 12.72
1/13/2021 7:30:00 PM 4.68 40.424 0.251 6.6 33.01 12.79
1/13/2021 7:45:00 PM 4.67 40.406 0.248 6.59 33.36 12.81
1/13/2021 8:00:00 PM 4.66 40.388 0.253 6.57 32.79 12.74
1/13/2021 8:15:00 PM 4.66 40.388 0.25 6.58 33.11 12.73
1/13/2021 8:30:00 PM 4.64 40.352 0.249 6.59 33.91 12.7
1/13/2021 8:45:00 PM 4.64 40.352 0.269 6.6 33.43 12.68
1/13/2021 9:00:00 PM 4.64 40.352 0.229 6.6 36.98 12.65
1/13/2021 9:15:00 PM 4.64 40.352 0.269 6.61 35.36 12.62
1/13/2021 9:30:00 PM 4.65 40.37 0.269 6.62 35.73 12.59
1/13/2021 9:45:00 PM 4.66 40.388 0.279 6.62 36.37 12.57
1/13/2021 10:00:00 PM 4.66 40.388 0.26 6.61 40.23 12.55
1/13/2021 10:15:00 PM 4.67 40.406 0.251 6.6 39.85 12.53
1/13/2021 10:30:00 PM 4.67 40.406 0.26 6.6 40.44 12.52
1/13/2021 10:45:00 PM 4.67 40.406 0.257 6.6 40.24 12.42
1/13/2021 11:00:00 PM 4.67 40.406 0.259 6.58 39.87 12.5
1/13/2021 11:15:00 PM 4.67 40.406 0.258 6.58 39.95 12.49
1/13/2021 11:30:00 PM 4.67 40.406 0.257 6.58 41.51 12.48
1/13/2021 11:45:00 PM 4.66 40.388 0.258 6.56 41.95 12.47
1/14/2021 12:00:00 AM 4.66 40.388 0.257 6.56 42.23 12.46
1/14/2021 12:15:00 AM 4.66 40.388 0.262 6.57 42.54 12.41
1/14/2021 12:30:00 AM 4.65 40.37 0.261 6.58 42.93 12.41
1/14/2021 12:45:00 AM 4.65 40.37 0.259 6.59 41.57 12.37
1/14/2021 1:00:00 AM 4.64 40.352 0.257 6.62 42.9 12.41
1/14/2021 1:15:00 AM 4.63 40.334 0.278 6.62 44.39 12.41
1/14/2021 1:30:00 AM 4.62 40.316 0.277 6.61 45.86 12.4
1/14/2021 1:45:00 AM 4.61 40.298 0.276 6.61 45.49 12.39
1/14/2021 2:00:00 AM 4.59 40.262 0.275 6.59 40.12 12.41
1/14/2021 2:15:00 AM 4.57 40.226 0.275 6.58 40.74 12.4
1/14/2021 2:30:00 AM 4.56 40.208 0.276 6.57 37.46 12.39
1/14/2021 2:45:00 AM 4.55 40.19 0.276 6.56 35.29 12.39
1/14/2021 3:00:00 AM 4.55 40.19 0.276 6.57 35.49 12.37
1/14/2021 3:15:00 AM 4.54 40.172 0.277 6.56 34.31 12.38
1/14/2021 3:30:00 AM 4.53 40.154 0.277 6.57 34.98 12.39
1/14/2021 3:45:00 AM 4.53 40.154 0.278 6.57 34.51 12.4
1/14/2021 4:00:00 AM 4.51 40.118 0.278 6.56 35.38 12.38
1/14/2021 4:15:00 AM 4.49 40.082 0.258 6.55 39.18 12.4
1/14/2021 4:30:00 AM 4.48 40.064 0.262 6.54 34.8 12.4
1/14/2021 4:45:00 AM 4.48 40.064 0.264 6.53 35.55 12.38
1/14/2021 5:00:00 AM 4.47 40.046 0.284 6.52 35.95 12.4
1/14/2021 5:15:00 AM 4.46 40.028 0.261 6.52 37.52 12.41
1/14/2021 5:30:00 AM 4.45 40.01 0.267 6.52 36.15 12.41
1/14/2021 5:45:00 AM 4.44 39.992 0.269 6.51 35.42 12.22
1/14/2021 6:00:00 AM 4.44 39.992 0.273 6.51 36.97 12.18
1/14/2021 6:15:00 AM 4.43 39.974 0.279 6.52 35.98 12.24
1/14/2021 6:30:00 AM 4.42 39.956 0.282 6.52 35.97 12.18
1/14/2021 6:45:00 AM 4.42 39.956 0.284 6.53 36.65 12.27
1/14/2021 7:00:00 AM 4.41 39.938 0.282 6.53 38.36 12.33
1/14/2021 7:15:00 AM 4.41 39.938 0.283 6.52 38.32 12.39
1/14/2021 7:30:00 AM 4.41 39.938 0.272 6.53 40.25 12.39
1/14/2021 7:45:00 AM 4.41 39.938 0.278 6.52 36.8 12.38
1/14/2021 8:00:00 AM 4.41 39.938 0.277 6.51 35.92 12.4
1/14/2021 8:15:00 AM 4.42 39.956 0.28 6.5 36.08 12.42
1/14/2021 8:30:00 AM 4.42 39.956 0.279 6.5 36.83 12.46
1/14/2021 8:45:00 AM 4.44 39.992 0.279 6.5 38.05 12.46
1/14/2021 9:00:00 AM 4.46 40.028 0.278 6.49 37.39 12.48
1/14/2021 9:15:00 AM 4.48 40.064 0.28 6.48 37.51 12.48
1/14/2021 9:30:00 AM 4.52 40.136 0.279 6.48 38.89 12.54
1/14/2021 9:45:00 AM 4.57 40.226 0.282 6.46 39.33 12.59
1/14/2021 10:00:00 AM 4.61 40.298 0.281 6.43 39.38 12.62
1/14/2021 10:15:00 AM 4.66 40.388 0.28 6.43 39.73 12.64
1/14/2021 10:30:00 AM 4.73 40.514 0.278 6.43 38.44 12.67
1/14/2021 10:45:00 AM 4.78 40.604 0.276 6.42 40.74 12.7
1/14/2021 11:00:00 AM 4.84 40.712 0.274 6.42 41.42 12.75
1/14/2021 11:15:00 AM 4.9 40.82 0.273 6.42 39.91 12.79
1/14/2021 11:30:00 AM 4.97 40.946 0.273 6.41 40.06 12.79
1/14/2021 11:45:00 AM 5.04 41.072 0.272 6.42 40.67 12.83
1/14/2021 12:00:00 PM 5.12 41.216 0.275 6.42 40.18 12.85
1/14/2021 12:15:00 PM 5.19 41.342 0.273 6.42 40.39 12.87
1/14/2021 12:30:00 PM 5.27 41.486 0.274 6.43 40.05 12.87
1/14/2021 12:45:00 PM 5.34 41.612 0.273 6.44 42.35 12.89
1/14/2021 1:00:00 PM 5.42 41.756 0.273 6.44 41.58 12.9
1/14/2021 1:15:00 PM 5.47 41.846 0.273 6.46 42.23 12.92
1/14/2021 1:30:00 PM 5.53 41.954 0.272 6.47 43.9 12.93
1/14/2021 1:45:00 PM 5.59 42.062 0.271 6.48 42.42 12.91
1/14/2021 2:00:00 PM 5.64 42.152 0.27 6.49 43.55 12.9
1/14/2021 2:15:00 PM 5.69 42.242 0.27 6.5 42.03 12.86
1/14/2021 2:30:00 PM 5.73 42.314 0.269 6.53 45.45 12.88
1/14/2021 2:45:00 PM 5.76 42.368 0.269 6.54 44.86 12.9
1/14/2021 3:00:00 PM 5.78 42.404 0.269 6.55 43.7 12.89
1/14/2021 3:15:00 PM 5.8 42.44 0.269 6.56 44.61 12.86
1/14/2021 3:30:00 PM 5.83 42.494 0.263 6.57 46.38 12.86
1/14/2021 3:45:00 PM 5.86 42.548 0.263 6.58 46.15 12.82
1/14/2021 4:00:00 PM 5.86 42.548 0.265 6.6 48.93 12.84
1/14/2021 4:15:00 PM 5.87 42.566 0.26 6.6 51.36 12.8
1/14/2021 4:30:00 PM 5.87 42.566 0.261 6.6 51.46 12.76
1/14/2021 4:45:00 PM 5.87 42.566 0.26 6.6 51.53 12.75
1/14/2021 5:00:00 PM 5.85 42.53 0.262 6.61 50.56 12.71
1/14/2021 5:15:00 PM 5.82 42.476 0.261 6.61 50.72 12.64
1/14/2021 5:30:00 PM 5.81 42.458 0.264 6.6 50.37 12.63
1/14/2021 5:45:00 PM 5.79 42.422 0.259 6.61 48.75 12.62
1/14/2021 6:00:00 PM 5.77 42.386 0.273 6.61 46.07 12.57
1/14/2021 6:15:00 PM 5.75 42.35 0.268 6.63 47.11 12.51
1/14/2021 6:30:00 PM 5.73 42.314 0.269 6.64 50.48 12.49
1/14/2021 6:45:00 PM 5.72 42.296 0.266 6.66 50.84 12.42
1/14/2021 7:00:00 PM 5.7 42.26 0.264 6.68 51.84 12.32
1/14/2021 7:15:00 PM 5.69 42.242 0.26 6.69 51.58 12.25
1/14/2021 7:30:00 PM 5.68 42.224 0.259 6.69 37.42 12.31
1/14/2021 7:45:00 PM 5.66 42.188 0.253 6.69 37.29 12.3
1/14/2021 8:00:00 PM 5.65 42.17 0.246 6.69 39.73 12.31
1/14/2021 8:15:00 PM 5.62 42.116 0.26 6.7 36.86 12.3
1/14/2021 8:30:00 PM 5.61 42.098 0.255 6.7 38.68 12.29
1/14/2021 8:45:00 PM 5.61 42.098 0.253 6.71 41.11 12.26
1/14/2021 9:00:00 PM 5.6 42.08 0.249 6.72 41.15 12.23
1/14/2021 9:15:00 PM 5.59 42.062 0.248 6.73 42.25 12.19
1/14/2021 9:30:00 PM 5.58 42.044 0.251 6.74 43.73 12.15
1/14/2021 9:45:00 PM 5.58 42.044 0.249 6.76 45.82 12.06
1/14/2021 10:00:00 PM 5.58 42.044 0.247 6.77 46.94 12.15
1/14/2021 10:15:00 PM 5.57 42.026 0.256 6.77 46.69 12.12
1/14/2021 10:30:00 PM 5.56 42.008 0.254 6.76 47.83 12.12
1/14/2021 10:45:00 PM 5.55 41.99 0.231 6.77 48.19 12.13
1/14/2021 11:00:00 PM 5.55 41.99 0.225 6.77 48.9 12.09
1/14/2021 11:15:00 PM 5.55 41.99 0.276 6.77 51.27 12.07
1/14/2021 11:30:00 PM 5.54 41.972 0.28 6.77 52.03 12.07
1/14/2021 11:45:00 PM 5.54 41.972 0.278 6.76 53.74 12.03
1/15/2021 12:00:00 AM 5.53 41.954 0.283 6.76 56.84 12.01
1/15/2021 12:15:00 AM 5.52 41.936 0.247 6.76 53.48 12.02
1/15/2021 12:30:00 AM 5.5 41.9 0.285 6.76 53.65 12.05
1/15/2021 12:45:00 AM 5.48 41.864 0.278 6.76 55.19 12.04
1/15/2021 1:00:00 AM 5.46 41.828 0.284 6.78 54.27 12.02
1/15/2021 1:15:00 AM 5.43 41.774 0.255 6.79 55.1 12.03
1/15/2021 1:30:00 AM 5.4 41.72 0.254 6.79 54.46 12.05
1/15/2021 1:45:00 AM 5.37 41.666 0.268 6.78 55.99 12.05
1/15/2021 2:00:00 AM 5.35 41.63 0.243 6.78 54.88 12.07
1/15/2021 2:15:00 AM 5.33 41.594 0.236 6.76 55.97 12.07
1/15/2021 2:30:00 AM 5.3 41.54 0.233 6.77 56.62 12.02
1/15/2021 2:45:00 AM 5.28 41.504 0.249 6.78 43.4 12.07
1/15/2021 3:00:00 AM 5.27 41.486 0.251 6.79 46.59 12.07
1/15/2021 3:15:00 AM 5.24 41.432 0.247 6.79 46.7 12.06
1/15/2021 3:30:00 AM 5.22 41.396 0.257 6.78 46.74 12.06
1/15/2021 3:45:00 AM 5.19 41.342 0.241 6.78 48.37 12.03
1/15/2021 4:00:00 AM 5.16 41.288 0.25 6.78 48.28 12.06
1/15/2021 4:15:00 AM 5.15 41.27 0.244 6.77 54.63 12.09
1/15/2021 4:30:00 AM 5.14 41.252 0.252 6.74 52.61 12.1
1/15/2021 4:45:00 AM 5.12 41.216 0.252 6.69 55.88 12.11
1/15/2021 5:00:00 AM 5.1 41.18 0.261 6.66 55.74 12.11
1/15/2021 5:15:00 AM 5.08 41.144 0.255 6.61 58.41 12.11
1/15/2021 5:30:00 AM 5.06 41.108 0.253 6.58 58.54 12.1
1/15/2021 5:45:00 AM 5.04 41.072 0.272 6.55 59.19 12.12
1/15/2021 6:00:00 AM 5.01 41.018 0.281 6.53 62.47 12.13
1/15/2021 6:15:00 AM 4.99 40.982 0.258 6.52 63.55 12.13
1/15/2021 6:30:00 AM 4.97 40.946 0.26 6.51 65.59 12.14
1/15/2021 6:45:00 AM 4.94 40.892 0.264 6.52 66.65 12.11
1/15/2021 7:00:00 AM 4.92 40.856 0.28 6.53 68.86 12.13
1/15/2021 7:15:00 AM 4.9 40.82 0.282 6.53 68.87 12.16
1/15/2021 7:30:00 AM 4.89 40.802 0.282 6.53 69.71 12.17
1/15/2021 7:45:00 AM 4.89 40.802 0.282 6.52 70.11 12.1
1/15/2021 8:00:00 AM 4.87 40.766 0.281 6.51 71.04 12.19
1/15/2021 8:15:00 AM 4.87 40.766 0.281 6.5 71.54 12.19
1/15/2021 8:30:00 AM 4.87 40.766 0.282 6.48 65.27 12.19
1/15/2021 8:45:00 AM 4.88 40.784 0.282 6.48 63.59 12.26
1/15/2021 9:00:00 AM 4.9 40.82 0.283 6.47 64.91 12.26
1/15/2021 9:15:00 AM 4.91 40.838 0.284 6.47 64.47 12.27
1/15/2021 9:30:00 AM -100000 -179968 -100000 -100000 -100000 -100000
1/15/2021 9:45:00 AM -100000 -179968 -100000 -100000 -100000 -100000
1/15/2021 10:00:00 AM -100000 -179968 -100000 -100000 -100000 -100000
1/15/2021 10:15:00 AM 5.02 41.036 0.291 7.18 1.57 12.41
1/15/2021 10:30:00 AM 5.05 41.09 0.29 7.34 0.8 12.37
1/15/2021 10:45:00 AM 5.08 41.144 0.289 6.94 1.24 12.41
1/15/2021 11:00:00 AM 5.11 41.198 0.288 6.77 0.61 12.45
1/15/2021 11:15:00 AM 5.15 41.27 0.287 6.71 0.75 12.48
1/15/2021 11:30:00 AM 5.18 41.324 0.287 6.7 1.5 12.49
1/15/2021 11:45:00 AM 5.2 41.36 0.287 6.7 0.66 12.5
1/15/2021 12:00:00 PM 5.23 41.414 0.287 6.71 0.92 12.52
1/15/2021 12:15:00 PM 5.25 41.45 0.287 6.73 0.89 12.54
1/15/2021 12:30:00 PM 5.28 41.504 0.287 6.74 1.04 12.54
1/15/2021 12:45:00 PM 5.32 41.576 0.287 6.76 0.55 12.57
1/15/2021 1:00:00 PM 5.37 41.666 0.287 6.77 2.15 12.6
1/15/2021 1:15:00 PM 5.42 41.756 0.286 6.77 1.22 12.61
1/15/2021 1:30:00 PM 5.46 41.828 0.285 6.78 0.88 12.65
1/15/2021 1:45:00 PM 5.51 41.918 0.285 6.78 0.76 12.67
1/15/2021 2:00:00 PM 5.54 41.972 0.284 6.8 0.75 12.68
1/15/2021 2:15:00 PM 5.57 42.026 0.284 6.8 0.83 12.68
1/15/2021 2:30:00 PM 5.6 42.08 0.283 6.8 1.49 12.68
1/15/2021 2:45:00 PM 5.64 42.152 0.284 6.81 1.43 12.66
1/15/2021 3:00:00 PM 5.67 42.206 0.284 6.81 1.36 12.66
1/15/2021 3:15:00 PM 5.68 42.224 0.284 6.82 0.87 12.63
1/15/2021 3:30:00 PM 5.7 42.26 0.285 6.83 1.35 12.62
1/15/2021 3:45:00 PM 5.72 42.296 0.285 6.84 0.97 12.57
1/15/2021 4:00:00 PM 5.74 42.332 0.286 6.84 0.72 12.54
1/15/2021 4:15:00 PM 5.76 42.368 0.286 6.86 0.63 12.53
1/15/2021 4:30:00 PM 5.77 42.386 0.286 6.84 1.33 12.5
1/15/2021 4:45:00 PM 5.79 42.422 0.286 6.85 1.64 12.47
1/15/2021 5:00:00 PM 5.8 42.44 0.286 6.87 1.74 12.43
1/15/2021 5:15:00 PM 5.81 42.458 0.286 6.87 2.07 12.4
1/15/2021 5:30:00 PM 5.82 42.476 0.286 6.9 1.36 12.34
1/15/2021 5:45:00 PM 5.84 42.512 0.285 6.9 1.03 12.32
1/15/2021 6:00:00 PM 5.85 42.53 0.285 6.9 0.86 12.29
1/15/2021 6:15:00 PM 5.86 42.548 0.285 6.9 1.12 12.26
1/15/2021 6:30:00 PM 5.87 42.566 0.285 6.91 3.54 12.21
1/15/2021 6:45:00 PM 5.88 42.584 0.285 6.9 0.7 12.18
1/15/2021 7:00:00 PM 5.89 42.602 0.284 6.9 1.35 12.17
1/15/2021 7:15:00 PM 5.9 42.62 0.283 6.91 0.91 12.13
1/15/2021 7:30:00 PM 5.91 42.638 0.283 6.91 0.72 12.1
1/15/2021 7:45:00 PM 5.92 42.656 0.281 6.91 1.49 12.08
1/15/2021 8:00:00 PM 5.94 42.692 0.28 6.9 0.76 12.05
1/15/2021 8:15:00 PM 5.95 42.71 0.28 6.9 1.73 12.03
1/15/2021 8:30:00 PM 5.96 42.728 0.28 6.9 1.37 12.02
1/15/2021 8:45:00 PM 5.97 42.746 0.279 6.9 1.31 11.99
1/15/2021 9:00:00 PM 5.98 42.764 0.279 6.91 1.81 12
1/15/2021 9:15:00 PM 5.99 42.782 0.279 6.91 2.36 11.96
1/15/2021 9:30:00 PM 6.01 42.818 0.279 6.91 1.93 11.94
1/15/2021 9:45:00 PM 6.02 42.836 0.278 6.92 1.71 11.93
1/15/2021 10:00:00 PM 6.03 42.854 0.278 6.91 1.56 11.9
1/15/2021 10:15:00 PM 6.04 42.872 0.278 6.92 2.58 11.9
1/15/2021 10:30:00 PM 6.06 42.908 0.262 6.91 2.77 11.88
1/15/2021 10:45:00 PM 6.07 42.926 0.254 6.93 1.53 11.86
1/15/2021 11:00:00 PM 6.08 42.944 0.266 6.92 2.41 11.84
1/15/2021 11:15:00 PM 6.09 42.962 0.262 6.92 1.71 11.82
1/15/2021 11:30:00 PM 6.1 42.98 0.267 6.92 1.75 11.81
1/15/2021 11:45:00 PM 6.12 43.016 0.269 6.92 1.53 11.8
1/16/2021 12:00:00 AM 6.13 43.034 0.26 6.92 2.05 11.77
1/16/2021 12:15:00 AM 6.14 43.052 0.248 6.92 1.37 11.76
1/16/2021 12:30:00 AM 6.15 43.07 0.272 6.93 1.88 11.73
1/16/2021 12:45:00 AM 6.16 43.088 0.274 6.92 2.56 11.73
1/16/2021 1:00:00 AM 6.17 43.106 0.248 6.92 2.37 11.72
1/16/2021 1:15:00 AM 6.18 43.124 0.255 6.92 1.01 11.7
1/16/2021 1:30:00 AM 6.19 43.142 0.247 6.92 1.65 11.7
1/16/2021 1:45:00 AM 6.19 43.142 0.263 6.92 1.91 11.69
1/16/2021 2:00:00 AM 6.2 43.16 0.271 6.92 1.92 11.68
1/16/2021 2:15:00 AM 6.2 43.16 0.255 6.92 3.66 11.67
1/16/2021 2:30:00 AM 6.2 43.16 0.249 6.92 1.09 11.66
1/16/2021 2:45:00 AM 6.21 43.178 0.255 6.91 1.55 11.66
1/16/2021 3:00:00 AM 6.22 43.196 0.261 6.92 1.6 11.63
1/16/2021 3:15:00 AM 6.22 43.196 0.265 6.94 4.53 11.61
1/16/2021 3:30:00 AM 6.22 43.196 0.267 6.91 2.19 11.6
1/16/2021 3:45:00 AM 6.22 43.196 0.249 6.91 1.84 11.61
1/16/2021 4:00:00 AM 6.21 43.178 0.257 6.92 1.71 11.59
1/16/2021 4:15:00 AM 6.19 43.142 0.258 6.92 3.56 11.58
1/16/2021 4:30:00 AM 6.17 43.106 0.271 6.91 1.9 11.59
1/16/2021 4:45:00 AM 6.17 43.106 0.271 6.92 1.63 11.59
1/16/2021 5:00:00 AM 6.17 43.106 0.242 6.91 2.23 11.58
1/16/2021 5:15:00 AM 6.16 43.088 0.239 6.92 4.14 11.57
1/16/2021 5:30:00 AM 6.15 43.07 0.238 6.9 1.96 11.57
1/16/2021 5:45:00 AM 6.14 43.052 0.247 6.93 1.19 11.56
1/16/2021 6:00:00 AM 6.12 43.016 0.251 6.92 2.62 11.56
1/16/2021 6:15:00 AM 6.09 42.962 0.251 6.92 2.21 11.55
1/16/2021 6:30:00 AM 6.06 42.908 0.262 6.91 1.73 11.55
1/16/2021 6:45:00 AM 6.03 42.854 0.264 6.9 3.03 11.56
1/16/2021 7:00:00 AM 6 42.8 0.263 6.9 2.1 11.56
1/16/2021 7:15:00 AM 5.97 42.746 0.277 6.93 2.1 11.57
1/16/2021 7:30:00 AM 5.94 42.692 0.28 6.9 2.49 11.58
1/16/2021 7:45:00 AM 5.91 42.638 0.279 6.91 2.74 11.59
1/16/2021 8:00:00 AM 5.89 42.602 0.279 6.91 1.8 11.61
1/16/2021 8:15:00 AM 5.88 42.584 0.279 6.91 2.02 11.61
1/16/2021 8:30:00 AM 5.86 42.548 0.28 6.91 2.44 11.64
1/16/2021 8:45:00 AM 5.85 42.53 0.281 6.91 2.81 11.65
1/16/2021 9:00:00 AM 5.84 42.512 0.281 6.92 1.68 11.71
1/16/2021 9:15:00 AM 5.83 42.494 0.282 6.92 1.86 11.74
1/16/2021 9:30:00 AM 5.85 42.53 0.282 6.91 1.88 11.77
1/16/2021 9:45:00 AM 5.86 42.548 0.281 6.9 2.02 11.83
1/16/2021 10:00:00 AM 5.88 42.584 0.28 6.9 1.15 11.87
1/16/2021 10:15:00 AM 5.89 42.602 0.279 6.91 2.46 11.91
1/16/2021 10:30:00 AM 5.91 42.638 0.278 6.91 2.33 11.97
1/16/2021 10:45:00 AM 5.94 42.692 0.278 6.93 3.94 11.98
1/16/2021 11:00:00 AM 5.97 42.746 0.278 6.93 1.1 12.03
1/16/2021 11:15:00 AM 6.01 42.818 0.279 6.94 1.24 12.07
1/16/2021 11:30:00 AM 6.06 42.908 0.279 6.94 1.51 12.1
1/16/2021 11:45:00 AM 6.13 43.034 0.279 6.94 1.48 12.14
1/16/2021 12:00:00 PM 6.18 43.124 0.279 6.95 1.85 12.15
1/16/2021 12:15:00 PM 6.23 43.214 0.279 6.96 1.48 12.18
1/16/2021 12:30:00 PM 6.26 43.268 0.279 6.97 4.3 12.22
1/16/2021 12:45:00 PM 6.32 43.376 0.278 6.99 2.89 12.26
1/16/2021 1:00:00 PM 6.37 43.466 0.278 6.99 1.26 12.29
1/16/2021 1:15:00 PM 6.4 43.52 0.277 7 2.07 12.29
1/16/2021 1:30:00 PM 6.43 43.574 0.276 7.01 2.45 12.31
1/16/2021 1:45:00 PM 6.47 43.646 0.277 7.01 1.26 12.33
1/16/2021 2:00:00 PM 6.49 43.682 0.278 7.04 1.1 12.35
1/16/2021 2:15:00 PM 6.52 43.736 0.277 7.05 1.05 12.37
1/16/2021 2:30:00 PM 6.55 43.79 0.281 7.04 0.91 12.37
1/16/2021 2:45:00 PM 6.56 43.808 0.28 7.05 2.08 12.39
1/16/2021 3:00:00 PM 6.55 43.79 0.28 7.07 2.83 12.39
1/16/2021 3:15:00 PM 6.54 43.772 0.28 7.06 1.37 12.39
1/16/2021 3:30:00 PM 6.53 43.754 0.279 7.07 1.99 12.39
1/16/2021 3:45:00 PM 6.52 43.736 0.279 7.07 2.12 12.39
1/16/2021 4:00:00 PM 6.5 43.7 0.279 7.09 1.04 12.39
1/16/2021 4:15:00 PM 6.49 43.682 0.278 7.07 1.43 12.36
1/16/2021 4:30:00 PM 6.48 43.664 0.278 7.07 1.47 12.34
1/16/2021 4:45:00 PM 6.47 43.646 0.277 7.08 1.66 12.31
1/16/2021 5:00:00 PM 6.46 43.628 0.277 7.07 2.08 12.26
1/16/2021 5:15:00 PM 6.45 43.61 0.279 7.06 1.63 12.23
1/16/2021 5:30:00 PM 6.44 43.592 0.261 7.06 2.34 12.21
1/16/2021 5:45:00 PM 6.44 43.592 0.263 7.07 1.17 12.16
1/16/2021 6:00:00 PM 6.43 43.574 0.241 7.05 1.79 12.12
1/16/2021 6:15:00 PM 6.42 43.556 0.267 7.06 1.73 12.1
1/16/2021 6:30:00 PM 6.41 43.538 0.271 7.04 1.58 12.07
1/16/2021 6:45:00 PM 6.4 43.52 0.265 7.05 1.14 12.03
1/16/2021 7:00:00 PM 6.39 43.502 0.267 7.04 0.92 12
1/16/2021 7:15:00 PM 6.38 43.484 0.262 7.05 1.21 11.96
1/16/2021 7:30:00 PM 6.37 43.466 0.254 7.04 2.9 11.93
1/16/2021 7:45:00 PM 6.36 43.448 0.265 7.03 1.78 11.89
1/16/2021 8:00:00 PM 6.36 43.448 0.262 7.03 1.62 11.87
1/16/2021 8:15:00 PM 6.36 43.448 0.252 7.02 2.2 11.83
1/16/2021 8:30:00 PM 6.37 43.466 0.265 7.02 1.7 11.82
1/16/2021 8:45:00 PM 6.37 43.466 0.261 7.01 2.02 11.77
1/16/2021 9:00:00 PM 6.36 43.448 0.257 7.02 2.09 11.76
1/16/2021 9:15:00 PM 6.35 43.43 0.252 7.01 1.27 11.74
1/16/2021 9:30:00 PM 6.34 43.412 0.266 7 1.9 11.71
1/16/2021 9:45:00 PM 6.34 43.412 0.269 7.01 1.64 11.7
1/16/2021 10:00:00 PM 6.32 43.376 0.268 7 2.19 11.69
1/16/2021 10:15:00 PM 6.31 43.358 0.267 7.01 1.62 11.67
1/16/2021 10:30:00 PM 6.3 43.34 0.265 7.01 1.26 11.66
1/16/2021 10:45:00 PM 6.28 43.304 0.264 7 1.58 11.64
1/16/2021 11:00:00 PM 6.26 43.268 0.262 7.01 1.98 11.63
1/16/2021 11:15:00 PM 6.25 43.25 0.264 7 2.01 11.62
1/16/2021 11:30:00 PM 6.24 43.232 0.265 7 2.84 11.61
1/16/2021 11:45:00 PM 6.21 43.178 0.264 7 2.09 11.61
1/17/2021 12:00:00 AM 6.18 43.124 0.264 7.01 1.04 11.6
1/17/2021 12:15:00 AM 6.15 43.07 0.262 7 1.6 11.58
1/17/2021 12:30:00 AM 6.12 43.016 0.256 6.99 1.81 11.59
1/17/2021 12:45:00 AM 6.09 42.962 0.258 7 2.23 11.59
1/17/2021 1:00:00 AM 6.05 42.89 0.267 7 1.41 11.6
1/17/2021 1:15:00 AM 6.02 42.836 0.273 6.99 2.96 11.59
1/17/2021 1:30:00 AM 5.98 42.764 0.261 6.99 1.23 11.61
1/17/2021 1:45:00 AM 5.94 42.692 0.264 6.98 3.59 11.61
1/17/2021 2:00:00 AM 5.91 42.638 0.247 6.99 2.46 11.62
1/17/2021 2:15:00 AM 5.89 42.602 0.264 6.97 2.42 11.61
1/17/2021 2:30:00 AM 5.87 42.566 0.263 6.97 2.12 11.61
1/17/2021 2:45:00 AM 5.85 42.53 0.266 6.97 1.81 11.6
1/17/2021 3:00:00 AM 5.81 42.458 0.263 6.96 2.75 11.62
1/17/2021 3:15:00 AM 5.77 42.386 0.262 6.96 2.55 11.62
1/17/2021 3:30:00 AM 5.75 42.35 0.255 6.96 2.61 11.63
1/17/2021 3:45:00 AM 5.73 42.314 0.271 6.96 3.61 11.63
1/17/2021 4:00:00 AM 5.7 42.26 0.264 6.96 2.14 11.64
1/17/2021 4:15:00 AM 5.68 42.224 0.251 6.95 1.81 11.66
1/17/2021 4:30:00 AM 5.66 42.188 0.249 6.95 2.07 11.68
1/17/2021 4:45:00 AM 5.64 42.152 0.257 6.94 2.02 11.67
1/17/2021 5:00:00 AM 5.63 42.134 0.257 6.93 3.9 11.69
1/17/2021 5:15:00 AM 5.62 42.116 0.259 6.93 2.19 11.69
1/17/2021 5:30:00 AM 5.61 42.098 0.266 6.94 2.22 11.68
1/17/2021 5:45:00 AM 5.6 42.08 0.265 6.93 4.35 11.68
1/17/2021 6:00:00 AM 5.57 42.026 0.252 6.93 1.96 11.69
1/17/2021 6:15:00 AM 5.56 42.008 0.253 6.93 6.2 11.7
1/17/2021 6:30:00 AM 5.54 41.972 0.265 6.94 1.32 11.7
1/17/2021 6:45:00 AM 5.52 41.936 0.249 6.93 1.42 11.72
1/17/2021 7:00:00 AM 5.5 41.9 0.258 6.92 3.77 11.73
1/17/2021 7:15:00 AM 5.48 41.864 0.253 6.92 1.85 11.73
1/17/2021 7:30:00 AM 5.45 41.81 0.252 6.92 1.5 11.76
1/17/2021 7:45:00 AM 5.44 41.792 0.276 6.91 1.95 11.77
1/17/2021 8:00:00 AM 5.42 41.756 0.276 6.92 2.59 11.78
1/17/2021 8:15:00 AM 5.41 41.738 0.269 6.91 1.82 11.79
1/17/2021 8:30:00 AM 5.4 41.72 0.264 6.9 1.55 11.81
1/17/2021 8:45:00 AM 5.4 41.72 0.266 6.9 1.94 11.84
1/17/2021 9:00:00 AM 5.4 41.72 0.261 6.89 1.39 11.86
1/17/2021 9:15:00 AM 5.41 41.738 0.259 6.89 3.78 11.9
1/17/2021 9:30:00 AM 5.42 41.756 0.258 6.89 1.85 11.93
1/17/2021 9:45:00 AM 5.44 41.792 0.264 6.89 1.1 11.98
1/17/2021 10:00:00 AM 5.45 41.81 0.267 6.9 1.73 12.05
1/17/2021 10:15:00 AM 5.47 41.846 0.269 6.91 1.6 12.07
1/17/2021 10:30:00 AM 5.49 41.882 0.267 6.91 1.1 12.13
1/17/2021 10:45:00 AM 5.55 41.99 0.268 6.91 1.62 12.18
1/17/2021 11:00:00 AM 5.61 42.098 0.265 6.92 1.13 12.23
1/17/2021 11:15:00 AM 5.65 42.17 0.265 6.91 1.61 12.28
1/17/2021 11:30:00 AM 5.68 42.224 0.265 6.93 1.36 12.32
1/17/2021 11:45:00 AM 5.71 42.278 0.266 6.93 1.31 12.34
1/17/2021 12:00:00 PM 5.76 42.368 0.268 6.94 1.66 12.39
1/17/2021 12:15:00 PM 5.8 42.44 0.266 6.94 2.54 12.39
1/17/2021 12:30:00 PM 5.84 42.512 0.265 6.95 1.27 12.45
1/17/2021 12:45:00 PM 5.87 42.566 0.265 6.97 1.48 12.46
1/17/2021 1:00:00 PM 5.91 42.638 0.266 6.97 1.49 12.52
1/17/2021 1:15:00 PM 5.94 42.692 0.263 6.98 1.44 12.53
1/17/2021 1:30:00 PM 5.97 42.746 0.264 6.99 1.02 12.55
1/17/2021 1:45:00 PM 6 42.8 0.264 7.01 1.72 12.59
1/17/2021 2:00:00 PM 6.03 42.854 0.263 7.01 1.69 12.6
1/17/2021 2:15:00 PM 6.04 42.872 0.262 7.01 1.12 12.61
1/17/2021 2:30:00 PM 6.05 42.89 0.261 7.02 1.55 12.6
1/17/2021 2:45:00 PM 6.07 42.926 0.261 7.03 1.54 12.63
1/17/2021 3:00:00 PM 6.1 42.98 0.264 7.04 1.53 12.64
1/17/2021 3:15:00 PM 6.13 43.034 0.264 7.04 1.78 12.65
1/17/2021 3:30:00 PM 6.16 43.088 0.263 7.04 1.59 12.66
1/17/2021 3:45:00 PM 6.18 43.124 0.265 7.05 1.64 12.64
1/17/2021 4:00:00 PM 6.17 43.106 0.263 7.06 1.27 12.63
1/17/2021 4:15:00 PM 6.17 43.106 0.265 7.06 2.09 12.63
1/17/2021 4:30:00 PM 6.17 43.106 0.265 7.07 1.44 12.59
1/17/2021 4:45:00 PM 6.16 43.088 0.261 7.06 2.1 12.57
1/17/2021 5:00:00 PM 6.14 43.052 0.262 7.07 1.66 12.53
1/17/2021 5:15:00 PM 6.13 43.034 0.266 7.07 1.18 12.49
1/17/2021 5:30:00 PM 6.12 43.016 0.266 7.06 1.37 12.45
1/17/2021 5:45:00 PM 6.12 43.016 0.26 7.06 1.43 12.4
1/17/2021 6:00:00 PM 6.11 42.998 0.266 7.06 1.27 12.37
1/17/2021 6:15:00 PM 6.09 42.962 0.265 7.06 1.31 12.34
1/17/2021 6:30:00 PM 6.08 42.944 0.264 7.05 1.46 12.3
1/17/2021 6:45:00 PM 6.08 42.944 0.265 7.06 1.44 12.25
1/17/2021 7:00:00 PM 6.07 42.926 0.254 7.06 1.02 12.24
1/17/2021 7:15:00 PM 6.06 42.908 0.263 7.07 1.33 12.2
1/17/2021 7:30:00 PM 6.05 42.89 0.249 7.05 0.99 12.16
1/17/2021 7:45:00 PM 6.04 42.872 0.252 7.07 1.55 12.14
1/17/2021 8:00:00 PM 6.04 42.872 0.259 7.05 1.16 12.1
1/17/2021 8:15:00 PM 6.04 42.872 0.254 7.04 0.84 12.08
1/17/2021 8:30:00 PM 6.05 42.89 0.259 7.04 1.85 12.05
1/17/2021 8:45:00 PM 6.04 42.872 0.263 7.04 1.19 12.01
1/17/2021 9:00:00 PM 6.04 42.872 0.264 7.04 0.9 11.99
1/17/2021 9:15:00 PM 6.04 42.872 0.265 7.03 1.21 11.95
1/17/2021 9:30:00 PM 6.04 42.872 0.267 7.03 1.14 11.94
1/17/2021 9:45:00 PM 6.04 42.872 0.268 7.03 1.2 11.91
1/17/2021 10:00:00 PM 6.03 42.854 0.268 7.02 1.55 11.9
1/17/2021 10:15:00 PM 6.03 42.854 0.265 7.03 1.45 11.88
1/17/2021 10:30:00 PM 6.02 42.836 0.243 7.03 1.11 11.86
1/17/2021 10:45:00 PM 6.02 42.836 0.261 7.03 1.02 11.85
1/17/2021 11:00:00 PM 6.02 42.836 0.267 7.02 1.09 11.85
1/17/2021 11:15:00 PM 6.02 42.836 0.257 7.02 1.6 11.83
1/17/2021 11:30:00 PM 6.02 42.836 0.266 7.02 1.23 11.82
1/17/2021 11:45:00 PM 6.01 42.818 0.253 7.02 1.66 11.8
1/18/2021 12:00:00 AM 6 42.8 0.254 7.02 2.09 11.78
1/18/2021 12:15:00 AM 6 42.8 0.26 7.02 1.37 11.78
1/18/2021 12:30:00 AM 5.99 42.782 0.254 7.01 1.21 11.77
1/18/2021 12:45:00 AM 5.98 42.764 0.261 7.02 1.06 11.76
1/18/2021 1:00:00 AM 5.96 42.728 0.264 7.01 3.15 11.75
1/18/2021 1:15:00 AM 5.94 42.692 0.261 7.02 2.71 11.75
1/18/2021 1:30:00 AM 5.93 42.674 0.266 7.01 2.32 11.76
1/18/2021 1:45:00 AM 5.92 42.656 0.261 7.01 1.35 11.76
1/18/2021 2:00:00 AM 5.9 42.62 0.258 7.01 1.26 11.75
1/18/2021 2:15:00 AM 5.88 42.584 0.271 7 1.33 11.77
1/18/2021 2:30:00 AM 5.86 42.548 0.248 7 1.34 11.77
1/18/2021 2:45:00 AM 5.83 42.494 0.256 7 2.06 11.74
1/18/2021 3:00:00 AM 5.8 42.44 0.237 7 1.66 11.75
1/18/2021 3:15:00 AM 5.78 42.404 0.258 7 1.62 11.76
1/18/2021 3:30:00 AM 5.74 42.332 0.252 7.01 1.35 11.76
1/18/2021 3:45:00 AM 5.71 42.278 0.273 7.01 3.6 11.75
1/18/2021 4:00:00 AM 5.67 42.206 0.264 7.02 1.18 11.78
1/18/2021 4:15:00 AM 5.63 42.134 0.26 7.03 1.46 11.76
1/18/2021 4:30:00 AM 5.58 42.044 0.275 7.02 2.64 11.76
1/18/2021 4:45:00 AM 5.55 41.99 0.271 7.03 1.14 11.79
1/18/2021 5:00:00 AM 5.52 41.936 0.275 7.03 1.38 11.78
1/18/2021 5:15:00 AM 5.5 41.9 0.274 7.05 1.01 11.8
1/18/2021 5:30:00 AM 5.48 41.864 0.274 7.05 1.71 11.81
1/18/2021 5:45:00 AM 5.45 41.81 0.277 7.07 1.13 11.81
1/18/2021 6:00:00 AM 5.42 41.756 0.28 7.06 1.91 11.81
1/18/2021 6:15:00 AM 5.39 41.702 0.28 7.06 1.46 11.81
1/18/2021 6:30:00 AM 5.38 41.684 0.265 7.06 1.87 11.83
1/18/2021 6:45:00 AM 5.37 41.666 0.277 7.05 1.84 11.82
1/18/2021 7:00:00 AM 5.34 41.612 0.254 7.05 1.38 11.82
1/18/2021 7:15:00 AM 5.32 41.576 0.279 7.04 1.35 11.83
1/18/2021 7:30:00 AM 5.29 41.522 0.269 7.03 1.75 11.83
1/18/2021 7:45:00 AM 5.27 41.486 0.265 7.04 0.61 11.85
1/18/2021 8:00:00 AM 5.27 41.486 0.264 7.02 1.24 11.86
1/18/2021 8:15:00 AM 5.26 41.468 0.268 7.02 1.26 11.88
1/18/2021 8:30:00 AM 5.25 41.45 0.271 7.01 1.09 11.92
1/18/2021 8:45:00 AM 5.26 41.468 0.272 7 1.06 11.96
1/18/2021 9:00:00 AM 5.28 41.504 0.273 6.98 0.84 12
1/18/2021 9:15:00 AM 5.31 41.558 0.274 6.95 1.2 12.05
1/18/2021 9:30:00 AM 5.34 41.612 0.274 6.93 1.16 12.07
1/18/2021 9:45:00 AM 5.36 41.648 0.274 6.91 1.11 12.13
1/18/2021 10:00:00 AM 5.39 41.702 0.273 6.9 1.74 12.18
1/18/2021 10:15:00 AM 5.41 41.738 0.273 6.91 0.87 12.21
1/18/2021 10:30:00 AM 5.44 41.792 0.274 6.92 1.1 12.28
1/18/2021 10:45:00 AM 5.47 41.846 0.269 6.92 2.46 12.32
1/18/2021 11:00:00 AM 5.51 41.918 0.27 6.95 1.13 12.37
1/18/2021 11:15:00 AM 5.54 41.972 0.269 6.97 1.2 12.42
1/18/2021 11:30:00 AM 5.57 42.026 0.274 6.96 0.78 12.46
1/18/2021 11:45:00 AM 5.61 42.098 0.272 6.96 1.3 12.5
1/18/2021 12:00:00 PM 5.66 42.188 0.274 6.98 0.68 12.53
1/18/2021 12:15:00 PM 5.72 42.296 0.273 6.98 0.87 12.57
1/18/2021 12:30:00 PM 5.76 42.368 0.272 7 1.2 12.6
1/18/2021 12:45:00 PM 5.79 42.422 0.276 7.02 1.22 12.62
1/18/2021 1:00:00 PM 5.8 42.44 0.273 7.03 1.11 12.65
1/18/2021 1:15:00 PM 5.83 42.494 0.268 7.05 1.29 12.65
1/18/2021 1:30:00 PM 5.88 42.584 0.27 7.05 0.95 12.67
1/18/2021 1:45:00 PM 5.93 42.674 0.271 7.06 0.96 12.71
1/18/2021 2:00:00 PM 5.97 42.746 0.271 7.07 0.61 12.73
1/18/2021 2:15:00 PM 5.97 42.746 0.273 7.09 1.12 12.75
1/18/2021 2:30:00 PM 6 42.8 0.277 7.09 1.62 12.76
1/18/2021 2:45:00 PM 6.02 42.836 0.277 7.1 0.61 12.77
1/18/2021 3:00:00 PM 6.02 42.836 0.277 7.12 0.51 12.77
1/18/2021 3:15:00 PM 6 42.8 0.276 7.11 1.07 12.77
1/18/2021 3:30:00 PM 6 42.8 0.277 7.12 3.69 12.76
1/18/2021 3:45:00 PM 6.01 42.818 0.277 7.13 1.19 12.76
1/18/2021 4:00:00 PM 6 42.8 0.277 7.14 0.94 12.74
1/18/2021 4:15:00 PM 5.98 42.764 0.278 7.14 0.63 12.74
1/18/2021 4:30:00 PM 5.95 42.71 0.278 7.14 1.16 12.72
1/18/2021 4:45:00 PM 5.94 42.692 0.279 7.15 0.48 12.68
1/18/2021 5:00:00 PM 5.91 42.638 0.279 7.16 1.26 12.68
1/18/2021 5:15:00 PM 5.88 42.584 0.277 7.18 1.42 12.65
1/18/2021 5:30:00 PM 5.84 42.512 0.276 7.2 0.68 12.61
1/18/2021 5:45:00 PM 5.82 42.476 0.263 7.22 1.58 12.56
1/18/2021 6:00:00 PM 5.81 42.458 0.265 7.22 0.87 12.54
1/18/2021 6:15:00 PM 5.8 42.44 0.259 7.23 2.24 12.49
1/18/2021 6:30:00 PM 5.79 42.422 0.256 7.23 0.98 12.47
1/18/2021 6:45:00 PM 5.76 42.368 0.248 7.24 1.18 12.45
1/18/2021 7:00:00 PM 5.73 42.314 0.272 7.25 1 12.43
1/18/2021 7:15:00 PM 5.69 42.242 0.264 7.25 1.15 12.39
1/18/2021 7:30:00 PM 5.66 42.188 0.27 7.24 0.92 12.38
1/18/2021 7:45:00 PM 5.64 42.152 0.263 7.21 1.32 12.35
1/18/2021 8:00:00 PM 5.61 42.098 0.263 7.19 1.1 12.32
1/18/2021 8:15:00 PM 5.59 42.062 0.265 7.21 1.17 12.3
1/18/2021 8:30:00 PM 5.56 42.008 0.262 7.24 0.93 12.26
1/18/2021 8:45:00 PM 5.53 41.954 0.267 7.27 0.84 12.24
1/18/2021 9:00:00 PM 5.52 41.936 0.254 7.31 1.12 12.21
1/18/2021 9:15:00 PM 5.51 41.918 0.261 7.34 0.94 12.19
1/18/2021 9:30:00 PM 5.51 41.918 0.27 7.37 0.88 12.18
1/18/2021 9:45:00 PM 5.52 41.936 0.268 7.38 1.12 12.17
1/18/2021 10:00:00 PM 5.51 41.918 0.267 7.37 1.09 12.14
1/18/2021 10:15:00 PM 5.51 41.918 0.265 7.36 1.39 12.13
1/18/2021 10:30:00 PM 5.49 41.882 0.253 7.34 1.82 12.13
1/18/2021 10:45:00 PM 5.49 41.882 0.261 7.31 0.85 12.1
1/18/2021 11:00:00 PM 5.49 41.882 0.276 7.32 1.15 12.1
1/18/2021 11:15:00 PM 5.5 41.9 0.266 7.32 1.24 12.09
1/18/2021 11:30:00 PM 5.51 41.918 0.269 7.31 2.29 12.06
1/18/2021 11:45:00 PM 5.52 41.936 0.272 7.29 0.87 12.06
1/19/2021 12:00:00 AM 5.52 41.936 0.274 7.31 1 12.05
1/19/2021 12:15:00 AM 5.54 41.972 0.274 7.31 1.44 12
1/19/2021 12:30:00 AM 5.54 41.972 0.275 7.32 0.92 12.01
1/19/2021 12:45:00 AM 5.55 41.99 0.275 7.31 0.81 11.99
1/19/2021 1:00:00 AM 5.55 41.99 0.276 7.31 1.8 11.98
1/19/2021 1:15:00 AM 5.55 41.99 0.256 7.29 0.68 11.99
1/19/2021 1:30:00 AM 5.54 41.972 0.27 7.28 1.11 11.98
1/19/2021 1:45:00 AM 5.53 41.954 0.272 7.29 2.34 11.96
1/19/2021 2:00:00 AM 5.49 41.882 0.276 7.3 1.73 11.98
1/19/2021 2:15:00 AM 5.47 41.846 0.275 7.3 0.56 11.98
1/19/2021 2:30:00 AM 5.45 41.81 0.257 7.29 0.91 12
1/19/2021 2:45:00 AM 5.43 41.774 0.26 7.29 1.09 12
1/19/2021 3:00:00 AM 5.4 41.72 0.277 7.3 1.03 11.99
1/19/2021 3:15:00 AM 5.38 41.684 0.272 7.3 1.54 12
1/19/2021 3:30:00 AM 5.36 41.648 0.271 7.3 1.2 12.01
1/19/2021 3:45:00 AM 5.34 41.612 0.275 7.3 1.19 11.99
1/19/2021 4:00:00 AM 5.32 41.576 0.274 7.3 1.16 12.01
1/19/2021 4:15:00 AM 5.3 41.54 0.276 7.3 0.63 12.04
1/19/2021 4:30:00 AM 5.27 41.486 0.271 7.28 1.08 12.04
1/19/2021 4:45:00 AM 5.25 41.45 0.274 7.26 2.28 12.05
1/19/2021 5:00:00 AM 5.22 41.396 0.273 7.22 1.32 12.07
1/19/2021 5:15:00 AM 5.19 41.342 0.267 7.2 3.06 12.07
1/19/2021 5:30:00 AM 5.16 41.288 0.266 7.19 1.45 12.07
1/19/2021 5:45:00 AM 5.12 41.216 0.267 7.2 1.03 12.09
1/19/2021 6:00:00 AM 5.09 41.162 0.271 7.23 2.37 12.08
1/19/2021 6:15:00 AM 5.06 41.108 0.264 7.26 1.7 12.09
1/19/2021 6:30:00 AM 5.04 41.072 0.259 7.29 1.09 12.11
1/19/2021 6:45:00 AM 5.02 41.036 0.272 7.29 1.93 12.11
1/19/2021 7:00:00 AM 5 41 0.261 7.29 0.97 12.1
1/19/2021 7:15:00 AM 4.97 40.946 0.261 7.29 0.96 12.13
1/19/2021 7:30:00 AM 4.95 40.91 0.27 7.27 1.96 12.14
1/19/2021 7:45:00 AM 4.93 40.874 0.261 7.27 1.54 12.15
1/19/2021 8:00:00 AM 4.92 40.856 0.282 7.28 3.36 12.17
1/19/2021 8:15:00 AM 4.91 40.838 0.283 7.28 1.18 12.18
1/19/2021 8:30:00 AM 4.91 40.838 0.283 7.27 1.29 12.2
1/19/2021 8:45:00 AM 4.91 40.838 0.283 7.26 1.28 12.24
1/19/2021 9:00:00 AM 4.93 40.874 0.283 7.27 0.46 12.29
1/19/2021 9:15:00 AM 4.94 40.892 0.283 7.25 1.41 12.34
1/19/2021 9:30:00 AM 4.95 40.91 0.283 7.22 4.19 12.36
1/19/2021 9:45:00 AM 4.97 40.946 0.283 7.21 1.77 12.41
1/19/2021 10:00:00 AM 5 41 0.282 7.19 0.69 12.46
1/19/2021 10:15:00 AM 5.03 41.054 0.281 7.17 1.16 12.52
1/19/2021 10:30:00 AM 5.06 41.108 0.279 7.15 1.2 12.57
1/19/2021 10:45:00 AM 5.07 41.126 0.28 7.12 1 12.59
1/19/2021 11:00:00 AM 5.08 41.144 0.278 7.09 0.91 12.63
1/19/2021 11:15:00 AM 5.11 41.198 0.278 7.07 1.91 12.66
1/19/2021 11:30:00 AM 5.16 41.288 0.28 7.05 1.29 12.7
1/19/2021 11:45:00 AM 5.21 41.378 0.277 7.05 0.82 12.76
1/19/2021 12:00:00 PM 5.25 41.45 0.276 7.05 0.7 12.81
1/19/2021 12:15:00 PM 5.3 41.54 0.275 7.03 1.22 12.85
1/19/2021 12:30:00 PM 5.37 41.666 0.281 7 1.1 12.88
1/19/2021 12:45:00 PM 5.4 41.72 0.285 6.98 0.54 12.93
1/19/2021 1:00:00 PM 5.43 41.774 0.269 6.96 0.75 12.93
1/19/2021 1:15:00 PM 5.46 41.828 0.266 6.95 0.97 12.95
1/19/2021 1:30:00 PM 5.51 41.918 0.287 6.94 1.63 12.98
1/19/2021 1:45:00 PM 5.55 41.99 0.275 6.92 0.68 13
1/19/2021 2:00:00 PM 5.58 42.044 0.28 6.91 0.8 12.99
1/19/2021 2:15:00 PM 5.61 42.098 0.28 6.89 1.06 13.02
1/19/2021 2:30:00 PM 5.65 42.17 0.28 6.87 1.08 13.01
1/19/2021 2:45:00 PM 5.67 42.206 0.28 6.87 0.47 13.02
1/19/2021 3:00:00 PM 5.71 42.278 0.274 6.86 1.57 13.03
1/19/2021 3:15:00 PM 5.72 42.296 0.281 6.86 0.82 13.04
1/19/2021 3:30:00 PM 5.72 42.296 0.273 6.85 0.55 13.02
1/19/2021 3:45:00 PM 5.72 42.296 0.274 6.84 1.05 12.99
1/19/2021 4:00:00 PM 5.7 42.26 0.267 6.84 2.28 12.99
1/19/2021 4:15:00 PM 5.68 42.224 0.277 6.83 0.65 12.97
1/19/2021 4:30:00 PM 5.65 42.17 0.269 6.83 1 12.93
1/19/2021 4:45:00 PM 5.62 42.116 0.287 6.85 1.08 12.92
1/19/2021 5:00:00 PM 5.59 42.062 0.276 6.85 1.03 12.88
1/19/2021 5:15:00 PM 5.56 42.008 0.264 6.85 0.77 12.85
1/19/2021 5:30:00 PM 5.53 41.954 0.268 6.89 0.68 12.8
1/19/2021 5:45:00 PM 5.51 41.918 0.263 6.93 1.26 12.75
1/19/2021 6:00:00 PM 5.48 41.864 0.263 7.02 1.62 12.71
1/19/2021 6:15:00 PM 5.45 41.81 0.265 7.13 2.11 12.67
1/19/2021 6:30:00 PM 5.42 41.756 0.27 7.27 1.56 12.64
1/19/2021 6:45:00 PM 5.39 41.702 0.27 7.42 0.99 12.61
1/19/2021 7:00:00 PM 5.36 41.648 0.276 7.5 0.75 12.57
1/19/2021 7:15:00 PM 5.34 41.612 0.281 7.51 0.86 12.55
1/19/2021 7:30:00 PM 5.31 41.558 0.287 7.53 0.77 12.53
1/19/2021 7:45:00 PM 5.28 41.504 0.265 7.55 0.97 12.5
1/19/2021 8:00:00 PM 5.25 41.45 0.245 7.6 1.19 12.47
1/19/2021 8:15:00 PM 5.23 41.414 0.268 7.64 0.59 12.46
1/19/2021 8:30:00 PM 5.21 41.378 0.272 7.66 0.7 12.44
1/19/2021 8:45:00 PM 5.18 41.324 0.29 7.68 0.79 12.41
1/19/2021 9:00:00 PM 5.17 41.306 0.291 7.75 0.7 12.39
1/19/2021 9:15:00 PM 5.15 41.27 0.292 7.76 0.81 12.36
1/19/2021 9:30:00 PM 5.13 41.234 0.293 7.79 0.69 12.34
1/19/2021 9:45:00 PM 5.12 41.216 0.293 7.81 0.86 12.3
1/19/2021 10:00:00 PM 5.13 41.234 0.293 7.82 0.94 12.29
1/19/2021 10:15:00 PM 5.13 41.234 0.293 7.82 0.76 12.29
1/19/2021 10:30:00 PM 5.13 41.234 0.293 7.8 1.13 12.26
1/19/2021 10:45:00 PM 5.13 41.234 0.292 7.79 0.89 12.26
1/19/2021 11:00:00 PM 5.13 41.234 0.291 7.77 2.08 12.24
1/19/2021 11:15:00 PM 5.14 41.252 0.291 7.74 1.12 12.24
1/19/2021 11:30:00 PM 5.14 41.252 0.29 7.73 0.97 12.23
1/19/2021 11:45:00 PM 5.15 41.27 0.291 7.69 0.91 12.19
1/20/2021 12:00:00 AM 5.16 41.288 0.291 7.66 1.23 12.19
1/20/2021 12:15:00 AM 5.17 41.306 0.292 7.64 0.84 12.18
1/20/2021 12:30:00 AM 5.18 41.324 0.293 7.6 0.95 12.16
1/20/2021 12:45:00 AM 5.19 41.342 0.294 7.57 1.41 12.16
1/20/2021 1:00:00 AM 5.2 41.36 0.294 7.53 0.83 12.14
1/20/2021 1:15:00 AM 5.2 41.36 0.294 7.5 0.66 12.13
1/20/2021 1:30:00 AM 5.2 41.36 0.293 7.48 1.05 12.12
1/20/2021 1:45:00 AM 5.2 41.36 0.292 7.44 1.4 12.1
1/20/2021 2:00:00 AM 5.19 41.342 0.269 7.43 0.59 12.12
1/20/2021 2:15:00 AM 5.18 41.324 0.27 7.4 1.31 12.09
1/20/2021 2:30:00 AM 5.18 41.324 0.29 7.39 0.84 12.12
1/20/2021 2:45:00 AM 5.17 41.306 0.291 7.38 1 12.11
1/20/2021 3:00:00 AM 5.17 41.306 0.291 7.39 1.15 12.12
1/20/2021 3:15:00 AM 5.17 41.306 0.292 7.38 1.23 12.1
1/20/2021 3:30:00 AM 5.16 41.288 0.292 7.37 0.98 12.1
1/20/2021 3:45:00 AM 5.16 41.288 0.294 7.37 0.63 12.09
1/20/2021 4:00:00 AM 5.15 41.27 0.294 7.36 1.8 12.08
1/20/2021 4:15:00 AM 5.14 41.252 0.294 7.33 1.04 12.08
1/20/2021 4:30:00 AM 5.13 41.234 0.288 7.34 1.4 12.09
1/20/2021 4:45:00 AM 5.11 41.198 0.292 7.32 1.43 12.09
1/20/2021 5:00:00 AM 5.1 41.18 0.293 7.3 1.55 12.09
1/20/2021 5:15:00 AM 5.08 41.144 0.291 7.3 1.16 12.09
1/20/2021 5:30:00 AM 5.05 41.09 0.283 7.37 1.18 12.09
1/20/2021 5:45:00 AM 5.02 41.036 0.287 7.41 1.15 12.11
1/20/2021 6:00:00 AM 4.98 40.964 0.293 7.41 1.16 12.1
1/20/2021 6:15:00 AM 4.97 40.946 0.274 7.4 1.4 12.12
1/20/2021 6:30:00 AM 4.95 40.91 0.294 7.39 1.35 12.09
1/20/2021 6:45:00 AM 4.93 40.874 0.294 7.38 1.49 12.1
1/20/2021 7:00:00 AM 4.9 40.82 0.293 7.39 1.18 12.1
1/20/2021 7:15:00 AM 4.87 40.766 0.294 7.4 1.25 12.11
1/20/2021 7:30:00 AM 4.85 40.73 0.294 7.42 1.96 12.1
1/20/2021 7:45:00 AM 4.83 40.694 0.293 7.45 1.14 12.12
1/20/2021 8:00:00 AM 4.81 40.658 0.293 7.46 0.84 12.15
1/20/2021 8:15:00 AM 4.8 40.64 0.292 7.44 1.41 12.16
1/20/2021 8:30:00 AM 4.78 40.604 0.292 7.38 1.52 12.22
1/20/2021 8:45:00 AM 4.77 40.586 0.292 7.32 0.96 12.26
1/20/2021 9:00:00 AM 4.76 40.568 0.292 7.3 1.12 12.27
1/20/2021 9:15:00 AM 4.75 40.55 0.293 7.3 1.06 12.32
1/20/2021 9:30:00 AM 4.74 40.532 0.294 7.3 1.25 12.37
1/20/2021 9:45:00 AM 4.73 40.514 0.295 7.29 0.97 12.41
1/20/2021 10:00:00 AM 4.74 40.532 0.295 7.29 1.96 12.46
1/20/2021 10:15:00 AM 4.76 40.568 0.295 7.26 0.82 12.49
1/20/2021 10:30:00 AM 4.78 40.604 0.294 7.24 0.71 12.56
1/20/2021 10:45:00 AM 4.79 40.622 0.293 7.24 1.06 12.6
1/20/2021 11:00:00 AM 4.81 40.658 0.293 7.27 1.28 12.64
1/20/2021 11:15:00 AM 4.83 40.694 0.292 7.25 0.68 12.7
1/20/2021 11:30:00 AM 4.84 40.712 0.292 7.27 0.67 12.73
1/20/2021 11:45:00 AM 4.92 40.856 0.292 7.23 1.01 12.78
1/20/2021 12:00:00 PM 5 41 0.292 7.17 0.94 12.82
1/20/2021 12:15:00 PM 5.06 41.108 0.292 7.13 0.72 12.86
1/20/2021 12:30:00 PM 5.08 41.144 0.292 7.16 0.68 12.89
1/20/2021 12:45:00 PM 5.08 41.144 0.293 7.21 1.16 12.94
1/20/2021 1:00:00 PM 5.07 41.126 0.293 7.34 0.73 12.96
1/20/2021 1:15:00 PM 5.08 41.144 0.293 7.36 1.53 12.98
1/20/2021 1:30:00 PM 5.11 41.198 0.292 7.36 1.11 13.01
1/20/2021 1:45:00 PM 5.12 41.216 0.292 7.42 0.84 13.02
1/20/2021 2:00:00 PM 5.13 41.234 0.291 7.44 0.89 13.04
1/20/2021 2:15:00 PM 5.14 41.252 0.291 7.48 3.93 13.08
1/20/2021 2:30:00 PM 5.15 41.27 0.291 7.52 0.97 13.08
1/20/2021 2:45:00 PM 5.13 41.234 0.29 7.61 0.79 13.09
1/20/2021 3:00:00 PM 5.11 41.198 0.29 7.64 1.37 13.1
1/20/2021 3:15:00 PM 5.1 41.18 0.29 7.68 0.82 13.11
1/20/2021 3:30:00 PM 5.09 41.162 0.29 7.72 1.13 13.12
1/20/2021 3:45:00 PM 5.1 41.18 0.29 7.73 0.75 13.11
1/20/2021 4:00:00 PM 5.08 41.144 0.291 7.75 1.07 13.1
1/20/2021 4:15:00 PM 5.06 41.108 0.29 7.77 1 13.09
1/20/2021 4:30:00 PM 5.01 41.018 0.29 7.78 0.42 13.07
1/20/2021 4:45:00 PM 4.98 40.964 0.291 7.79 0.7 13.05
1/20/2021 5:00:00 PM 4.95 40.91 0.29 7.83 1.24 13
1/20/2021 5:15:00 PM 4.92 40.856 0.29 7.86 0.96 13.01
1/20/2021 5:30:00 PM 4.9 40.82 0.29 7.91 0.78 12.96
1/20/2021 5:45:00 PM 4.86 40.748 0.29 7.93 0.66 12.94
1/20/2021 6:00:00 PM 4.83 40.694 0.277 7.95 1.07 12.9
1/20/2021 6:15:00 PM 4.79 40.622 0.267 7.93 0.74 12.88
1/20/2021 6:30:00 PM 4.77 40.586 0.29 7.95 1.07 12.82
1/20/2021 6:45:00 PM 4.75 40.55 0.29 7.92 0.86 12.79
1/20/2021 7:00:00 PM 4.73 40.514 0.257 7.93 2.4 12.79
1/20/2021 7:15:00 PM 4.69 40.442 0.289 7.97 0.74 12.75
1/20/2021 7:30:00 PM 4.67 40.406 0.29 7.92 0.84 12.74
1/20/2021 7:45:00 PM 4.64 40.352 0.29 7.97 0.54 12.72
1/20/2021 8:00:00 PM 4.61 40.298 0.273 7.96 0.73 12.7
1/20/2021 8:15:00 PM 4.58 40.244 0.29 7.96 0.64 12.68
1/20/2021 8:30:00 PM 4.56 40.208 0.29 7.98 0.71 12.66
1/20/2021 8:45:00 PM 4.53 40.154 0.29 7.98 0.78 12.62
1/20/2021 9:00:00 PM 4.5 40.1 0.291 8.01 0.88 12.6
1/20/2021 9:15:00 PM 4.48 40.064 0.293 7.99 1.43 12.59
1/20/2021 9:30:00 PM 4.46 40.028 0.294 7.99 1.25 12.57
1/20/2021 9:45:00 PM 4.43 39.974 0.295 8 0.99 12.56
1/20/2021 10:00:00 PM 4.41 39.938 0.296 8 0.86 12.55
1/20/2021 10:15:00 PM 4.38 39.884 0.296 8 1.21 12.53
1/20/2021 10:30:00 PM 4.35 39.83 0.285 8 1.02 12.53
1/20/2021 10:45:00 PM 4.32 39.776 0.295 8 0.65 12.53
1/20/2021 11:00:00 PM 4.29 39.722 0.295 8.01 0.73 12.52
1/20/2021 11:15:00 PM 4.26 39.668 0.293 8.01 0.6 12.53
1/20/2021 11:30:00 PM 4.23 39.614 0.29 8.01 1 12.52
1/20/2021 11:45:00 PM 4.2 39.56 0.293 8.01 1.1 12.51
1/21/2021 12:00:00 AM 4.16 39.488 0.294 8.02 1.18 12.52
1/21/2021 12:15:00 AM 4.13 39.434 0.294 8.02 1.03 12.5
1/21/2021 12:30:00 AM 4.09 39.362 0.296 8.01 0.83 12.49
1/21/2021 12:45:00 AM 4.06 39.308 0.296 8.02 0.43 12.5
1/21/2021 1:00:00 AM 4.01 39.218 0.296 8.01 1.83 12.51
1/21/2021 1:15:00 AM 3.97 39.146 0.268 8.02 0.66 12.52
1/21/2021 1:30:00 AM 3.92 39.056 0.292 8.01 0.71 12.52
1/21/2021 1:45:00 AM 3.87 38.966 0.296 8.01 0.84 12.53
1/21/2021 2:00:00 AM 3.82 38.876 0.296 8.01 1.29 12.54
1/21/2021 2:15:00 AM 3.78 38.804 0.295 8.01 0.54 12.54
1/21/2021 2:30:00 AM 3.72 38.696 0.291 8.01 0.53 12.58
1/21/2021 2:45:00 AM 3.68 38.624 0.295 8.01 1 12.59
1/21/2021 3:00:00 AM 3.63 38.534 0.295 8.01 1.99 12.59
1/21/2021 3:15:00 AM 3.59 38.462 0.296 8.01 1.19 12.6
1/21/2021 3:30:00 AM 3.54 38.372 0.296 8.01 1.02 12.59
1/21/2021 3:45:00 AM 3.49 38.282 0.293 8.01 1.04 12.61
1/21/2021 4:00:00 AM 3.45 38.21 0.283 8.01 1.36 12.63
1/21/2021 4:15:00 AM 3.4 38.12 0.289 8 1.91 12.64
1/21/2021 4:30:00 AM 3.37 38.066 0.297 8 3.25 12.63
1/21/2021 4:45:00 AM 3.32 37.976 0.295 8 0.87 12.65
1/21/2021 5:00:00 AM 3.27 37.886 0.296 8 1.11 12.67
1/21/2021 5:15:00 AM 3.24 37.832 0.296 8 1.72 12.67
1/21/2021 5:30:00 AM 3.23 37.814 0.296 7.99 2.13 12.69
1/21/2021 5:45:00 AM 3.21 37.778 0.27 7.99 0.97 12.7
1/21/2021 6:00:00 AM 3.21 37.778 0.296 7.97 1.6 12.7
1/21/2021 6:15:00 AM 3.19 37.742 0.297 7.96 1.65 12.72
1/21/2021 6:30:00 AM 3.19 37.742 0.297 7.95 1.77 12.72
1/21/2021 6:45:00 AM 3.17 37.706 0.295 7.92 0.87 12.72
1/21/2021 7:00:00 AM 3.16 37.688 0.299 7.89 0.6 12.72
1/21/2021 7:15:00 AM 3.15 37.67 0.298 7.87 1.39 12.72
1/21/2021 7:30:00 AM 3.13 37.634 0.299 7.84 0.67 12.73
1/21/2021 7:45:00 AM 3.12 37.616 0.298 7.81 1.8 12.75
1/21/2021 8:00:00 AM 3.12 37.616 0.298 7.8 0.46 12.76
1/21/2021 8:15:00 AM 3.12 37.616 0.297 7.76 0.57 12.79
1/21/2021 8:30:00 AM 3.11 37.598 0.297 7.74 1.9 12.84
1/21/2021 8:45:00 AM 3.12 37.616 0.297 7.69 0.84 12.87
1/21/2021 9:00:00 AM 3.12 37.616 0.297 7.6 0.69 12.91
1/21/2021 9:15:00 AM 3.13 37.634 0.298 7.54 0.69 12.95
1/21/2021 9:30:00 AM 3.16 37.688 0.299 7.43 0.64 12.96
1/21/2021 9:45:00 AM 3.18 37.724 0.3 7.37 1.14 13.01
1/21/2021 10:00:00 AM 3.22 37.796 0.3 7.34 0.89 13.04
1/21/2021 10:15:00 AM 3.27 37.886 0.3 7.29 1.31 13.08
1/21/2021 10:30:00 AM 3.35 38.03 0.299 7.23 1.38 13.13
1/21/2021 10:45:00 AM 3.39 38.102 0.298 7.18 0.98 13.17
1/21/2021 11:00:00 AM 3.43 38.174 0.297 7.16 0.79 13.22
1/21/2021 11:15:00 AM 3.48 38.264 0.296 7.13 0.64 13.25
1/21/2021 11:30:00 AM 3.55 38.39 0.296 7.07 1.4 13.28
1/21/2021 11:45:00 AM 3.6 38.48 0.295 7.01 0.61 13.31
1/21/2021 12:00:00 PM 3.61 38.498 0.295 6.95 0.54 13.35
1/21/2021 12:15:00 PM 3.66 38.588 0.295 6.88 2.16 13.38
1/21/2021 12:30:00 PM 3.74 38.732 0.296 6.79 0.98 13.39
1/21/2021 12:45:00 PM 3.82 38.876 0.296 6.72 0.6 13.41
1/21/2021 1:00:00 PM 3.88 38.984 0.296 6.67 2.26 13.43
1/21/2021 1:15:00 PM 3.94 39.092 0.295 6.63 1.02 13.43
1/21/2021 1:30:00 PM 4 39.2 0.295 6.58 0.47 13.43
1/21/2021 1:45:00 PM 4.06 39.308 0.294 6.54 0.65 13.44
1/21/2021 2:00:00 PM 4.12 39.416 0.294 6.49 0.79 13.44
1/21/2021 2:15:00 PM 4.18 39.524 0.293 6.46 0.76 13.41
1/21/2021 2:30:00 PM 4.23 39.614 0.293 6.43 0.84 13.44
1/21/2021 2:45:00 PM 4.27 39.686 0.292 6.41 0.93 13.43
1/21/2021 3:00:00 PM 4.32 39.776 0.29 6.4 1.01 13.43
1/21/2021 3:15:00 PM 4.37 39.866 0.292 6.36 0.96 13.41
1/21/2021 3:30:00 PM 4.41 39.938 0.291 6.33 0.6 13.4
1/21/2021 3:45:00 PM 4.44 39.992 0.291 6.29 0.65 13.39
1/21/2021 4:00:00 PM 4.44 39.992 0.291 6.15 1.28 13.37
1/21/2021 4:15:00 PM 4.44 39.992 0.291 6.18 0.64 13.35
1/21/2021 4:30:00 PM 4.45 40.01 0.29 6.18 1.06 13.29
1/21/2021 4:45:00 PM 4.44 39.992 0.29 6.21 0.79 13.27
1/21/2021 5:00:00 PM 4.42 39.956 0.289 6.24 0.54 13.23
1/21/2021 5:15:00 PM 4.41 39.938 0.289 6.24 0.63 13.18
1/21/2021 5:30:00 PM 4.39 39.902 0.289 6.24 1.24 13.15
1/21/2021 5:45:00 PM 4.37 39.866 0.289 6.25 0.63 13.08
1/21/2021 6:00:00 PM 4.35 39.83 0.289 6.3 1.23 13.03
1/21/2021 6:15:00 PM 4.34 39.812 0.289 6.45 0.87 13.01
1/21/2021 6:30:00 PM 4.31 39.758 0.29 6.59 1.07 12.97
1/21/2021 6:45:00 PM 4.3 39.74 0.29 6.75 1.6 12.92
1/21/2021 7:00:00 PM 4.27 39.686 0.291 6.93 0.73 12.89
1/21/2021 7:15:00 PM 4.26 39.668 0.266 7.14 0.78 12.84
1/21/2021 7:30:00 PM 4.25 39.65 0.29 7.3 0.88 12.82
1/21/2021 7:45:00 PM 4.22 39.596 0.29 7.4 0.28 12.81
1/21/2021 8:00:00 PM 4.21 39.578 0.29 7.45 0.73 12.75
1/21/2021 8:15:00 PM 4.2 39.56 0.272 7.51 0.68 12.73
1/21/2021 8:30:00 PM 4.18 39.524 0.29 7.58 0.72 12.71
1/21/2021 8:45:00 PM 4.16 39.488 0.29 7.65 0.77 12.69
1/21/2021 9:00:00 PM 4.16 39.488 0.291 7.71 0.59 12.66
1/21/2021 9:15:00 PM 4.15 39.47 0.292 7.74 1.36 12.62
1/21/2021 9:30:00 PM 4.15 39.47 0.294 7.76 0.66 12.58
1/21/2021 9:45:00 PM 4.15 39.47 0.296 7.77 1.38 12.58
1/21/2021 10:00:00 PM 4.16 39.488 0.296 7.77 1.23 12.53
1/21/2021 10:15:00 PM 4.15 39.47 0.28 7.77 1.29 12.53
1/21/2021 10:30:00 PM 4.16 39.488 0.296 7.75 1.12 12.48
1/21/2021 10:45:00 PM 4.16 39.488 0.295 7.75 0.63 12.49
1/21/2021 11:00:00 PM 4.19 39.542 0.295 7.71 0.72 12.47
1/21/2021 11:15:00 PM 4.2 39.56 0.294 7.68 0.61 12.45
1/21/2021 11:30:00 PM 4.22 39.596 0.294 7.63 2.74 12.44
1/21/2021 11:45:00 PM 4.25 39.65 0.293 7.61 1.67 12.41
1/22/2021 12:00:00 AM 4.26 39.668 0.294 7.57 3.34 12.4
1/22/2021 12:15:00 AM 4.3 39.74 0.295 7.52 0.7 12.36
1/22/2021 12:30:00 AM 4.33 39.794 0.296 7.47 0.58 12.36
1/22/2021 12:45:00 AM 4.36 39.848 0.298 7.42 0.89 12.32
1/22/2021 1:00:00 AM 4.39 39.902 0.299 7.37 0.75 12.3
1/22/2021 1:15:00 AM 4.42 39.956 0.299 7.28 1 12.3
1/22/2021 1:30:00 AM 4.43 39.974 0.299 7.17 0.53 12.28
1/22/2021 1:45:00 AM 4.44 39.992 0.298 7.08 1.11 12.26
1/22/2021 2:00:00 AM 4.44 39.992 0.297 7.01 1.44 12.26
1/22/2021 2:15:00 AM 4.45 40.01 0.297 6.91 1.05 12.26
1/22/2021 2:30:00 AM 4.45 40.01 0.295 6.82 1.15 12.26
1/22/2021 2:45:00 AM 4.44 39.992 0.295 6.77 1.12 12.24
1/22/2021 3:00:00 AM 4.43 39.974 0.296 6.74 0.42 12.25
1/22/2021 3:15:00 AM 4.42 39.956 0.29 6.72 0.77 12.24
1/22/2021 3:30:00 AM 4.41 39.938 0.297 6.74 1.32 12.24
1/22/2021 3:45:00 AM 4.41 39.938 0.298 6.76 0.91 12.23
1/22/2021 4:00:00 AM 4.39 39.902 0.289 6.75 0.91 12.22
1/22/2021 4:15:00 AM 4.38 39.884 0.296 6.72 0.79 12.23
1/22/2021 4:30:00 AM 4.37 39.866 0.294 6.68 1.06 12.22
1/22/2021 4:45:00 AM 4.36 39.848 0.297 6.63 0.68 12.24
1/22/2021 5:00:00 AM 4.34 39.812 0.289 6.62 1.07 12.25
1/22/2021 5:15:00 AM 4.32 39.776 0.296 6.66 0.9 12.26
1/22/2021 5:30:00 AM 4.29 39.722 0.296 6.77 1.93 12.26
1/22/2021 5:45:00 AM 4.27 39.686 0.251 6.84 0.62 12.25
1/22/2021 6:00:00 AM 4.25 39.65 0.297 6.9 1.01 12.23
1/22/2021 6:15:00 AM 4.24 39.632 0.297 6.93 0.93 12.25
1/22/2021 6:30:00 AM 4.24 39.632 0.299 7.04 0.69 12.25
1/22/2021 6:45:00 AM 4.23 39.614 0.3 7.05 0.98 12.26
1/22/2021 7:00:00 AM 4.23 39.614 0.3 7.04 0.85 12.26
1/22/2021 7:15:00 AM 4.23 39.614 0.3 7.03 0.98 12.26
1/22/2021 7:30:00 AM 4.23 39.614 0.3 7 1.66 12.26
1/22/2021 7:45:00 AM 4.23 39.614 0.299 6.95 0.66 12.27
1/22/2021 8:00:00 AM 4.23 39.614 0.299 6.93 1.22 12.28
1/22/2021 8:15:00 AM 4.23 39.614 0.298 6.91 1.1 12.3
1/22/2021 8:30:00 AM 4.24 39.632 0.298 6.86 0.62 12.29
1/22/2021 8:45:00 AM 4.25 39.65 0.298 6.82 0.54 12.34
1/22/2021 9:00:00 AM 4.26 39.668 0.299 6.78 1.18 12.36
1/22/2021 9:15:00 AM 4.28 39.704 0.3 6.75 0.85 12.4
1/22/2021 9:30:00 AM 4.29 39.722 0.301 6.72 1.2 12.42
1/22/2021 9:45:00 AM 4.31 39.758 0.301 6.69 0.57 12.44
1/22/2021 10:00:00 AM 4.33 39.794 0.302 6.66 1.46 12.47
1/22/2021 10:15:00 AM 4.35 39.83 0.302 6.65 0.54 12.51
1/22/2021 10:30:00 AM 4.37 39.866 0.301 6.63 0.98 12.54
1/22/2021 10:45:00 AM 4.39 39.902 0.301 6.62 1.63 12.57
1/22/2021 11:00:00 AM 4.4 39.92 0.3 6.6 0.97 12.6
1/22/2021 11:15:00 AM 4.41 39.938 0.288 6.56 1.38 12.65
1/22/2021 11:30:00 AM 4.43 39.974 0.29 6.55 1.17 12.68
1/22/2021 11:45:00 AM 4.46 40.028 0.29 6.51 1.51 12.73
1/22/2021 12:00:00 PM 4.49 40.082 0.287 6.47 1.36 12.77
1/22/2021 12:15:00 PM 4.53 40.154 0.297 6.46 0.68 12.8
1/22/2021 12:30:00 PM 4.57 40.226 0.291 6.44 1.1 12.86
1/22/2021 12:45:00 PM 4.6 40.28 0.296 6.45 0.9 12.92
1/22/2021 1:00:00 PM 4.65 40.37 0.296 6.45 0.62 12.94
1/22/2021 1:15:00 PM 4.68 40.424 0.296 6.44 0.59 12.98
1/22/2021 1:30:00 PM 4.72 40.496 0.296 6.44 1.4 13.01
1/22/2021 1:45:00 PM 4.75 40.55 0.295 6.44 0.81 13.03
1/22/2021 2:00:00 PM 4.82 40.676 0.294 6.44 0.92 13.08
1/22/2021 2:15:00 PM 4.88 40.784 0.294 6.12 0.85 13.11
1/22/2021 2:30:00 PM 4.92 40.856 0.293 6.27 1.32 13.11
1/22/2021 2:45:00 PM 4.93 40.874 0.293 6.39 0.72 13.14
1/22/2021 3:00:00 PM 4.94 40.892 0.292 6.51 0.67 13.15
1/22/2021 3:15:00 PM 4.97 40.946 0.292 6.54 1.12 13.13
1/22/2021 3:30:00 PM 4.99 40.982 0.292 6.57 2.9 13.09
1/22/2021 3:45:00 PM 5 41 0.293 6.59 1.01 13.09
1/22/2021 4:00:00 PM 5 41 0.293 6.6 0.92 13.07
1/22/2021 4:15:00 PM 5.01 41.018 0.292 6.62 0.54 13.06
1/22/2021 4:30:00 PM 5.03 41.054 0.292 6.61 0.57 13.04
1/22/2021 4:45:00 PM 5.03 41.054 0.292 6.62 0.75 13.02
1/22/2021 5:00:00 PM 5.02 41.036 0.292 6.66 1.18 12.97
1/22/2021 5:15:00 PM 5.01 41.018 0.292 6.69 1 12.94
1/22/2021 5:30:00 PM 5.01 41.018 0.292 6.74 0.76 12.89
1/22/2021 5:45:00 PM 5 41 0.292 6.81 0.86 12.86
1/22/2021 6:00:00 PM 5.01 41.018 0.292 6.84 0.54 12.82
1/22/2021 6:15:00 PM 5.01 41.018 0.293 6.9 1.23 12.77
1/22/2021 6:30:00 PM 5.02 41.036 0.293 6.91 0.94 12.72
1/22/2021 6:45:00 PM 5.03 41.054 0.293 6.9 0.79 12.71
1/22/2021 7:00:00 PM 5.04 41.072 0.294 6.89 0.41 12.64
1/22/2021 7:15:00 PM 5.03 41.054 0.293 6.96 0.65 12.63
1/22/2021 7:30:00 PM 5.03 41.054 0.293 6.97 1.24 12.6
1/22/2021 7:45:00 PM 5.03 41.054 0.293 6.99 0.67 12.57
1/22/2021 8:00:00 PM 5.03 41.054 0.293 6.95 0.91 12.54
1/22/2021 8:15:00 PM 5.04 41.072 0.292 6.92 1.21 12.51
1/22/2021 8:30:00 PM 5.04 41.072 0.292 6.95 0.74 12.49
1/22/2021 8:45:00 PM 5.03 41.054 0.293 7.03 0.76 12.44
1/22/2021 9:00:00 PM 5.03 41.054 0.294 7.12 0.76 12.43
1/22/2021 9:15:00 PM 5.05 41.09 0.295 7.15 0.64 12.4
1/22/2021 9:30:00 PM 5.04 41.072 0.297 7.24 0.68 12.37
1/22/2021 9:45:00 PM 5.05 41.09 0.299 7.34 1.04 12.33
1/22/2021 10:00:00 PM 5.05 41.09 0.299 7.39 1.73 12.31
1/22/2021 10:15:00 PM 5.04 41.072 0.3 7.45 1.28 12.29
1/22/2021 10:30:00 PM 5.04 41.072 0.299 7.49 1.58 12.28
1/22/2021 10:45:00 PM 5.03 41.054 0.298 7.52 0.72 12.25
1/22/2021 11:00:00 PM 5.03 41.054 0.297 7.54 2.07 12.25
1/22/2021 11:15:00 PM 5 41 0.296 7.61 2.14 12.21
1/22/2021 11:30:00 PM 5.01 41.018 0.295 7.6 0.8 12.21
1/22/2021 11:45:00 PM 5.02 41.036 0.295 7.62 1.41 12.21
1/23/2021 12:00:00 AM 5.02 41.036 0.296 7.66 2.66 12.19
1/23/2021 12:15:00 AM 5.02 41.036 0.297 7.7 1.66 12.18
1/23/2021 12:30:00 AM 5 41 0.298 7.74 1.46 12.18
1/23/2021 12:45:00 AM 5 41 0.299 7.76 0.82 12.17
1/23/2021 1:00:00 AM 4.99 40.982 0.3 7.75 0.59 12.15
1/23/2021 1:15:00 AM 4.98 40.964 0.3 7.78 0.76 12.15
1/23/2021 1:30:00 AM 4.95 40.91 0.3 7.79 0.78 12.14
1/23/2021 1:45:00 AM 4.94 40.892 0.299 7.79 0.82 12.14
1/23/2021 2:00:00 AM 4.91 40.838 0.298 7.8 0.62 12.16
1/23/2021 2:15:00 AM 4.89 40.802 0.297 7.81 1.06 12.16
1/23/2021 2:30:00 AM 4.85 40.73 0.296 7.83 1.06 12.15
1/23/2021 2:45:00 AM 4.82 40.676 0.296 7.84 0.25 12.16
1/23/2021 3:00:00 AM 4.81 40.658 0.297 7.86 1.2 12.16
1/23/2021 3:15:00 AM 4.79 40.622 0.297 7.85 1.13 12.16
1/23/2021 3:30:00 AM 4.76 40.568 0.299 7.86 1.77 12.16
1/23/2021 3:45:00 AM 4.74 40.532 0.3 7.86 0.79 12.18
1/23/2021 4:00:00 AM 4.71 40.478 0.3 7.89 1.08 12.19
1/23/2021 4:15:00 AM 4.68 40.424 0.3 7.89 2.38 12.17
1/23/2021 4:30:00 AM 4.63 40.334 0.3 7.89 0.87 12.19
1/23/2021 4:45:00 AM 4.6 40.28 0.3 7.88 1.28 12.19
1/23/2021 5:00:00 AM 4.55 40.19 0.299 7.89 0.52 12.21
1/23/2021 5:15:00 AM 4.49 40.082 0.299 7.89 0.85 12.22
1/23/2021 5:30:00 AM 4.45 40.01 0.299 7.89 1.55 12.22
1/23/2021 5:45:00 AM 4.41 39.938 0.299 7.9 1.7 12.25
1/23/2021 6:00:00 AM 4.36 39.848 0.3 7.91 2.73 12.26
1/23/2021 6:15:00 AM 4.32 39.776 0.301 7.9 0.82 12.27
1/23/2021 6:30:00 AM 4.26 39.668 0.302 7.91 0.76 12.28
1/23/2021 6:45:00 AM 4.2 39.56 0.303 7.92 0.57 12.29
1/23/2021 7:00:00 AM 4.14 39.452 0.304 7.93 1.3 12.31
1/23/2021 7:15:00 AM 4.08 39.344 0.271 7.94 0.78 12.33
1/23/2021 7:30:00 AM 4.03 39.254 0.304 7.94 0.98 12.34
1/23/2021 7:45:00 AM 3.97 39.146 0.304 7.95 0.8 12.37
1/23/2021 8:00:00 AM 3.94 39.092 0.303 7.94 1.1 12.4
1/23/2021 8:15:00 AM 3.89 39.002 0.303 7.94 1.18 12.45
1/23/2021 8:30:00 AM 3.87 38.966 0.302 7.93 0.62 12.51
1/23/2021 8:45:00 AM 3.87 38.966 0.302 7.91 0.47 12.59
1/23/2021 9:00:00 AM 3.82 38.876 0.302 7.92 1.37 12.64
1/23/2021 9:15:00 AM 3.81 38.858 0.303 7.91 0.86 12.71
1/23/2021 9:30:00 AM 3.78 38.804 0.304 7.93 0.72 12.77
1/23/2021 9:45:00 AM 3.74 38.732 0.305 7.94 0.83 12.82
1/23/2021 10:00:00 AM 3.78 38.804 0.305 7.91 1.1 12.86
1/23/2021 10:15:00 AM 3.81 38.858 0.305 7.91 1.11 12.95
1/23/2021 10:30:00 AM 3.8 38.84 0.305 7.92 0.89 13.01
1/23/2021 10:45:00 AM 3.78 38.804 0.304 7.92 0.79 13.07
1/23/2021 11:00:00 AM 3.78 38.804 0.303 7.93 1.01 13.14
1/23/2021 11:15:00 AM 3.81 38.858 0.272 7.93 1.07 13.19
1/23/2021 11:30:00 AM 3.84 38.912 0.302 7.93 0.63 13.24
1/23/2021 11:45:00 AM 3.87 38.966 0.302 7.92 0.81 13.31
1/23/2021 12:00:00 PM 3.9 39.02 0.301 7.93 0.5 13.37
1/23/2021 12:15:00 PM 3.94 39.092 0.301 7.92 0.91 13.43
1/23/2021 12:30:00 PM 3.98 39.164 0.301 7.91 0.81 13.48
1/23/2021 12:45:00 PM 4.02 39.236 0.302 7.92 0.52 13.5
1/23/2021 1:00:00 PM 4.08 39.344 0.302 7.93 1.08 13.55
1/23/2021 1:15:00 PM 4.09 39.362 0.302 7.95 0.51 13.59
1/23/2021 1:30:00 PM 4.1 39.38 0.301 7.95 0.63 13.63
1/23/2021 1:45:00 PM 4.12 39.416 0.301 7.96 1.01 13.65
1/23/2021 2:00:00 PM 4.16 39.488 0.3 7.97 0.92 13.69
1/23/2021 2:15:00 PM 4.14 39.452 0.3 7.98 0.88 13.68
1/23/2021 2:30:00 PM 4.14 39.452 0.299 8 0.76 13.74
1/23/2021 2:45:00 PM 4.13 39.434 0.298 7.98 0.83 13.75
1/23/2021 3:00:00 PM 4.11 39.398 0.298 8.01 2.63 13.73
1/23/2021 3:15:00 PM 4.09 39.362 0.298 8.02 0.92 13.76
1/23/2021 3:30:00 PM 4.07 39.326 0.298 8.03 0.94 13.74
1/23/2021 3:45:00 PM 4.04 39.272 0.298 8.04 0.73 13.76
1/23/2021 4:00:00 PM 4 39.2 0.298 8.06 0.61 13.75
1/23/2021 4:15:00 PM 3.98 39.164 0.298 8.06 0.47 13.75
1/23/2021 4:30:00 PM 3.96 39.128 0.298 8.07 0.62 13.74
1/23/2021 4:45:00 PM 3.94 39.092 0.298 8.06 0.58 13.72
1/23/2021 5:00:00 PM 3.91 39.038 0.297 8.06 0.68 13.69
1/23/2021 5:15:00 PM 3.85 38.93 0.297 8.08 0.78 13.66
1/23/2021 5:30:00 PM 3.83 38.894 0.297 8.08 0.31 13.62
1/23/2021 5:45:00 PM 3.8 38.84 0.296 8.08 0.48 13.58
1/23/2021 6:00:00 PM 3.77 38.786 0.265 8.07 3.21 13.53
1/23/2021 6:15:00 PM 3.74 38.732 0.297 8.07 0.54 13.49
1/23/2021 6:30:00 PM 3.7 38.66 0.267 8.07 0.85 13.47
1/23/2021 6:45:00 PM 3.69 38.642 0.287 8.07 1 13.41
1/23/2021 7:00:00 PM 3.66 38.588 0.285 8.06 0.78 13.4
1/23/2021 7:15:00 PM 3.65 38.57 0.298 8.04 1.07 13.36
1/23/2021 7:30:00 PM 3.61 38.498 0.299 8.04 1.13 13.32
1/23/2021 7:45:00 PM 3.57 38.426 0.298 8.03 0.92 13.32
1/23/2021 8:00:00 PM 3.54 38.372 0.296 8.02 0.66 13.3
1/23/2021 8:15:00 PM 3.52 38.336 0.298 8.01 0.91 13.26
1/23/2021 8:30:00 PM 3.49 38.282 0.298 8 0.82 13.25
1/23/2021 8:45:00 PM 3.48 38.264 0.298 7.99 0.39 13.22
1/23/2021 9:00:00 PM 3.47 38.246 0.298 7.99 1.15 13.19
1/23/2021 9:15:00 PM 3.44 38.192 0.299 7.98 0.71 13.16
1/23/2021 9:30:00 PM 3.42 38.156 0.3 7.98 0.6 13.15
1/23/2021 9:45:00 PM 3.42 38.156 0.301 7.97 0.7 13.13
1/23/2021 10:00:00 PM 3.41 38.138 0.301 7.96 1.44 13.1
1/23/2021 10:15:00 PM 3.39 38.102 0.301 7.97 1.13 13.09
1/23/2021 10:30:00 PM 3.37 38.066 0.301 7.95 1.39 13.08
1/23/2021 10:45:00 PM 3.35 38.03 0.301 7.94 0.72 13.05
1/23/2021 11:00:00 PM 3.33 37.994 0.3 7.95 1.08 13.06
1/23/2021 11:15:00 PM 3.31 37.958 0.3 7.94 0.96 13.05
1/23/2021 11:30:00 PM 3.29 37.922 0.299 7.95 0.62 13.04
1/23/2021 11:45:00 PM 3.28 37.904 0.284 7.94 0.91 13.04
1/24/2021 12:00:00 AM 3.28 37.904 0.277 7.93 0.71 13.03
1/24/2021 12:15:00 AM 3.27 37.886 0.27 7.94 0.83 13.03
1/24/2021 12:30:00 AM 3.27 37.886 0.287 7.94 1.01 13
1/24/2021 12:45:00 AM 3.27 37.886 0.301 7.92 0.81 13
1/24/2021 1:00:00 AM 3.28 37.904 0.304 7.92 0.76 12.99
1/24/2021 1:15:00 AM 3.3 37.94 0.305 7.91 0.78 12.96
1/24/2021 1:30:00 AM 3.29 37.922 0.294 7.91 0.44 12.97
1/24/2021 1:45:00 AM 3.3 37.94 0.275 7.91 0.62 12.95
1/24/2021 2:00:00 AM 3.3 37.94 0.28 7.91 0.59 12.95
1/24/2021 2:15:00 AM 3.31 37.958 0.255 7.92 0.49 12.95
1/24/2021 2:30:00 AM 3.29 37.922 0.277 7.92 0.21 12.93
1/24/2021 2:45:00 AM 3.27 37.886 0.281 7.94 0.74 12.92
1/24/2021 3:00:00 AM 3.26 37.868 0.272 7.94 1.03 12.92
1/24/2021 3:15:00 AM 3.26 37.868 0.287 7.94 0.76 12.92
1/24/2021 3:30:00 AM 3.25 37.85 0.301 7.94 0.38 12.93
1/24/2021 3:45:00 AM 3.25 37.85 0.286 7.95 0.96 12.92
1/24/2021 4:00:00 AM 3.24 37.832 0.292 7.96 0.6 12.91
1/24/2021 4:15:00 AM 3.22 37.796 0.287 7.96 0.5 12.91
1/24/2021 4:30:00 AM 3.2 37.76 0.29 7.96 0.88 12.91
1/24/2021 4:45:00 AM 3.18 37.724 0.266 7.96 0.47 12.92
1/24/2021 5:00:00 AM 3.14 37.652 0.288 7.97 0.42 12.91
1/24/2021 5:15:00 AM 3.11 37.598 0.269 7.98 0.65 12.94
1/24/2021 5:30:00 AM 3.07 37.526 0.263 7.98 0.72 12.94
1/24/2021 5:45:00 AM 3.04 37.472 0.263 7.99 0.99 12.95
1/24/2021 6:00:00 AM 2.99 37.382 0.296 7.99 0.95 12.96
1/24/2021 6:15:00 AM 2.95 37.31 0.256 8 0.39 12.98
1/24/2021 6:30:00 AM 2.92 37.256 0.301 8 0.72 12.98
1/24/2021 6:45:00 AM 2.87 37.166 0.302 8 0.86 13
1/24/2021 7:00:00 AM 2.84 37.112 0.303 8.01 0.87 12.99
1/24/2021 7:15:00 AM 2.8 37.04 0.303 8.01 0.88 13.02
1/24/2021 7:30:00 AM 2.77 36.986 0.303 8.01 1.3 13.03
1/24/2021 7:45:00 AM 2.73 36.914 0.303 8.01 1.12 13.04
1/24/2021 8:00:00 AM 2.7 36.86 0.302 8.01 1 13.07
1/24/2021 8:15:00 AM 2.68 36.824 0.301 8 1.3 13.13
1/24/2021 8:30:00 AM 2.65 36.77 0.301 7.99 0.24 13.15
1/24/2021 8:45:00 AM 2.64 36.752 0.301 7.97 0.26 13.23
1/24/2021 9:00:00 AM 2.63 36.734 0.301 7.96 0.5 13.28
1/24/2021 9:15:00 AM 2.62 36.716 0.301 7.96 0.97 13.34
1/24/2021 9:30:00 AM 2.6 36.68 0.302 7.95 0.76 13.39
1/24/2021 9:45:00 AM 2.61 36.698 0.303 7.95 1.34 13.42
1/24/2021 10:00:00 AM 2.61 36.698 0.304 7.97 0.43 13.47
1/24/2021 10:15:00 AM 2.63 36.734 0.304 7.95 1.29 13.52
1/24/2021 10:30:00 AM 2.66 36.788 0.304 7.94 1.01 13.57
1/24/2021 10:45:00 AM 2.7 36.86 0.304 7.92 0.42 13.62
1/24/2021 11:00:00 AM 2.74 36.932 0.304 7.9 0.68 13.68
1/24/2021 11:15:00 AM 2.78 37.004 0.303 7.88 1.06 13.73
1/24/2021 11:30:00 AM 2.81 37.058 0.303 7.88 1.07 13.78
1/24/2021 11:45:00 AM 2.85 37.13 0.302 7.87 0.78 13.8
1/24/2021 12:00:00 PM 2.9 37.22 0.302 7.86 0.59 13.83
1/24/2021 12:15:00 PM 2.94 37.292 0.302 7.85 1.7 13.86
1/24/2021 12:30:00 PM 2.98 37.364 0.302 7.83 0.61 13.92
1/24/2021 12:45:00 PM 3.03 37.454 0.303 7.82 0.8 13.94
1/24/2021 1:00:00 PM 3.09 37.562 0.303 7.79 0.77 13.96
1/24/2021 1:15:00 PM 3.19 37.742 0.303 7.74 0.5 14.01
1/24/2021 1:30:00 PM 3.26 37.868 0.303 7.73 0.54 14.03
1/24/2021 1:45:00 PM 3.27 37.886 0.303 7.71 0.62 14.05
1/24/2021 2:00:00 PM 3.29 37.922 0.302 7.72 0.46 14.06
1/24/2021 2:15:00 PM 3.35 38.03 0.301 7.68 0.45 14.06
1/24/2021 2:30:00 PM 3.41 38.138 0.301 7.65 1.09 14.06
1/24/2021 2:45:00 PM 3.45 38.21 0.3 7.65 0.75 14.07
1/24/2021 3:00:00 PM 3.47 38.246 0.299 7.64 0.44 14.07
1/24/2021 3:15:00 PM 3.47 38.246 0.299 7.67 0.45 14.08
1/24/2021 3:30:00 PM 3.47 38.246 0.299 7.69 0.81 14.05
1/24/2021 3:45:00 PM 3.49 38.282 0.298 7.66 0.92 14.07
1/24/2021 4:00:00 PM 3.49 38.282 0.298 7.64 1.74 14.06
1/24/2021 4:15:00 PM 3.51 38.318 0.298 7.63 0.32 14.04
1/24/2021 4:30:00 PM 3.5 38.3 0.298 7.65 0.64 14.03
1/24/2021 4:45:00 PM 3.49 38.282 0.298 7.65 0.61 14
1/24/2021 5:00:00 PM 3.48 38.264 0.297 7.6 0.81 13.95
1/24/2021 5:15:00 PM 3.47 38.246 0.297 7.59 0.92 13.93
1/24/2021 5:30:00 PM 3.47 38.246 0.297 7.57 0.66 13.88
1/24/2021 5:45:00 PM 3.46 38.228 0.29 7.54 1.06 13.83
1/24/2021 6:00:00 PM 3.44 38.192 0.297 7.54 0.65 13.78
1/24/2021 6:15:00 PM 3.43 38.174 0.297 7.55 0.39 13.75
1/24/2021 6:30:00 PM 3.43 38.174 0.297 7.57 1.14 13.7
1/24/2021 6:45:00 PM 3.43 38.174 0.297 7.6 0.44 13.66
1/24/2021 7:00:00 PM 3.43 38.174 0.298 7.58 0.37 13.62
1/24/2021 7:15:00 PM 3.43 38.174 0.298 7.6 0.79 13.57
1/24/2021 7:30:00 PM 3.43 38.174 0.298 7.59 1.11 13.55
1/24/2021 7:45:00 PM 3.43 38.174 0.298 7.57 0.76 13.51
1/24/2021 8:00:00 PM 3.43 38.174 0.298 7.56 1.1 13.47
1/24/2021 8:15:00 PM 3.44 38.192 0.298 7.55 0.81 13.45
1/24/2021 8:30:00 PM 3.43 38.174 0.298 7.55 0.7 13.41
1/24/2021 8:45:00 PM 3.43 38.174 0.298 7.56 1.37 13.36
1/24/2021 9:00:00 PM 3.44 38.192 0.296 7.57 0.81 13.34
1/24/2021 9:15:00 PM 3.44 38.192 0.299 7.55 1.31 13.3
1/24/2021 9:30:00 PM 3.45 38.21 0.301 7.55 2.6 13.26
1/24/2021 9:45:00 PM 3.46 38.228 0.302 7.58 0.77 13.21
1/24/2021 10:00:00 PM 3.48 38.264 0.303 7.63 0.89 13.19
1/24/2021 10:15:00 PM 3.5 38.3 0.303 7.61 0.76 13.16
1/24/2021 10:30:00 PM 3.51 38.318 0.304 7.62 0.92 13.13
1/24/2021 10:45:00 PM 3.53 38.354 0.303 7.59 0.59 13.1
1/24/2021 11:00:00 PM 3.54 38.372 0.303 7.59 1.06 13.05
1/24/2021 11:15:00 PM 3.55 38.39 0.302 7.58 0.92 13.05
1/24/2021 11:30:00 PM 3.56 38.408 0.302 7.6 0.43 13.02
1/24/2021 11:45:00 PM 3.58 38.444 0.301 7.63 1.12 13
1/25/2021 12:00:00 AM 3.59 38.462 0.301 7.65 0.96 12.98
1/25/2021 12:15:00 AM 3.61 38.498 0.302 7.62 0.67 12.97
1/25/2021 12:30:00 AM 3.62 38.516 0.303 7.63 0.8 12.94
1/25/2021 12:45:00 AM 3.64 38.552 0.305 7.65 0.59 12.89
1/25/2021 1:00:00 AM 3.66 38.588 0.306 7.63 0.79 12.88
1/25/2021 1:15:00 AM 3.67 38.606 0.307 7.63 1.35 12.87
1/25/2021 1:30:00 AM 3.68 38.624 0.307 7.6 0.86 12.84
1/25/2021 1:45:00 AM 3.69 38.642 0.307 7.57 0.75 12.81
1/25/2021 2:00:00 AM 3.7 38.66 0.306 7.57 0.8 12.83
1/25/2021 2:15:00 AM 3.71 38.678 0.306 7.56 1.2 12.8
1/25/2021 2:30:00 AM 3.72 38.696 0.304 7.55 1.01 12.8
1/25/2021 2:45:00 AM 3.72 38.696 0.304 7.55 0.36 12.79
1/25/2021 3:00:00 AM 3.72 38.696 0.303 7.54 0.9 12.78
1/25/2021 3:15:00 AM 3.73 38.714 0.304 7.54 0.9 12.77
1/25/2021 3:30:00 AM 3.73 38.714 0.304 7.57 1.16 12.75
1/25/2021 3:45:00 AM 3.74 38.732 0.306 7.57 1.21 12.75
1/25/2021 4:00:00 AM 3.74 38.732 0.306 7.55 0.99 12.74
1/25/2021 4:15:00 AM 3.74 38.732 0.307 7.57 0.63 12.72
1/25/2021 4:30:00 AM 3.75 38.75 0.307 7.56 0.8 12.72
1/25/2021 4:45:00 AM 3.75 38.75 0.306 7.55 1.11 12.71
1/25/2021 5:00:00 AM 3.75 38.75 0.305 7.54 1.27 12.7
1/25/2021 5:15:00 AM 3.74 38.732 0.304 7.55 1.17 12.7
1/25/2021 5:30:00 AM 3.74 38.732 0.304 7.56 0.74 12.71
1/25/2021 5:45:00 AM 3.74 38.732 0.303 7.57 3.4 12.69
1/25/2021 6:00:00 AM 3.73 38.714 0.303 7.55 0.76 12.7
1/25/2021 6:15:00 AM 3.73 38.714 0.304 7.59 1.07 12.68
1/25/2021 6:30:00 AM 3.74 38.732 0.305 7.57 0.68 12.66
1/25/2021 6:45:00 AM 3.73 38.714 0.305 7.57 1.06 12.67
1/25/2021 7:00:00 AM 3.73 38.714 0.306 7.56 0.76 12.66
1/25/2021 7:15:00 AM 3.74 38.732 0.307 7.58 0.61 12.66
1/25/2021 7:30:00 AM 3.73 38.714 0.307 7.58 1.3 12.65
1/25/2021 7:45:00 AM 3.74 38.732 0.306 7.58 0.99 12.64
1/25/2021 8:00:00 AM 3.74 38.732 0.305 7.56 1.22 12.66
1/25/2021 8:15:00 AM 3.74 38.732 0.305 7.53 0.67 12.67
1/25/2021 8:30:00 AM 3.74 38.732 0.304 7.54 0.84 12.7
1/25/2021 8:45:00 AM 3.74 38.732 0.304 7.54 0.76 12.72
1/25/2021 9:00:00 AM 3.75 38.75 0.304 7.49 0.99 12.74
1/25/2021 9:15:00 AM 3.76 38.768 0.305 7.47 0.58 12.78
1/25/2021 9:30:00 AM 3.78 38.804 0.306 7.47 1.26 12.82
1/25/2021 9:45:00 AM 3.81 38.858 0.307 7.45 0.6 12.87
1/25/2021 10:00:00 AM 3.84 38.912 0.308 7.42 0.96 12.92
1/25/2021 10:15:00 AM 3.87 38.966 0.308 7.39 0.67 12.96
1/25/2021 10:30:00 AM 3.91 39.038 0.308 7.36 0.57 12.99
1/25/2021 10:45:00 AM 3.96 39.128 0.308 7.28 2.04 13.07
1/25/2021 11:00:00 AM 3.99 39.182 0.307 7.22 0.53 13.14
1/25/2021 11:15:00 AM 4.02 39.236 0.306 7.23 0.83 13.18
1/25/2021 11:30:00 AM 4.06 39.308 0.305 7.26 0.6 13.22
1/25/2021 11:45:00 AM 4.09 39.362 0.304 7.19 0.75 13.28
1/25/2021 12:00:00 PM 4.12 39.416 0.304 7.16 0.7 13.32
1/25/2021 12:15:00 PM 4.14 39.452 0.304 7.14 0.65 13.36
1/25/2021 12:30:00 PM 4.17 39.506 0.304 7.1 0.41 13.39
1/25/2021 12:45:00 PM 4.2 39.56 0.304 7.09 0.52 13.4
1/25/2021 1:00:00 PM 4.23 39.614 0.304 7.17 0.59 13.44
1/25/2021 1:15:00 PM 4.26 39.668 0.304 7.2 0.73 13.46
1/25/2021 1:30:00 PM 4.28 39.704 0.304 7.12 0.5 13.49
1/25/2021 1:45:00 PM 4.3 39.74 0.303 7.1 0.52 13.49
1/25/2021 2:00:00 PM 4.32 39.776 0.303 7.17 0.65 13.51
1/25/2021 2:15:00 PM 4.34 39.812 0.302 7.15 1.06 13.53
1/25/2021 2:30:00 PM 4.36 39.848 0.301 7.14 0.93 13.52
1/25/2021 2:45:00 PM 4.38 39.884 0.3 7.18 0.96 13.53
1/25/2021 3:00:00 PM 4.39 39.902 0.3 7.14 1.02 13.52
1/25/2021 3:15:00 PM 4.41 39.938 0.299 7.13 0.49 13.52
1/25/2021 3:30:00 PM 4.43 39.974 0.299 7.09 0.47 13.5
1/25/2021 3:45:00 PM 4.44 39.992 0.299 7.1 0.92 13.49
1/25/2021 4:00:00 PM 4.44 39.992 0.299 7.09 0.97 13.49
1/25/2021 4:15:00 PM 4.45 40.01 0.299 7.07 0.7 13.46
1/25/2021 4:30:00 PM 4.45 40.01 0.299 7.09 2.2 13.43
1/25/2021 4:45:00 PM 4.45 40.01 0.299 7.06 1.06 13.4
1/25/2021 5:00:00 PM 4.45 40.01 0.298 7.03 0.74 13.35
1/25/2021 5:15:00 PM 4.44 39.992 0.298 7.07 0.46 13.32
1/25/2021 5:30:00 PM 4.44 39.992 0.298 7.19 1.2 13.22
1/25/2021 5:45:00 PM 4.44 39.992 0.298 7.26 0.79 13.19
1/25/2021 6:00:00 PM 4.43 39.974 0.298 7.25 0.62 13.17
1/25/2021 6:15:00 PM 4.43 39.974 0.295 7.21 0.6 13.12
1/25/2021 6:30:00 PM 4.43 39.974 0.298 7.24 0.88 13.06
1/25/2021 6:45:00 PM 4.42 39.956 0.299 7.24 1.11 13.05
1/25/2021 7:00:00 PM 4.42 39.956 0.299 7.26 0.95 13
1/25/2021 7:15:00 PM 4.42 39.956 0.299 7.26 0.72 12.97
1/25/2021 7:30:00 PM 4.42 39.956 0.299 7.26 0.61 12.92
1/25/2021 7:45:00 PM 4.42 39.956 0.299 7.24 1.95 12.91
1/25/2021 8:00:00 PM 4.41 39.938 0.299 7.3 0.48 12.85
1/25/2021 8:15:00 PM 4.41 39.938 0.297 7.33 0.62 12.83
1/25/2021 8:30:00 PM 4.41 39.938 0.298 7.33 1.13 12.8
1/25/2021 8:45:00 PM 4.41 39.938 0.298 7.33 2.59 12.78
1/25/2021 9:00:00 PM 4.41 39.938 0.299 7.34 1.24 12.72
1/25/2021 9:15:00 PM 4.4 39.92 0.3 7.35 1.04 12.7
1/25/2021 9:30:00 PM 4.4 39.92 0.301 7.44 0.61 12.67
1/25/2021 9:45:00 PM 4.4 39.92 0.303 7.52 0.58 12.65
1/25/2021 10:00:00 PM 4.39 39.902 0.303 7.6 0.7 12.64
1/25/2021 10:15:00 PM 4.39 39.902 0.304 7.61 0.81 12.6
1/25/2021 10:30:00 PM 4.4 39.92 0.284 7.62 0.8 12.58
1/25/2021 10:45:00 PM 4.4 39.92 0.303 7.63 0.69 12.57
1/25/2021 11:00:00 PM 4.4 39.92 0.302 7.64 0.92 12.55
1/25/2021 11:15:00 PM 4.39 39.902 0.301 7.63 0.72 12.56
1/25/2021 11:30:00 PM 4.39 39.902 0.3 7.68 1.66 12.53
1/25/2021 11:45:00 PM 4.38 39.884 0.299 7.67 0.83 12.54
1/26/2021 12:00:00 AM 4.38 39.884 0.299 7.7 0.97 12.52
1/26/2021 12:15:00 AM 4.38 39.884 0.299 7.68 0.61 12.52
1/26/2021 12:30:00 AM 4.37 39.866 0.3 7.68 1.04 12.51
1/26/2021 12:45:00 AM 4.36 39.848 0.301 7.7 0.59 12.48
1/26/2021 1:00:00 AM 4.34 39.812 0.302 7.73 0.73 12.48
1/26/2021 1:15:00 AM 4.33 39.794 0.302 7.7 0.68 12.45
1/26/2021 1:30:00 AM 4.33 39.794 0.302 7.69 1.01 12.45
1/26/2021 1:45:00 AM 4.32 39.776 0.302 7.7 0.75 12.46
1/26/2021 2:00:00 AM 4.32 39.776 0.301 7.7 0.93 12.43
1/26/2021 2:15:00 AM 4.31 39.758 0.3 7.72 0.68 12.45
1/26/2021 2:30:00 AM 4.3 39.74 0.299 7.73 0.69 12.46
1/26/2021 2:45:00 AM 4.29 39.722 0.298 7.71 0.6 12.44
1/26/2021 3:00:00 AM 4.28 39.704 0.298 7.71 1.54 12.43
1/26/2021 3:15:00 AM 4.27 39.686 0.298 7.72 0.92 12.44
1/26/2021 3:30:00 AM 4.27 39.686 0.299 7.72 1.64 12.44
1/26/2021 3:45:00 AM 4.26 39.668 0.3 7.7 0.99 12.4
1/26/2021 4:00:00 AM 4.26 39.668 0.3 7.66 1.05 12.42
1/26/2021 4:15:00 AM 4.25 39.65 0.301 7.66 1.15 12.42
1/26/2021 4:30:00 AM 4.25 39.65 0.301 7.64 0.55 12.41
1/26/2021 4:45:00 AM 4.24 39.632 0.301 7.64 0.96 12.39
1/26/2021 5:00:00 AM 4.24 39.632 0.3 7.63 1.23 12.4
1/26/2021 5:15:00 AM 4.23 39.614 0.299 7.62 2.85 12.4
1/26/2021 5:30:00 AM 4.22 39.596 0.299 7.65 0.7 12.4
1/26/2021 5:45:00 AM 4.22 39.596 0.299 7.65 0.82 12.39
1/26/2021 6:00:00 AM 4.21 39.578 0.299 7.66 0.97 12.41
1/26/2021 6:15:00 AM 4.21 39.578 0.299 7.63 1.08 12.41
1/26/2021 6:30:00 AM 4.21 39.578 0.3 7.63 0.84 12.4
1/26/2021 6:45:00 AM 4.2 39.56 0.301 7.61 1.2 12.38
1/26/2021 7:00:00 AM 4.2 39.56 0.292 7.64 1.37 12.39
1/26/2021 7:15:00 AM 4.21 39.578 0.303 7.64 0.55 12.38
1/26/2021 7:30:00 AM 4.2 39.56 0.303 7.65 0.71 12.38
1/26/2021 7:45:00 AM 4.2 39.56 0.297 7.62 0.94 12.38
1/26/2021 8:00:00 AM 4.19 39.542 0.3 7.63 1.09 12.39
1/26/2021 8:15:00 AM 4.19 39.542 0.3 7.61 0.66 12.4
1/26/2021 8:30:00 AM 4.19 39.542 0.297 7.62 0.66 12.39
1/26/2021 8:45:00 AM 4.19 39.542 0.296 7.64 0.66 12.44
1/26/2021 9:00:00 AM 4.2 39.56 0.297 7.65 0.82 12.47
1/26/2021 9:15:00 AM 4.2 39.56 0.299 7.66 1.75 12.5
1/26/2021 9:30:00 AM 4.19 39.542 0.298 7.69 0.76 12.53
1/26/2021 9:45:00 AM 4.18 39.524 0.298 7.68 0.77 12.55
1/26/2021 10:00:00 AM 4.09 39.362 0.298 7.68 1.13 12.56
1/26/2021 10:15:00 AM 4.1 39.38 0.301 7.67 1.12 12.62
1/26/2021 10:30:00 AM 4.13 39.434 0.304 7.64 2.99 12.64
1/26/2021 10:45:00 AM 4.15 39.47 0.303 7.62 1.4 12.68
1/26/2021 11:00:00 AM 4.16 39.488 0.302 7.62 0.95 12.71
1/26/2021 11:15:00 AM 4.17 39.506 0.301 7.62 1.05 12.74
1/26/2021 11:30:00 AM 4.18 39.524 0.3 7.61 0.6 12.78
1/26/2021 11:45:00 AM 4.2 39.56 0.299 7.61 0.54 12.81
1/26/2021 12:00:00 PM 4.22 39.596 0.295 7.58 0.84 12.86
1/26/2021 12:15:00 PM 4.23 39.614 0.294 7.59 1.1 12.9
1/26/2021 12:30:00 PM 4.25 39.65 0.293 7.57 0.45 12.93
1/26/2021 12:45:00 PM 4.25 39.65 0.299 7.55 1.16 12.95
1/26/2021 1:00:00 PM 4.26 39.668 0.299 7.56 0.47 12.97
1/26/2021 1:15:00 PM 4.28 39.704 0.299 7.52 1.32 12.99
1/26/2021 1:30:00 PM 4.29 39.722 0.298 7.51 0.86 13.03
1/26/2021 1:45:00 PM 4.31 39.758 0.298 7.46 0.56 13.04
1/26/2021 2:00:00 PM 4.33 39.794 0.298 7.45 0.67 13.06
1/26/2021 2:15:00 PM 4.34 39.812 0.297 7.42 1.23 13.05
1/26/2021 2:30:00 PM 4.35 39.83 0.296 7.41 1.03 13.09
1/26/2021 2:45:00 PM 4.37 39.866 0.296 7.4 1.08 13.08
1/26/2021 3:00:00 PM 4.38 39.884 0.296 7.37 0.68 13.07
1/26/2021 3:15:00 PM 4.39 39.902 0.296 7.38 0.49 13.07
1/26/2021 3:30:00 PM 4.41 39.938 0.297 7.36 2.51 13.06
1/26/2021 3:45:00 PM 4.42 39.956 0.297 7.35 0.74 13.05
1/26/2021 4:00:00 PM 4.44 39.992 0.297 7.36 0.63 13.07
1/26/2021 4:15:00 PM 4.45 40.01 0.297 7.38 0.41 13.04
1/26/2021 4:30:00 PM 4.45 40.01 0.297 7.36 0.63 13
1/26/2021 4:45:00 PM 4.46 40.028 0.297 7.35 0.55 12.98
1/26/2021 5:00:00 PM 4.46 40.028 0.296 7.33 1.06 12.92
1/26/2021 5:15:00 PM 4.46 40.028 0.296 7.33 0.9 12.88
1/26/2021 5:30:00 PM 4.47 40.046 0.296 7.32 0.58 12.85
1/26/2021 5:45:00 PM 4.47 40.046 0.295 7.33 0.89 12.81
1/26/2021 6:00:00 PM 4.48 40.064 0.296 7.32 0.81 12.76
1/26/2021 6:15:00 PM 4.48 40.064 0.296 7.35 1.41 12.75
1/26/2021 6:30:00 PM 4.49 40.082 0.296 7.35 1.08 12.73
1/26/2021 6:45:00 PM 4.49 40.082 0.298 7.35 6.84 12.67
1/26/2021 7:00:00 PM 4.5 40.1 0.299 7.36 1.86 12.66
1/26/2021 7:15:00 PM 4.5 40.1 0.299 7.37 0.8 12.64
1/26/2021 7:30:00 PM 4.5 40.1 0.3 7.36 0.98 12.61
1/26/2021 7:45:00 PM 4.51 40.118 0.3 7.35 0.77 12.59
1/26/2021 8:00:00 PM 4.51 40.118 0.3 7.35 1.42 12.55
1/26/2021 8:15:00 PM 4.51 40.118 0.3 7.33 2.38 12.54
1/26/2021 8:30:00 PM 4.52 40.136 0.3 7.3 1.43 12.52
1/26/2021 8:45:00 PM 4.53 40.154 0.3 7.33 0.81 12.51
1/26/2021 9:00:00 PM 4.53 40.154 0.3 7.31 0.47 12.49
1/26/2021 9:15:00 PM 4.54 40.172 0.288 7.33 1.11 12.43
1/26/2021 9:30:00 PM 4.55 40.19 0.302 7.32 0.68 12.42
1/26/2021 9:45:00 PM 4.56 40.208 0.279 7.31 0.74 12.41
1/26/2021 10:00:00 PM 4.57 40.226 0.302 7.28 0.42 12.39
1/26/2021 10:15:00 PM 4.59 40.262 0.304 7.24 0.64 12.38
1/26/2021 10:30:00 PM 4.59 40.262 0.304 7.22 0.62 12.34
1/26/2021 10:45:00 PM 4.6 40.28 0.303 7.22 0.72 12.36
1/26/2021 11:00:00 PM 4.61 40.298 0.302 7.21 1.33 12.33
1/26/2021 11:15:00 PM 4.61 40.298 0.302 7.22 1.08 12.34
1/26/2021 11:30:00 PM 4.62 40.316 0.301 7.26 1.12 12.31
1/26/2021 11:45:00 PM 4.62 40.316 0.3 7.23 2.73 12.29
1/27/2021 12:00:00 AM 4.63 40.334 0.301 7.24 1.04 12.32
1/27/2021 12:15:00 AM 4.63 40.334 0.302 7.25 0.65 12.3
1/27/2021 12:30:00 AM 4.65 40.37 0.304 7.26 0.68 12.29
1/27/2021 12:45:00 AM 4.66 40.388 0.305 7.25 0.85 12.27
1/27/2021 1:00:00 AM 4.67 40.406 0.307 7.26 0.89 12.26
1/27/2021 1:15:00 AM 4.68 40.424 0.307 7.27 0.8 12.26
1/27/2021 1:30:00 AM 4.68 40.424 0.308 7.28 0.58 12.23
1/27/2021 1:45:00 AM 4.69 40.442 0.307 7.27 0.96 12.22
1/27/2021 2:00:00 AM 4.69 40.442 0.306 7.23 0.91 12.23
1/27/2021 2:15:00 AM 4.69 40.442 0.305 7.23 0.75 12.21
1/27/2021 2:30:00 AM 4.69 40.442 0.304 7.22 0.75 12.22
1/27/2021 2:45:00 AM 4.69 40.442 0.303 7.25 1.2 12.23
1/27/2021 3:00:00 AM 4.69 40.442 0.303 7.29 1.01 12.21
1/27/2021 3:15:00 AM 4.69 40.442 0.303 7.3 0.67 12.22
1/27/2021 3:30:00 AM 4.69 40.442 0.304 7.3 1.24 12.22
1/27/2021 3:45:00 AM 4.7 40.46 0.305 7.3 1.3 12.21
1/27/2021 4:00:00 AM 4.7 40.46 0.306 7.29 0.81 12.22
1/27/2021 4:15:00 AM 4.71 40.478 0.306 7.3 0.93 12.2
1/27/2021 4:30:00 AM 4.7 40.46 0.306 7.29 0.78 12.2
1/27/2021 4:45:00 AM 4.71 40.478 0.306 7.27 0.5 12.21
1/27/2021 5:00:00 AM 4.71 40.478 0.305 7.27 0.83 12.21
1/27/2021 5:15:00 AM 4.7 40.46 0.304 7.29 0.7 12.19
1/27/2021 5:30:00 AM 4.7 40.46 0.303 7.31 0.81 12.21
1/27/2021 5:45:00 AM 4.7 40.46 0.303 7.33 0.84 12.21
1/27/2021 6:00:00 AM 4.7 40.46 0.303 7.33 0.92 12.2
1/27/2021 6:15:00 AM 4.7 40.46 0.304 7.35 1.1 12.18
1/27/2021 6:30:00 AM 4.7 40.46 0.305 7.34 1.19 12.2
1/27/2021 6:45:00 AM 4.7 40.46 0.306 7.33 0.88 12.17
1/27/2021 7:00:00 AM 4.71 40.478 0.307 7.29 2.05 12.18
1/27/2021 7:15:00 AM 4.72 40.496 0.307 7.24 0.55 12.18
1/27/2021 7:30:00 AM 4.72 40.496 0.307 7.24 1.37 12.18
1/27/2021 7:45:00 AM 4.72 40.496 0.307 7.25 1.49 12.17
1/27/2021 8:00:00 AM 4.72 40.496 0.306 7.25 1.09 12.18
1/27/2021 8:15:00 AM 4.72 40.496 0.305 7.25 1.04 12.22
1/27/2021 8:30:00 AM 4.72 40.496 0.305 7.23 1 12.24
1/27/2021 8:45:00 AM 4.73 40.514 0.304 7.21 1.35 12.25
1/27/2021 9:00:00 AM 4.74 40.532 0.305 7.2 0.68 12.31
1/27/2021 9:15:00 AM 4.76 40.568 0.305 7.21 0.96 12.34
1/27/2021 9:30:00 AM 4.77 40.586 0.307 7.23 0.75 12.41
1/27/2021 9:45:00 AM 4.8 40.64 0.308 7.15 1.5 12.47
1/27/2021 10:00:00 AM 4.86 40.748 0.308 7.1 0.85 12.51
1/27/2021 10:15:00 AM 4.86 40.748 0.309 7.08 0.96 12.58
1/27/2021 10:30:00 AM 4.93 40.874 0.309 7.03 0.92 12.63
1/27/2021 10:45:00 AM 4.97 40.946 0.308 7.02 0.6 12.71
1/27/2021 11:00:00 AM 5.02 41.036 0.308 7.04 0.63 12.78
1/27/2021 11:15:00 AM 5.04 41.072 0.307 7.04 0.68 12.84
1/27/2021 11:30:00 AM 5.07 41.126 0.306 6.97 0.63 12.9
1/27/2021 11:45:00 AM 5.13 41.234 0.305 6.98 0.88 12.96
1/27/2021 12:00:00 PM 5.21 41.378 0.305 6.96 0.77 13.02
1/27/2021 12:15:00 PM 5.25 41.45 0.305 6.93 0.45 13.06
1/27/2021 12:30:00 PM 5.28 41.504 0.305 7 1.21 13.12
1/27/2021 12:45:00 PM 5.31 41.558 0.306 7.01 0.92 13.16
1/27/2021 1:00:00 PM 5.34 41.612 0.306 7.07 0.71 13.2
1/27/2021 1:15:00 PM 5.39 41.702 0.306 7.05 1.59 13.25
1/27/2021 1:30:00 PM 5.44 41.792 0.306 7.09 1.03 13.29
1/27/2021 1:45:00 PM 5.49 41.882 0.306 7.09 0.62 13.32
1/27/2021 2:00:00 PM 5.52 41.936 0.305 7.12 0.99 13.35
1/27/2021 2:15:00 PM 5.54 41.972 0.304 7.16 0.65 13.35
1/27/2021 2:30:00 PM 5.57 42.026 0.304 7.15 1.13 13.36
1/27/2021 2:45:00 PM 5.62 42.116 0.303 7.16 0.85 13.39
1/27/2021 3:00:00 PM 5.65 42.17 0.303 7.19 0.9 13.39
1/27/2021 3:15:00 PM 5.68 42.224 0.303 7.19 1.16 13.43
1/27/2021 3:30:00 PM 5.69 42.242 0.302 7.27 0.69 13.41
1/27/2021 3:45:00 PM 5.71 42.278 0.303 7.24 1.44 13.41
1/27/2021 4:00:00 PM 5.71 42.278 0.302 7.3 1.51 13.42
1/27/2021 4:15:00 PM 5.69 42.242 0.303 7.38 0.64 13.39
1/27/2021 4:30:00 PM 5.68 42.224 0.302 7.39 0.86 13.37
1/27/2021 4:45:00 PM 5.65 42.17 0.302 7.45 0.75 13.34
1/27/2021 5:00:00 PM 5.64 42.152 0.303 7.5 1.03 13.3
1/27/2021 5:15:00 PM 5.62 42.116 0.299 7.56 1.48 13.22
1/27/2021 5:30:00 PM 5.6 42.08 0.304 7.63 1.04 13.17
1/27/2021 5:45:00 PM 5.57 42.026 0.29 7.67 2.95 13.13
1/27/2021 6:00:00 PM 5.54 41.972 0.301 7.71 1.37 13.06
1/27/2021 6:15:00 PM 5.52 41.936 0.302 7.71 1.5 13.01
1/27/2021 6:30:00 PM 5.49 41.882 0.302 7.73 1.17 12.93
1/27/2021 6:45:00 PM 5.46 41.828 0.303 7.74 2.25 12.9
1/27/2021 7:00:00 PM 5.44 41.792 0.303 7.68 0.89 12.82
1/27/2021 7:15:00 PM 5.43 41.774 0.303 7.64 0.99 12.8
1/27/2021 7:30:00 PM 5.4 41.72 0.304 7.64 1.25 12.77
1/27/2021 7:45:00 PM 5.38 41.684 0.303 7.61 1.61 12.7
1/27/2021 8:00:00 PM 5.36 41.648 0.303 7.64 1.11 12.68
1/27/2021 8:15:00 PM 5.33 41.594 0.303 7.65 1.49 12.64
1/27/2021 8:30:00 PM 5.32 41.576 0.303 7.66 1.09 12.61
1/27/2021 8:45:00 PM 5.3 41.54 0.303 7.64 0.77 12.59
1/27/2021 9:00:00 PM 5.28 41.504 0.304 7.68 1.55 12.53
1/27/2021 9:15:00 PM 5.27 41.486 0.305 7.7 1.09 12.49
1/27/2021 9:30:00 PM 5.25 41.45 0.307 7.71 1.09 12.46
1/27/2021 9:45:00 PM 5.25 41.45 0.309 7.72 1.15 12.43
1/27/2021 10:00:00 PM 5.23 41.414 0.31 7.75 1.13 12.38
1/27/2021 10:15:00 PM 5.22 41.396 0.311 7.75 2.07 12.38
1/27/2021 10:30:00 PM 5.21 41.378 0.311 7.74 1.03 12.35
1/27/2021 10:45:00 PM 5.19 41.342 0.311 7.75 1.03 12.33
1/27/2021 11:00:00 PM 5.18 41.324 0.31 7.77 1.32 12.31
1/27/2021 11:15:00 PM 5.18 41.324 0.309 7.79 1.32 12.31
1/27/2021 11:30:00 PM 5.17 41.306 0.308 7.8 1.19 12.29
1/27/2021 11:45:00 PM 5.15 41.27 0.307 7.83 1.53 12.28
1/28/2021 12:00:00 AM 5.13 41.234 0.307 7.84 1.3 12.27
1/28/2021 12:15:00 AM 5.12 41.216 0.307 7.84 1.28 12.25
1/28/2021 12:30:00 AM 5.11 41.198 0.308 7.86 1.59 12.24
1/28/2021 12:45:00 AM 5.08 41.144 0.309 7.87 1.37 12.23
1/28/2021 1:00:00 AM 5.06 41.108 0.309 7.88 1.69 12.2
1/28/2021 1:15:00 AM 5.02 41.036 0.31 7.89 1.24 12.21
1/28/2021 1:30:00 AM 5.01 41.018 0.31 7.89 1.37 12.2
1/28/2021 1:45:00 AM 4.99 40.982 0.309 7.89 2.05 12.21
1/28/2021 2:00:00 AM 4.96 40.928 0.308 7.9 0.92 12.2
1/28/2021 2:15:00 AM 4.93 40.874 0.307 7.89 0.77 12.21
1/28/2021 2:30:00 AM 4.91 40.838 0.306 7.91 2.02 12.21
1/28/2021 2:45:00 AM 4.87 40.766 0.306 7.93 0.7 12.2
1/28/2021 3:00:00 AM 4.84 40.712 0.305 7.93 1.14 12.23
1/28/2021 3:15:00 AM 4.8 40.64 0.306 7.95 1.14 12.2
1/28/2021 3:30:00 AM 4.75 40.55 0.306 7.97 1.08 12.22
1/28/2021 3:45:00 AM 4.73 40.514 0.307 7.98 1.08 12.22
1/28/2021 4:00:00 AM 4.69 40.442 0.308 7.97 1.41 12.22
1/28/2021 4:15:00 AM 4.65 40.37 0.308 7.97 1.22 12.21
1/28/2021 4:30:00 AM 4.62 40.316 0.308 7.96 0.95 12.23
1/28/2021 4:45:00 AM 4.58 40.244 0.308 7.97 1.3 12.23
1/28/2021 5:00:00 AM 4.54 40.172 0.307 7.98 1.4 12.24
1/28/2021 5:15:00 AM 4.5 40.1 0.306 7.99 0.7 12.27
1/28/2021 5:30:00 AM 4.47 40.046 0.306 7.99 1.01 12.26
1/28/2021 5:45:00 AM 4.43 39.974 0.305 7.99 0.48 12.28
1/28/2021 6:00:00 AM 4.39 39.902 0.305 7.99 1.37 12.28
1/28/2021 6:15:00 AM 4.34 39.812 0.305 7.99 0.96 12.3
1/28/2021 6:30:00 AM 4.31 39.758 0.306 7.99 1.42 12.3
1/28/2021 6:45:00 AM 4.28 39.704 0.307 7.99 0.84 12.31
1/28/2021 7:00:00 AM 4.22 39.596 0.308 8 0.61 12.33
1/28/2021 7:15:00 AM 4.17 39.506 0.279 7.99 1.13 12.32
1/28/2021 7:30:00 AM 4.11 39.398 0.309 7.99 1.29 12.34
1/28/2021 7:45:00 AM 4.08 39.344 0.308 7.99 0.75 12.35
1/28/2021 8:00:00 AM 4.04 39.272 0.308 7.99 0.8 12.37
1/28/2021 8:15:00 AM 4 39.2 0.307 8 0.69 12.41
1/28/2021 8:30:00 AM 3.95 39.11 0.306 7.99 0.79 12.5
1/28/2021 8:45:00 AM 3.93 39.074 0.306 7.99 0.77 12.58
1/28/2021 9:00:00 AM 3.92 39.056 0.306 7.98 1.02 12.65
1/28/2021 9:15:00 AM 3.92 39.056 0.306 7.99 0.93 12.71
1/28/2021 9:30:00 AM 3.87 38.966 0.307 8 0.62 12.79
1/28/2021 9:45:00 AM 3.86 38.948 0.309 8.01 0.66 12.86
1/28/2021 10:00:00 AM 3.87 38.966 0.31 8.02 0.61 12.91
1/28/2021 10:15:00 AM 3.9 39.02 0.31 8.01 1.32 12.97
1/28/2021 10:30:00 AM 3.92 39.056 0.311 8.02 1.02 13.03
1/28/2021 10:45:00 AM 3.94 39.092 0.31 8.02 0.27 13.09
1/28/2021 11:00:00 AM 3.95 39.11 0.31 8.01 0.74 13.14
1/28/2021 11:15:00 AM 3.98 39.164 0.309 8 0.92 13.2
1/28/2021 11:30:00 AM 4.01 39.218 0.308 7.99 1.34 13.24
1/28/2021 11:45:00 AM 4.03 39.254 0.307 7.99 0.64 13.31
1/28/2021 12:00:00 PM 4.02 39.236 0.307 7.99 0.76 13.37
1/28/2021 12:15:00 PM 4.07 39.326 0.307 7.99 0.77 13.41
1/28/2021 12:30:00 PM 4.09 39.362 0.307 7.98 0.84 13.45
1/28/2021 12:45:00 PM 4.15 39.47 0.307 7.97 1.68 13.49
1/28/2021 1:00:00 PM 4.16 39.488 0.308 7.97 1.77 13.52
1/28/2021 1:15:00 PM 4.2 39.56 0.308 7.97 1.15 13.56
1/28/2021 1:30:00 PM 4.23 39.614 0.308 7.94 0.93 13.56
1/28/2021 1:45:00 PM 4.23 39.614 0.308 7.94 0.86 13.62
1/28/2021 2:00:00 PM 4.26 39.668 0.307 7.93 0.47 13.64
1/28/2021 2:15:00 PM 4.26 39.668 0.307 7.93 1.45 13.64
1/28/2021 2:30:00 PM 4.27 39.686 0.306 7.92 0.88 13.67
1/28/2021 2:45:00 PM 4.27 39.686 0.305 7.91 1.56 13.68
1/28/2021 3:00:00 PM 4.28 39.704 0.305 7.91 0.44 13.69
1/28/2021 3:15:00 PM 4.26 39.668 0.305 7.91 0.65 13.7
1/28/2021 3:30:00 PM 4.25 39.65 0.304 7.9 0.91 13.71
1/28/2021 3:45:00 PM 4.2 39.56 0.305 7.9 0.53 13.73
1/28/2021 4:00:00 PM 4.18 39.524 0.305 7.93 0.8 13.71
1/28/2021 4:15:00 PM 4.15 39.47 0.305 7.94 0.83 13.7
1/28/2021 4:30:00 PM 4.12 39.416 0.305 7.95 1.11 13.68
1/28/2021 4:45:00 PM 4.06 39.308 0.305 7.97 0.87 13.68
1/28/2021 5:00:00 PM 3.99 39.182 0.305 7.98 0.81 13.63
1/28/2021 5:15:00 PM 3.93 39.074 0.304 8.01 0.78 13.62
1/28/2021 5:30:00 PM 3.87 38.966 0.304 8.02 0.9 13.58
1/28/2021 5:45:00 PM 3.81 38.858 0.304 8.04 0.67 13.53
1/28/2021 6:00:00 PM 3.75 38.75 0.304 8.05 0.39 13.49
1/28/2021 6:15:00 PM 3.68 38.624 0.305 8.06 0.64 13.48
1/28/2021 6:30:00 PM 3.63 38.534 0.305 8.06 0.62 13.43
1/28/2021 6:45:00 PM 3.58 38.444 0.306 8.06 0.94 13.4
1/28/2021 7:00:00 PM 3.51 38.318 0.307 8.08 0.76 13.36
1/28/2021 7:15:00 PM 3.48 38.264 0.308 8.07 0.86 13.34
1/28/2021 7:30:00 PM 3.44 38.192 0.309 8.08 0.47 13.31
1/28/2021 7:45:00 PM 3.42 38.156 0.309 8.08 1.02 13.27
1/28/2021 8:00:00 PM 3.36 38.048 0.309 8.08 0.44 13.26
1/28/2021 8:15:00 PM 3.33 37.994 0.308 8.08 1 13.24
1/28/2021 8:30:00 PM 3.3 37.94 0.308 8.08 0.79 13.23
1/28/2021 8:45:00 PM 3.25 37.85 0.308 8.08 0.83 13.21
1/28/2021 9:00:00 PM 3.21 37.778 0.307 8.07 0.52 13.18
1/28/2021 9:15:00 PM 3.17 37.706 0.308 8.07 0.43 13.18
1/28/2021 9:30:00 PM 3.13 37.634 0.309 8.06 0.65 13.15
1/28/2021 9:45:00 PM 3.1 37.58 0.311 8.05 1.25 13.14
1/28/2021 10:00:00 PM 3.05 37.49 0.313 8.04 0.44 13.13
1/28/2021 10:15:00 PM 3.03 37.454 0.314 8.03 0.54 13.11
1/28/2021 10:30:00 PM 2.99 37.382 0.315 8.02 2.65 13.09
1/28/2021 10:45:00 PM 2.99 37.382 0.315 8.01 0.66 13.08
1/28/2021 11:00:00 PM 2.98 37.364 0.315 8.01 0.59 13.07
1/28/2021 11:15:00 PM 2.98 37.364 0.314 8.01 0.83 13.06
1/28/2021 11:30:00 PM 2.94 37.292 0.313 8.01 1.73 13.03
1/28/2021 11:45:00 PM 2.95 37.31 0.311 8 0.75 13.02
1/29/2021 12:00:00 AM 2.91 37.238 0.311 8.01 1.14 13.04
1/29/2021 12:15:00 AM 2.89 37.202 0.311 8.01 0.6 13.04
1/29/2021 12:30:00 AM 2.89 37.202 0.311 8.01 0.63 13.02
1/29/2021 12:45:00 AM 2.86 37.148 0.312 8.02 0.36 13.02
1/29/2021 1:00:00 AM 2.82 37.076 0.313 8.01 0.67 13.02
1/29/2021 1:15:00 AM 2.8 37.04 0.314 8.02 0.81 13.01
1/29/2021 1:30:00 AM 2.77 36.986 0.315 8.02 0.56 12.99
1/29/2021 1:45:00 AM 2.74 36.932 0.315 8.01 0.54 13.01
1/29/2021 2:00:00 AM 2.71 36.878 0.314 8.02 0.82 13.01
1/29/2021 2:15:00 AM 2.68 36.824 0.313 8.02 0.67 13.01
1/29/2021 2:30:00 AM 2.65 36.77 0.312 8.01 0.49 13.03
1/29/2021 2:45:00 AM 2.62 36.716 0.311 8.02 0.78 13.03
1/29/2021 3:00:00 AM 2.58 36.644 0.31 8.01 1.07 13.04
1/29/2021 3:15:00 AM 2.55 36.59 0.309 8.01 0.32 13.05
1/29/2021 3:30:00 AM 2.52 36.536 0.31 8 0.74 13.06
1/29/2021 3:45:00 AM 2.48 36.464 0.31 7.99 0.67 13.07
1/29/2021 4:00:00 AM 2.44 36.392 0.311 8 0.48 13.09
1/29/2021 4:15:00 AM 2.41 36.338 0.312 7.98 0.7 13.1
1/29/2021 4:30:00 AM 2.38 36.284 0.313 7.98 0.67 13.12
1/29/2021 4:45:00 AM 2.35 36.23 0.313 7.98 0.66 13.12
1/29/2021 5:00:00 AM 2.29 36.122 0.312 7.98 0.6 13.14
1/29/2021 5:15:00 AM 2.25 36.05 0.312 7.98 0.53 13.15
1/29/2021 5:30:00 AM 2.24 36.032 0.311 7.97 0.81 13.17
1/29/2021 5:45:00 AM 2.2 35.96 0.31 7.97 0.54 13.18
1/29/2021 6:00:00 AM 2.15 35.87 0.309 7.98 0.34 13.22
1/29/2021 6:15:00 AM 2.11 35.798 0.309 7.99 0.8 13.22
1/29/2021 6:30:00 AM 2.04 35.672 0.31 7.99 0.88 13.24
1/29/2021 6:45:00 AM 2 35.6 0.311 7.99 0.59 13.27
1/29/2021 7:00:00 AM 1.96 35.528 0.312 7.98 0.4 13.26
1/29/2021 7:15:00 AM 1.91 35.438 0.314 7.98 0.26 13.3
1/29/2021 7:30:00 AM 1.87 35.366 0.315 7.97 0.74 13.3
1/29/2021 7:45:00 AM 1.85 35.33 0.315 7.97 0.54 13.31
1/29/2021 8:00:00 AM 1.8 35.24 0.315 7.97 1.12 13.35
1/29/2021 8:15:00 AM 1.79 35.222 0.314 7.96 0.55 13.39
1/29/2021 8:30:00 AM 1.76 35.168 0.314 7.95 1.72 13.45
1/29/2021 8:45:00 AM 1.76 35.168 0.313 7.92 0.73 13.52
1/29/2021 9:00:00 AM 1.73 35.114 0.312 7.91 1.11 13.59
1/29/2021 9:15:00 AM 1.72 35.096 0.312 7.9 0.38 13.64
1/29/2021 9:30:00 AM 1.73 35.114 0.312 7.9 0.56 13.71
1/29/2021 9:45:00 AM 1.74 35.132 0.313 7.91 1.31 13.77
1/29/2021 10:00:00 AM 1.74 35.132 0.315 7.93 0.86 13.81
1/29/2021 10:15:00 AM 1.76 35.168 0.316 7.93 0.83 13.89
1/29/2021 10:30:00 AM 1.81 35.258 0.317 7.91 0.55 13.94
1/29/2021 10:45:00 AM 1.85 35.33 0.317 7.9 0.82 13.99
1/29/2021 11:00:00 AM 1.87 35.366 0.317 7.89 0.63 14.05
1/29/2021 11:15:00 AM 1.92 35.456 0.317 7.88 0.49 14.11
1/29/2021 11:30:00 AM 1.98 35.564 0.316 7.85 0.86 14.13
1/29/2021 11:45:00 AM 2.03 35.654 0.315 7.84 0.69 14.19
1/29/2021 12:00:00 PM 2.09 35.762 0.314 7.82 1.41 14.25
1/29/2021 12:15:00 PM 2.14 35.852 0.313 7.8 0.68 14.3
1/29/2021 12:30:00 PM 2.2 35.96 0.313 7.76 0.99 14.34
1/29/2021 12:45:00 PM 2.24 36.032 0.313 7.75 0.63 14.38
1/29/2021 1:00:00 PM 2.28 36.104 0.313 7.74 1.2 14.41
1/29/2021 1:15:00 PM 2.34 36.212 0.313 7.73 0.85 14.44
1/29/2021 1:30:00 PM 2.37 36.266 0.314 7.72 0.68 14.47
1/29/2021 1:45:00 PM 2.39 36.302 0.314 7.74 0.88 14.51
1/29/2021 2:00:00 PM 2.43 36.374 0.313 7.74 1.34 14.52
1/29/2021 2:15:00 PM 2.49 36.482 0.313 7.73 0.95 14.54
1/29/2021 2:30:00 PM 2.47 36.446 0.312 7.77 1.37 14.57
1/29/2021 2:45:00 PM 2.48 36.464 0.311 7.74 1.25 14.56
1/29/2021 3:00:00 PM 2.5 36.5 0.31 7.78 1.42 14.56
1/29/2021 3:15:00 PM 2.51 36.518 0.309 7.75 1.32 14.57
1/29/2021 3:30:00 PM 2.51 36.518 0.309 7.76 1.08 14.57
1/29/2021 3:45:00 PM 2.53 36.554 0.308 7.77 1.53 14.57
1/29/2021 4:00:00 PM 2.53 36.554 0.308 7.75 1.35 14.57
1/29/2021 4:15:00 PM 2.53 36.554 0.308 7.76 1.14 14.55
1/29/2021 4:30:00 PM 2.53 36.554 0.307 7.76 1 14.56
1/29/2021 4:45:00 PM 2.52 36.536 0.307 7.77 1.13 14.55
1/29/2021 5:00:00 PM 2.47 36.446 0.307 7.82 1 14.5
1/29/2021 5:15:00 PM 2.46 36.428 0.307 7.85 1.38 14.49
1/29/2021 5:30:00 PM 2.43 36.374 0.306 7.88 0.92 14.44
1/29/2021 5:45:00 PM 2.41 36.338 0.306 7.91 1 14.37
1/29/2021 6:00:00 PM 2.4 36.32 0.306 7.92 1.1 14.32
1/29/2021 6:15:00 PM 2.37 36.266 0.306 7.94 0.8 14.28
1/29/2021 6:30:00 PM 2.33 36.194 0.306 7.96 0.75 14.23
1/29/2021 6:45:00 PM 2.3 36.14 0.306 7.98 0.99 14.19
1/29/2021 7:00:00 PM 2.28 36.104 0.306 7.98 0.89 14.13
1/29/2021 7:15:00 PM 2.27 36.086 0.307 7.96 0.98 14.09
1/29/2021 7:30:00 PM 2.26 36.068 0.307 7.94 1.47 14.09
1/29/2021 7:45:00 PM 2.25 36.05 0.307 7.91 0.82 14.05
1/29/2021 8:00:00 PM 2.24 36.032 0.308 7.91 0.47 14.03
1/29/2021 8:15:00 PM 2.22 35.996 0.308 7.91 1.19 13.99
1/29/2021 8:30:00 PM 2.21 35.978 0.308 7.89 3.36 13.97
1/29/2021 8:45:00 PM 2.18 35.924 0.308 7.87 0.63 13.94
1/29/2021 9:00:00 PM 2.15 35.87 0.308 7.86 1.5 13.91
1/29/2021 9:15:00 PM 2.14 35.852 0.308 7.85 1.37 13.86
1/29/2021 9:30:00 PM 2.12 35.816 0.309 7.84 0.9 13.84
1/29/2021 9:45:00 PM 2.1 35.78 0.31 7.83 0.39 13.82
1/29/2021 10:00:00 PM 2.09 35.762 0.312 7.82 0.41 13.8
1/29/2021 10:15:00 PM 2.06 35.708 0.313 7.81 0.69 13.75
1/29/2021 10:30:00 PM 2.08 35.744 0.315 7.79 0.72 13.74
1/29/2021 10:45:00 PM 2.08 35.744 0.317 7.79 0.86 13.71
1/29/2021 11:00:00 PM 2.05 35.69 0.318 7.8 0.53 13.71
1/29/2021 11:15:00 PM 2.05 35.69 0.318 7.8 0.26 13.67
1/29/2021 11:30:00 PM 2.05 35.69 0.318 7.79 0.61 13.66
1/29/2021 11:45:00 PM 2.04 35.672 0.317 7.79 0.58 13.63
1/30/2021 12:00:00 AM 2.04 35.672 0.316 7.77 0.83 13.62
1/30/2021 12:15:00 AM 2.04 35.672 0.315 7.78 0.99 13.62
1/30/2021 12:30:00 AM 2.03 35.654 0.315 7.79 0.48 13.62
1/30/2021 12:45:00 AM 2.01 35.618 0.315 7.79 0.55 13.61
1/30/2021 1:00:00 AM 2 35.6 0.315 7.78 0.74 13.6
1/30/2021 1:15:00 AM 2.01 35.618 0.316 7.78 0.67 13.57
1/30/2021 1:30:00 AM 1.99 35.582 0.318 7.78 0.66 13.54
1/30/2021 1:45:00 AM 2 35.6 0.319 7.77 1.45 13.53
1/30/2021 2:00:00 AM 1.99 35.582 0.319 7.76 0.49 13.55
1/30/2021 2:15:00 AM 1.99 35.582 0.319 7.75 1.16 13.54
1/30/2021 2:30:00 AM 1.98 35.564 0.318 7.73 0.85 13.54
1/30/2021 2:45:00 AM 1.96 35.528 0.318 7.73 0.99 13.53
1/30/2021 3:00:00 AM 1.95 35.51 0.317 7.74 0.95 13.54
1/30/2021 3:15:00 AM 1.93 35.474 0.315 7.75 0.56 13.55
1/30/2021 3:30:00 AM 1.91 35.438 0.314 7.75 0.98 13.53
1/30/2021 3:45:00 AM 1.89 35.402 0.314 7.76 0.44 13.55
1/30/2021 4:00:00 AM 1.86 35.348 0.315 7.77 0.92 13.54
1/30/2021 4:15:00 AM 1.82 35.276 0.316 7.8 0.95 13.56
1/30/2021 4:30:00 AM 1.8 35.24 0.316 7.82 0.62 13.55
1/30/2021 4:45:00 AM 1.75 35.15 0.317 7.83 0.65 13.57
1/30/2021 5:00:00 AM 1.74 35.132 0.316 7.86 1.7 13.58
1/30/2021 5:15:00 AM 1.71 35.078 0.316 7.86 0.85 13.57
1/30/2021 5:30:00 AM 1.68 35.024 0.315 7.88 0.51 13.6
1/30/2021 5:45:00 AM 1.64 34.952 0.314 7.89 0.73 13.58
1/30/2021 6:00:00 AM 1.62 34.916 0.314 7.9 0.52 13.62
1/30/2021 6:15:00 AM 1.59 34.862 0.313 7.91 4.45 13.61
1/30/2021 6:30:00 AM 1.57 34.826 0.313 7.95 1.15 13.64
1/30/2021 6:45:00 AM 1.54 34.772 0.314 7.97 0.7 13.64
1/30/2021 7:00:00 AM 1.51 34.718 0.315 7.98 0.57 13.63
1/30/2021 7:15:00 AM 1.49 34.682 0.316 7.99 1.22 13.64
1/30/2021 7:30:00 AM 1.46 34.628 0.316 7.99 3.33 13.64
1/30/2021 7:45:00 AM 1.43 34.574 0.317 7.99 1.22 13.66
1/30/2021 8:00:00 AM 1.42 34.556 0.316 8 0.64 13.69
1/30/2021 8:15:00 AM 1.39 34.502 0.316 7.99 0.52 13.72
1/30/2021 8:30:00 AM 1.4 34.52 0.315 7.96 1.14 13.77
1/30/2021 8:45:00 AM 1.42 34.556 0.314 7.9 9.29 13.83
1/30/2021 9:00:00 AM 1.4 34.52 0.314 7.85 0.52 13.88
1/30/2021 9:15:00 AM 1.41 34.538 0.314 7.8 0.96 13.91
1/30/2021 9:30:00 AM 1.41 34.538 0.315 7.78 0.45 13.98
1/30/2021 9:45:00 AM 1.45 34.61 0.316 7.74 0.64 14.01
1/30/2021 10:00:00 AM 1.49 34.682 0.316 7.74 0.39 14.06
1/30/2021 10:15:00 AM 1.53 34.754 0.317 7.74 0.4 14.05
1/30/2021 10:30:00 AM 1.59 34.862 0.317 7.73 0.63 14.12
1/30/2021 10:45:00 AM 1.64 34.952 0.317 7.69 0.33 14.17
1/30/2021 11:00:00 AM 1.7 35.06 0.317 7.67 0.76 14.22
1/30/2021 11:15:00 AM 1.76 35.168 0.316 7.63 0.52 14.24
1/30/2021 11:30:00 AM 1.82 35.276 0.315 7.6 0.66 14.3
1/30/2021 11:45:00 AM 1.89 35.402 0.314 7.55 0.83 14.34
1/30/2021 12:00:00 PM 1.95 35.51 0.314 7.52 0.53 14.37
1/30/2021 12:15:00 PM 2.02 35.636 0.313 7.45 0.66 14.4
1/30/2021 12:30:00 PM 2.07 35.726 0.313 7.4 0.59 14.41
1/30/2021 12:45:00 PM 2.14 35.852 0.314 7.35 1.06 14.46
1/30/2021 1:00:00 PM 2.2 35.96 0.314 7.31 0.81 14.48
1/30/2021 1:15:00 PM 2.27 36.086 0.314 7.27 0.66 14.49
1/30/2021 1:30:00 PM 2.33 36.194 0.315 7.23 0.94 14.51
1/30/2021 1:45:00 PM 2.4 36.32 0.315 7.19 0.73 14.52
1/30/2021 2:00:00 PM 2.44 36.392 0.315 7.16 1.03 14.52
1/30/2021 2:15:00 PM 2.51 36.518 0.314 7.16 1.07 14.54
1/30/2021 2:30:00 PM 2.54 36.572 0.314 7.18 0.83 14.54
1/30/2021 2:45:00 PM 2.59 36.662 0.313 7.17 0.82 14.55
1/30/2021 3:00:00 PM 2.63 36.734 0.313 7.07 0.82 14.56
1/30/2021 3:15:00 PM 2.67 36.806 0.312 7.04 1.3 14.52
1/30/2021 3:30:00 PM 2.67 36.806 0.312 7.01 0.62 14.51
1/30/2021 3:45:00 PM 2.69 36.842 0.313 6.99 0.75 14.53
1/30/2021 4:00:00 PM 2.69 36.842 0.313 6.99 0.93 14.5
1/30/2021 4:15:00 PM 2.68 36.824 0.313 6.97 1.01 14.49
1/30/2021 4:30:00 PM 2.68 36.824 0.314 6.94 0.6 14.46
1/30/2021 4:45:00 PM 2.66 36.788 0.314 6.98 0.86 14.44
1/30/2021 5:00:00 PM 2.65 36.77 0.314 7.11 0.81 14.37
1/30/2021 5:15:00 PM 2.62 36.716 0.314 7.28 0.56 14.36
1/30/2021 5:30:00 PM 2.58 36.644 0.314 7.49 1.06 14.31
1/30/2021 5:45:00 PM 2.56 36.608 0.314 7.65 0.62 14.25
1/30/2021 6:00:00 PM 2.52 36.536 0.314 7.75 0.76 14.2
1/30/2021 6:15:00 PM 2.49 36.482 0.307 7.79 0.61 14.15
1/30/2021 6:30:00 PM 2.46 36.428 0.315 7.85 0.83 14.11
1/30/2021 6:45:00 PM 2.44 36.392 0.315 7.95 1.04 14.07
1/30/2021 7:00:00 PM 2.39 36.302 0.316 7.95 0.7 14.02
1/30/2021 7:15:00 PM 2.37 36.266 0.316 8.03 0.5 14
1/30/2021 7:30:00 PM 2.35 36.23 0.314 8.02 0.58 13.96
1/30/2021 7:45:00 PM 2.33 36.194 0.317 8.01 0.66 13.93
1/30/2021 8:00:00 PM 2.31 36.158 0.316 8.01 0.96 13.91
1/30/2021 8:15:00 PM 2.29 36.122 0.316 8.04 1.4 13.89
1/30/2021 8:30:00 PM 2.26 36.068 0.316 8.06 0.55 13.84
1/30/2021 8:45:00 PM 2.24 36.032 0.314 8.07 0.64 13.82
1/30/2021 9:00:00 PM 2.22 35.996 0.316 8.08 0.81 13.79
1/30/2021 9:15:00 PM 2.21 35.978 0.316 8.08 0.75 13.77
1/30/2021 9:30:00 PM 2.2 35.96 0.317 8.08 0.75 13.74
1/30/2021 9:45:00 PM 2.19 35.942 0.317 8.07 0.99 13.7
1/30/2021 10:00:00 PM 2.17 35.906 0.316 8.07 0.68 13.67
1/30/2021 10:15:00 PM 2.19 35.942 0.319 8.06 1.86 13.65
1/30/2021 10:30:00 PM 2.19 35.942 0.32 8.04 1.22 13.6
1/30/2021 10:45:00 PM 2.21 35.978 0.32 8.03 1.11 13.61
1/30/2021 11:00:00 PM 2.21 35.978 0.32 8.03 0.5 13.56
1/30/2021 11:15:00 PM 2.23 36.014 0.319 8.01 0.92 13.54
1/30/2021 11:30:00 PM 2.23 36.014 0.318 8 0.82 13.52
1/30/2021 11:45:00 PM 2.26 36.068 0.317 7.99 0.89 13.52
1/31/2021 12:00:00 AM 2.27 36.086 0.316 7.97 0.52 13.49
1/31/2021 12:15:00 AM 2.3 36.14 0.315 7.96 1.12 13.45
1/31/2021 12:30:00 AM 2.31 36.158 0.315 7.95 0.35 13.43
1/31/2021 12:45:00 AM 2.33 36.194 0.315 7.91 0.74 13.43
1/31/2021 1:00:00 AM 2.35 36.23 0.316 7.9 0.46 13.39
1/31/2021 1:15:00 AM 2.38 36.284 0.313 7.89 0.48 13.38
1/31/2021 1:30:00 AM 2.4 36.32 0.279 7.88 0.99 13.37
1/31/2021 1:45:00 AM 2.42 36.356 0.319 7.87 0.71 13.32
1/31/2021 2:00:00 AM 2.44 36.392 0.319 7.85 0.96 13.32
1/31/2021 2:15:00 AM 2.46 36.428 0.31 7.84 1.02 13.31
1/31/2021 2:30:00 AM 2.47 36.446 0.273 7.84 1.14 13.3
1/31/2021 2:45:00 AM 2.49 36.482 0.288 7.83 1.34 13.27
1/31/2021 3:00:00 AM 2.49 36.482 0.289 7.82 0.81 13.29
1/31/2021 3:15:00 AM 2.5 36.5 0.305 7.81 1.25 13.28
1/31/2021 3:30:00 AM 2.51 36.518 0.295 7.82 0.68 13.27
1/31/2021 3:45:00 AM 2.52 36.536 0.274 7.8 0.87 13.26
1/31/2021 4:00:00 AM 2.53 36.554 0.303 7.77 0.73 13.25
1/31/2021 4:15:00 AM 2.54 36.572 0.264 7.76 0.6 13.21
1/31/2021 4:30:00 AM 2.54 36.572 0.306 7.75 0.83 13.23
1/31/2021 4:45:00 AM 2.55 36.59 0.308 7.74 0.56 13.23
1/31/2021 5:00:00 AM 2.55 36.59 0.308 7.74 0.75 13.21
1/31/2021 5:15:00 AM 2.55 36.59 0.308 7.74 0.5 13.23
1/31/2021 5:30:00 AM 2.55 36.59 0.307 7.71 1.16 13.21
1/31/2021 5:45:00 AM 2.55 36.59 0.305 7.73 1.16 13.21
1/31/2021 6:00:00 AM 2.54 36.572 0.304 7.72 2.26 13.22
1/31/2021 6:15:00 AM 2.54 36.572 0.304 7.72 2.1 13.21
1/31/2021 6:30:00 AM 2.54 36.572 0.305 7.72 0.99 13.2
1/31/2021 6:45:00 AM 2.54 36.572 0.304 7.69 0.93 13.19
1/31/2021 7:00:00 AM 2.54 36.572 0.306 7.67 0.65 13.19
1/31/2021 7:15:00 AM 2.54 36.572 0.307 7.69 0.91 13.19
1/31/2021 7:30:00 AM 2.53 36.554 0.308 7.69 1.16 13.19
1/31/2021 7:45:00 AM 2.53 36.554 0.309 7.7 1.02 13.19
1/31/2021 8:00:00 AM 2.52 36.536 0.31 7.72 1.15 13.2
1/31/2021 8:15:00 AM 2.52 36.536 0.308 7.72 1.54 13.21
1/31/2021 8:30:00 AM 2.51 36.518 0.308 7.7 0.57 13.24
1/31/2021 8:45:00 AM 2.53 36.554 0.308 7.7 0.91 13.27
1/31/2021 9:00:00 AM 2.53 36.554 0.308 7.68 0.74 13.32
1/31/2021 9:15:00 AM 2.52 36.536 0.309 7.7 0.83 13.36
1/31/2021 9:30:00 AM 2.51 36.518 0.309 7.71 1.06 13.38
1/31/2021 9:45:00 AM 2.5 36.5 0.31 7.74 0.98 13.41
1/31/2021 10:00:00 AM 2.45 36.41 0.311 7.8 0.88 13.46
1/31/2021 10:15:00 AM 2.42 36.356 0.311 7.8 1.07 13.51
1/31/2021 10:30:00 AM 2.44 36.392 0.312 7.81 0.92 13.54
1/31/2021 10:45:00 AM 2.46 36.428 0.312 7.82 1.57 13.6
1/31/2021 11:00:00 AM 2.47 36.446 0.312 7.81 0.6 13.63
1/31/2021 11:15:00 AM 2.48 36.464 0.312 7.83 0.64 13.66
1/31/2021 11:30:00 AM 2.46 36.428 0.311 7.82 0.59 13.7
1/31/2021 11:45:00 AM 2.47 36.446 0.309 7.81 2.07 13.73
1/31/2021 12:00:00 PM 2.45 36.41 0.308 7.8 0.68 13.8
1/31/2021 12:15:00 PM 2.43 36.374 0.308 7.8 1 13.83
1/31/2021 12:30:00 PM 2.44 36.392 0.307 7.8 0.69 13.86
1/31/2021 12:45:00 PM 2.45 36.41 0.307 7.83 0.89 13.9
1/31/2021 1:00:00 PM 2.43 36.374 0.308 7.84 0.88 13.93
1/31/2021 1:15:00 PM 2.45 36.41 0.308 7.82 1.06 13.98
1/31/2021 1:30:00 PM 2.46 36.428 0.308 7.84 0.48 14.01
1/31/2021 1:45:00 PM 2.45 36.41 0.307 7.82 0.87 14.05
1/31/2021 2:00:00 PM 2.45 36.41 0.306 7.82 1.05 14.08
1/31/2021 2:15:00 PM 2.46 36.428 0.306 7.82 0.86 14.09
1/31/2021 2:30:00 PM 2.46 36.428 0.305 7.83 1.12 14.11
1/31/2021 2:45:00 PM 2.46 36.428 0.304 7.83 0.76 14.14
1/31/2021 3:00:00 PM 2.44 36.392 0.303 7.83 0.66 14.17
1/31/2021 3:15:00 PM 2.39 36.302 0.303 7.85 0.47 14.15
1/31/2021 3:30:00 PM 2.36 36.248 0.302 7.86 0.42 14.17
1/31/2021 3:45:00 PM 2.36 36.248 0.302 7.85 0.51 14.16
1/31/2021 4:00:00 PM 2.37 36.266 0.302 7.84 0.65 14.17
1/31/2021 4:15:00 PM 2.36 36.248 0.302 7.87 0.86 14.18
1/31/2021 4:30:00 PM 2.35 36.23 0.302 7.86 0.76 14.16
1/31/2021 4:45:00 PM 2.29 36.122 0.302 7.84 0.52 14.13
1/31/2021 5:00:00 PM 2.28 36.104 0.302 7.83 0.61 14.1
1/31/2021 5:15:00 PM 2.28 36.104 0.302 7.84 0.79 14.06
1/31/2021 5:30:00 PM 2.27 36.086 0.301 7.82 1.26 14.03
1/31/2021 5:45:00 PM 2.24 36.032 0.301 7.81 0.52 13.97
1/31/2021 6:00:00 PM 2.22 35.996 0.286 7.8 0.34 13.96
1/31/2021 6:15:00 PM 2.22 35.996 0.304 7.78 0.7 13.89
1/31/2021 6:30:00 PM 2.22 35.996 0.302 7.76 1.42 13.88
1/31/2021 6:45:00 PM 2.21 35.978 0.299 7.73 0.99 13.83
1/31/2021 7:00:00 PM 2.19 35.942 0.295 7.71 3.9 13.8
1/31/2021 7:15:00 PM 2.19 35.942 0.29 7.7 0.7 13.76
1/31/2021 7:30:00 PM 2.18 35.924 0.306 7.68 0.33 13.75
1/31/2021 7:45:00 PM 2.17 35.906 0.304 7.66 0.61 13.72
1/31/2021 8:00:00 PM 2.14 35.852 0.296 7.64 0.59 13.68
1/31/2021 8:15:00 PM 2.13 35.834 0.297 7.61 1.15 13.66
1/31/2021 8:30:00 PM 2.11 35.798 0.297 7.63 1.1 13.65
1/31/2021 8:45:00 PM 2.07 35.726 0.296 7.66 0.83 13.59
1/31/2021 9:00:00 PM 2.02 35.636 0.296 7.66 1.05 13.6
1/31/2021 9:15:00 PM 1.98 35.564 0.297 7.63 1.43 13.58
1/31/2021 9:30:00 PM 1.94 35.492 0.297 7.6 0.77 13.52
1/31/2021 9:45:00 PM 1.88 35.384 0.299 7.59 0.64 13.53
1/31/2021 10:00:00 PM 1.86 35.348 0.3 7.54 0.6 13.52
1/31/2021 10:15:00 PM 1.82 35.276 0.3 7.51 0.56 13.48
1/31/2021 10:30:00 PM 1.78 35.204 0.3 7.5 0.71 13.47
1/31/2021 10:45:00 PM 1.74 35.132 0.299 7.47 0.64 13.48
1/31/2021 11:00:00 PM 1.71 35.078 0.299 7.46 0.64 13.46
1/31/2021 11:15:00 PM 1.68 35.024 0.298 7.44 1.41 13.47
1/31/2021 11:30:00 PM 1.66 34.988 0.297 7.42 0.76 13.47
1/31/2021 11:45:00 PM 1.63 34.934 0.295 7.43 1.28 13.47
2/1/2021 12:00:00 AM 1.57 34.826 0.295 7.44 0.64 13.49
2/1/2021 12:15:00 AM 1.56 34.808 0.294 7.44 0.68 13.47
2/1/2021 12:30:00 AM 1.53 34.754 0.295 7.43 1.02 13.47
2/1/2021 12:45:00 AM 1.53 34.754 0.296 7.42 0.79 13.45
2/1/2021 1:00:00 AM 1.53 34.754 0.297 7.43 0.69 13.47
2/1/2021 1:15:00 AM 1.54 34.772 0.298 7.44 0.65 13.45
2/1/2021 1:30:00 AM 1.56 34.808 0.299 7.46 0.99 13.45
2/1/2021 1:45:00 AM 1.55 34.79 0.299 7.47 0.52 13.46
2/1/2021 2:00:00 AM 1.56 34.808 0.298 7.48 0.89 13.45
2/1/2021 2:15:00 AM 1.55 34.79 0.288 7.51 0.65 13.45
2/1/2021 2:30:00 AM 1.56 34.808 0.275 7.51 0.66 13.47
2/1/2021 2:45:00 AM 1.56 34.808 0.281 7.54 0.84 13.46
2/1/2021 3:00:00 AM 1.56 34.808 0.297 7.56 0.95 13.45
2/1/2021 3:15:00 AM 1.56 34.808 0.292 7.54 0.63 13.46
2/1/2021 3:30:00 AM 1.57 34.826 0.294 7.54 1.41 13.46
2/1/2021 3:45:00 AM 1.57 34.826 0.302 7.53 0.99 13.46
2/1/2021 4:00:00 AM 1.57 34.826 0.29 7.51 0.75 13.45
2/1/2021 4:15:00 AM 1.58 34.844 0.286 7.49 1.01 13.45
2/1/2021 4:30:00 AM 1.58 34.844 0.29 7.48 1.51 13.45
2/1/2021 4:45:00 AM 1.58 34.844 0.277 7.48 0.59 13.44
2/1/2021 5:00:00 AM 1.58 34.844 0.296 7.46 0.84 13.43
2/1/2021 5:15:00 AM 1.59 34.862 0.293 7.44 2.64 13.44
2/1/2021 5:30:00 AM 1.59 34.862 0.278 7.42 1.28 13.46
2/1/2021 5:45:00 AM 1.58 34.844 0.279 7.4 0.83 13.47
2/1/2021 6:00:00 AM 1.55 34.79 0.289 7.38 1.06 13.46
2/1/2021 6:15:00 AM 1.53 34.754 0.291 7.35 0.83 13.48
2/1/2021 6:30:00 AM 1.51 34.718 0.287 7.33 0.42 13.47
2/1/2021 6:45:00 AM 1.52 34.736 0.296 7.3 0.65 13.44
2/1/2021 7:00:00 AM 1.36 34.448 0.305 7.29 2.34 13.48
2/1/2021 7:15:00 AM 1.33 34.394 0.299 7.23 1.32 13.46
2/1/2021 7:30:00 AM 1.28 34.304 0.281 7.19 0.9 13.46
2/1/2021 7:45:00 AM 1.28 34.304 0.298 7.15 0.77 13.46
2/1/2021 8:00:00 AM 1.31 34.358 0.297 7.12 0.72 13.48
2/1/2021 8:15:00 AM 1.29 34.322 0.296 7.1 2.18 13.5
2/1/2021 8:30:00 AM 1.26 34.268 0.295 7.08 0.96 13.52
2/1/2021 8:45:00 AM 1.27 34.286 0.294 7.07 1.24 13.56
2/1/2021 9:00:00 AM 1.28 34.304 0.293 7.05 0.57 13.61
2/1/2021 9:15:00 AM 1.32 34.376 0.294 7.03 0.46 13.66
2/1/2021 9:30:00 AM 1.34 34.412 0.294 7.02 0.81 13.71
2/1/2021 9:45:00 AM 1.36 34.448 0.295 6.99 0.71 13.75
2/1/2021 10:00:00 AM 1.4 34.52 0.295 6.97 0.42 13.78
2/1/2021 10:15:00 AM 1.44 34.592 0.297 6.96 1.15 13.81
2/1/2021 10:30:00 AM 1.47 34.646 0.298 6.94 1.88 13.86
2/1/2021 10:45:00 AM 1.49 34.682 0.3 6.96 0.59 13.92
2/1/2021 11:00:00 AM 1.52 34.736 0.3 6.91 0.79 13.96
2/1/2021 11:15:00 AM 1.55 34.79 0.299 6.9 0.76 14.01
2/1/2021 11:30:00 AM 1.58 34.844 0.298 6.91 0.94 14.05
2/1/2021 11:45:00 AM 1.62 34.916 0.297 6.9 0.35 14.09
2/1/2021 12:00:00 PM 1.66 34.988 0.297 6.92 0.38 14.11
2/1/2021 12:15:00 PM 1.69 35.042 0.297 6.93 0.38 14.16
2/1/2021 12:30:00 PM 1.71 35.078 0.297 6.95 0.99 14.22
2/1/2021 12:45:00 PM 1.74 35.132 0.297 6.95 0.41 14.22
2/1/2021 1:00:00 PM 1.7 35.06 0.297 6.98 0.49 14.28
2/1/2021 1:15:00 PM 1.67 35.006 0.298 6.97 0.47 14.32
2/1/2021 1:30:00 PM 1.71 35.078 0.297 6.94 0.85 14.32
2/1/2021 1:45:00 PM 1.65 34.97 0.298 6.94 1.51 14.35
2/1/2021 2:00:00 PM 1.6 34.88 0.297 6.91 0.65 14.36
2/1/2021 2:15:00 PM 1.52 34.736 0.296 6.91 1.04 14.37
2/1/2021 2:30:00 PM 1.39 34.502 0.294 6.88 0.23 14.4
2/1/2021 2:45:00 PM 1.33 34.394 0.293 6.85 0.44 14.37
2/1/2021 3:00:00 PM 1.26 34.268 0.292 6.81 1.39 14.37
2/1/2021 3:15:00 PM 1.21 34.178 0.291 6.78 1.22 14.37
2/1/2021 3:30:00 PM 1.18 34.124 0.287 6.75 0.84 14.36
2/1/2021 3:45:00 PM 1.18 34.124 0.281 6.72 0.5 14.34
2/1/2021 4:00:00 PM 1.19 34.142 0.29 6.7 1.01 14.35
2/1/2021 4:15:00 PM 1.18 34.124 0.289 6.69 0.53 14.36
2/1/2021 4:30:00 PM 1.17 34.106 0.275 6.68 0.92 14.34
2/1/2021 4:45:00 PM 1.08 33.944 0.287 6.7 3.01 14.33
2/1/2021 5:00:00 PM 1.05 33.89 0.287 6.68 0.8 14.3
2/1/2021 5:15:00 PM 0.99 33.782 0.291 6.68 0.87 14.27
2/1/2021 5:30:00 PM 0.93 33.674 0.294 6.65 0.58 14.23
2/1/2021 5:45:00 PM 0.88 33.584 0.288 6.63 0.62 14.2
2/1/2021 6:00:00 PM 0.89 33.602 0.294 6.59 1.26 14.17
2/1/2021 6:15:00 PM 0.9 33.62 0.288 6.57 0.55 14.15
2/1/2021 6:30:00 PM 0.91 33.638 0.285 6.56 0.61 14.12
2/1/2021 6:45:00 PM 0.93 33.674 0.283 6.54 0.91 14.09
2/1/2021 7:00:00 PM 0.95 33.71 0.269 6.53 0.45 14.06
2/1/2021 7:15:00 PM 0.98 33.764 0.29 6.53 0.97 14.03
2/1/2021 7:30:00 PM 1.02 33.836 0.286 6.52 0.94 13.99
2/1/2021 7:45:00 PM 1.04 33.872 0.275 6.51 0.61 13.97
2/1/2021 8:00:00 PM 1.07 33.926 0.286 6.5 1.17 13.94
2/1/2021 8:15:00 PM 1.09 33.962 0.285 6.5 0.69 13.92
2/1/2021 8:30:00 PM 1.1 33.98 0.274 6.51 0.6 13.9
2/1/2021 8:45:00 PM 1.11 33.998 0.275 6.5 1.63 13.88
2/1/2021 9:00:00 PM 1.13 34.034 0.282 6.5 0.86 13.87
2/1/2021 9:15:00 PM 1.13 34.034 0.283 6.5 1.11 13.85
2/1/2021 9:30:00 PM 1.13 34.034 0.288 6.49 0.64 13.82
2/1/2021 9:45:00 PM 1.15 34.07 0.286 6.48 0.74 13.79
2/1/2021 10:00:00 PM 1.18 34.124 0.288 6.46 0.99 13.77
2/1/2021 10:15:00 PM 1.21 34.178 0.29 6.46 0.66 13.74
2/1/2021 10:30:00 PM 1.24 34.232 0.288 6.46 2.55 13.72
2/1/2021 10:45:00 PM 1.27 34.286 0.287 6.47 1.13 13.71
2/1/2021 11:00:00 PM 1.27 34.286 0.29 6.48 1.77 13.7
2/1/2021 11:15:00 PM 1.29 34.322 0.27 6.49 0.76 13.7
2/1/2021 11:30:00 PM 1.31 34.358 0.281 6.51 1.25 13.68
2/1/2021 11:45:00 PM 1.32 34.376 0.256 6.53 1.44 13.66
2/2/2021 12:00:00 AM 1.34 34.412 0.284 6.55 1.05 13.66
2/2/2021 12:15:00 AM 1.34 34.412 0.277 6.56 2.35 13.64
2/2/2021 12:30:00 AM 1.36 34.448 0.294 6.59 1.17 13.63
2/2/2021 12:45:00 AM 1.37 34.466 0.28 6.62 1.37 13.63
2/2/2021 1:00:00 AM 1.37 34.466 0.278 6.65 1.29 13.61
2/2/2021 1:15:00 AM 1.39 34.502 0.272 6.67 1.03 13.59
2/2/2021 1:30:00 AM 1.4 34.52 0.291 6.68 1.12 13.59
2/2/2021 1:45:00 AM 1.41 34.538 0.295 6.69 2.12 13.58
2/2/2021 2:00:00 AM 1.42 34.556 0.292 6.7 1.06 13.56
2/2/2021 2:15:00 AM 1.43 34.574 0.277 6.71 0.88 13.58
2/2/2021 2:30:00 AM 1.43 34.574 0.263 6.74 0.93 13.58
2/2/2021 2:45:00 AM 1.44 34.592 0.279 6.76 1.35 13.57
2/2/2021 3:00:00 AM 1.44 34.592 0.287 6.78 0.55 13.55
2/2/2021 3:15:00 AM 1.44 34.592 0.288 6.82 1.52 13.56
2/2/2021 3:30:00 AM 1.46 34.628 0.279 6.84 0.75 13.56
2/2/2021 3:45:00 AM 1.47 34.646 0.285 6.86 0.41 13.53
2/2/2021 4:00:00 AM 1.48 34.664 0.279 6.86 0.78 13.53
2/2/2021 4:15:00 AM 1.49 34.682 0.278 6.87 0.79 13.53
2/2/2021 4:30:00 AM 1.5 34.7 0.293 6.88 0.81 13.52
2/2/2021 4:45:00 AM 1.5 34.7 0.287 6.89 0.64 13.52
2/2/2021 5:00:00 AM 1.51 34.718 0.28 6.89 1.02 13.5
2/2/2021 5:15:00 AM 1.51 34.718 0.262 6.9 0.63 13.51
2/2/2021 5:30:00 AM 1.5 34.7 0.272 6.91 0.99 13.48
2/2/2021 5:45:00 AM 1.51 34.718 0.274 6.91 1.06 13.49
2/2/2021 6:00:00 AM 1.52 34.736 0.269 6.92 0.85 13.48
2/2/2021 6:15:00 AM 1.54 34.772 0.276 6.93 1.22 13.46
2/2/2021 6:30:00 AM 1.55 34.79 0.27 6.97 1.59 13.43
2/2/2021 6:45:00 AM 1.56 34.808 0.262 7 1.4 13.44
2/2/2021 7:00:00 AM 1.57 34.826 0.267 7 0.83 13.42
2/2/2021 7:15:00 AM 1.59 34.862 0.292 7.02 0.59 13.4
2/2/2021 7:30:00 AM 1.59 34.862 0.272 7.03 0.44 13.41
2/2/2021 7:45:00 AM 1.61 34.898 0.3 7.03 0.61 13.41
2/2/2021 8:00:00 AM 1.63 34.934 0.299 7.03 0.74 13.4
2/2/2021 8:15:00 AM 1.65 34.97 0.299 7.03 5.4 13.44
2/2/2021 8:30:00 AM 1.67 35.006 0.25 7.04 4.17 13.49
2/2/2021 8:45:00 AM 1.7 35.06 0.296 7.04 0.71 13.52
2/2/2021 9:00:00 AM 1.72 35.096 0.298 7.03 0.42 13.58
2/2/2021 9:15:00 AM 1.76 35.168 0.253 7.04 0.84 13.61
2/2/2021 9:30:00 AM 1.81 35.258 0.276 7.03 0.76 13.67
2/2/2021 9:45:00 AM 1.87 35.366 0.279 7 1.4 13.72
2/2/2021 10:00:00 AM 1.94 35.492 0.303 7.01 10.57 13.74
2/2/2021 10:15:00 AM 1.99 35.582 0.3 6.99 9.35 13.8
2/2/2021 10:30:00 AM 2.07 35.726 0.302 6.98 7.03 13.82
2/2/2021 10:45:00 AM 2.13 35.834 0.302 6.97 5.37 13.84
2/2/2021 11:00:00 AM 2.2 35.96 0.301 6.96 11.35 13.92
2/2/2021 11:15:00 AM 2.27 36.086 0.282 6.95 1.52 13.94
2/2/2021 11:30:00 AM 2.34 36.212 0.27 6.93 0.37 14.01
2/2/2021 11:45:00 AM 2.41 36.338 0.273 6.97 1.01 14.03
2/2/2021 12:00:00 PM 2.47 36.446 0.276 6.99 0.61 14.07
2/2/2021 12:15:00 PM 2.53 36.554 0.28 6.98 2.19 14.12
2/2/2021 12:30:00 PM 2.6 36.68 0.28 6.96 0.8 14.15
2/2/2021 12:45:00 PM 2.66 36.788 0.281 6.98 0.68 14.17
2/2/2021 1:00:00 PM 2.7 36.86 0.281 7 0.62 14.19
2/2/2021 1:15:00 PM 2.74 36.932 0.281 7.03 4.23 14.21
2/2/2021 1:30:00 PM 2.77 36.986 0.287 7.08 0.54 14.22
2/2/2021 1:45:00 PM 2.8 37.04 0.281 7.13 1.52 14.23
2/2/2021 2:00:00 PM 2.82 37.076 0.282 7.17 1.35 14.25
2/2/2021 2:15:00 PM 2.83 37.094 0.283 7.23 0.89 14.25
2/2/2021 2:30:00 PM 2.84 37.112 0.283 7.26 0.65 14.24
2/2/2021 2:45:00 PM 2.84 37.112 0.283 7.29 0.5 14.24
2/2/2021 3:00:00 PM 2.86 37.148 0.283 7.32 0.5 14.25
2/2/2021 3:15:00 PM 2.86 37.148 0.282 7.37 0.37 14.25
2/2/2021 3:30:00 PM 2.86 37.148 0.282 7.4 1.39 14.23
2/2/2021 3:45:00 PM 2.85 37.13 0.272 7.43 0.72 14.22
2/2/2021 4:00:00 PM 2.85 37.13 0.295 7.48 0.75 14.2
2/2/2021 4:15:00 PM 2.84 37.112 0.291 7.5 1.03 14.16
2/2/2021 4:30:00 PM 2.82 37.076 0.292 7.52 0.6 14.12
2/2/2021 4:45:00 PM 2.81 37.058 0.292 7.56 0.31 14.09
2/2/2021 5:00:00 PM 2.8 37.04 0.292 7.55 0.51 14.05
2/2/2021 5:15:00 PM 2.79 37.022 0.292 7.57 0.63 14.01
2/2/2021 5:30:00 PM 2.76 36.968 0.291 7.61 0.94 13.96
2/2/2021 5:45:00 PM 2.76 36.968 0.291 7.64 1.42 13.9
2/2/2021 6:00:00 PM 2.74 36.932 0.286 7.65 0.83 13.86
2/2/2021 6:15:00 PM 2.74 36.932 0.292 7.67 1.68 13.82
2/2/2021 6:30:00 PM 2.73 36.914 0.282 7.69 0.9 13.74
2/2/2021 6:45:00 PM 2.72 36.896 0.269 7.71 0.73 13.7
2/2/2021 7:00:00 PM 2.7 36.86 0.283 7.71 0.67 13.64
2/2/2021 7:15:00 PM 2.7 36.86 0.289 7.72 0.72 13.62
2/2/2021 7:30:00 PM 2.7 36.86 0.291 7.72 0.58 13.59
2/2/2021 7:45:00 PM 2.69 36.842 0.292 7.72 0.78 13.56
2/2/2021 8:00:00 PM 2.68 36.824 0.281 7.75 0.38 13.51
2/2/2021 8:15:00 PM 2.67 36.806 0.283 7.75 0.68 13.48
2/2/2021 8:30:00 PM 2.67 36.806 0.285 7.75 1.02 13.44
2/2/2021 8:45:00 PM 2.66 36.788 0.25 7.76 0.97 13.39
2/2/2021 9:00:00 PM 2.65 36.77 0.254 7.78 0.81 13.37
2/2/2021 9:15:00 PM 2.64 36.752 0.259 7.78 1.44 13.33
2/2/2021 9:30:00 PM 2.64 36.752 0.269 7.76 1.05 13.31
2/2/2021 9:45:00 PM 2.64 36.752 0.294 7.75 1.11 13.25
2/2/2021 10:00:00 PM 2.65 36.77 0.3 7.76 0.57 13.2
2/2/2021 10:15:00 PM 2.64 36.752 0.304 7.75 0.49 13.19
2/2/2021 10:30:00 PM 2.63 36.734 0.308 7.74 0.75 13.16
2/2/2021 10:45:00 PM 2.64 36.752 0.309 7.73 0.94 13.13
2/2/2021 11:00:00 PM 2.66 36.788 0.308 7.72 1.79 13.12
2/2/2021 11:15:00 PM 2.64 36.752 0.308 7.72 0.62 13.09
2/2/2021 11:30:00 PM 2.65 36.77 0.306 7.72 1.28 13.06
2/2/2021 11:45:00 PM 2.66 36.788 0.302 7.71 0.72 13.05
2/3/2021 12:00:00 AM 2.67 36.806 0.287 7.7 1.14 13.03
2/3/2021 12:15:00 AM 2.67 36.806 0.293 7.69 1.7 13.01
2/3/2021 12:30:00 AM 2.67 36.806 0.297 7.68 0.94 13
2/3/2021 12:45:00 AM 2.69 36.842 0.299 7.67 0.78 12.97
2/3/2021 1:00:00 AM 2.71 36.878 0.297 7.64 0.89 12.95
2/3/2021 1:15:00 AM 2.72 36.896 0.298 7.62 0.81 12.92
2/3/2021 1:30:00 AM 2.73 36.914 0.298 7.62 0.95 12.91
2/3/2021 1:45:00 AM 2.74 36.932 0.3 7.59 0.92 12.89
2/3/2021 2:00:00 AM 2.74 36.932 0.3 7.58 1.79 12.89
2/3/2021 2:15:00 AM 2.74 36.932 0.292 7.56 0.9 12.89
2/3/2021 2:30:00 AM 2.74 36.932 0.301 7.54 1.07 12.88
2/3/2021 2:45:00 AM 2.74 36.932 0.259 7.52 1.02 12.9
2/3/2021 3:00:00 AM 2.75 36.95 0.296 7.5 1.27 12.87
2/3/2021 3:15:00 AM 2.75 36.95 0.296 7.49 0.6 12.87
2/3/2021 3:30:00 AM 2.75 36.95 0.296 7.47 0.73 12.86
2/3/2021 3:45:00 AM 2.76 36.968 0.298 7.47 0.63 12.86
2/3/2021 4:00:00 AM 2.76 36.968 0.298 7.46 0.74 12.86
2/3/2021 4:15:00 AM 2.76 36.968 0.299 7.45 0.67 12.84
2/3/2021 4:30:00 AM 2.76 36.968 0.298 7.45 1.32 12.84
2/3/2021 4:45:00 AM 2.75 36.95 0.294 7.43 1.42 12.83
2/3/2021 5:00:00 AM 2.75 36.95 0.301 7.42 0.93 12.82
2/3/2021 5:15:00 AM 2.74 36.932 0.293 7.42 1 12.84
2/3/2021 5:30:00 AM 2.74 36.932 0.299 7.45 1.22 12.84
2/3/2021 5:45:00 AM 2.73 36.914 0.273 7.46 1 12.83
2/3/2021 6:00:00 AM 2.73 36.914 0.283 7.46 2.15 12.83
2/3/2021 6:15:00 AM 2.72 36.896 0.273 7.47 1.34 12.8
2/3/2021 6:30:00 AM 2.72 36.896 0.268 7.46 1.2 12.8
2/3/2021 6:45:00 AM 2.71 36.878 0.261 7.45 2 12.82
2/3/2021 7:00:00 AM 2.71 36.878 0.273 7.44 1.16 12.81
2/3/2021 7:15:00 AM 2.7 36.86 0.304 7.44 0.91 12.81
2/3/2021 7:30:00 AM 2.69 36.842 0.304 7.42 0.75 12.82
2/3/2021 7:45:00 AM 2.67 36.806 0.305 7.43 1.14 12.83
2/3/2021 8:00:00 AM 2.68 36.824 0.302 7.42 0.9 12.85
2/3/2021 8:15:00 AM 2.7 36.86 0.301 7.39 1.13 12.92
2/3/2021 8:30:00 AM 2.7 36.86 0.3 7.39 0.96 12.98
2/3/2021 8:45:00 AM 2.71 36.878 0.3 7.41 0.82 13.03
2/3/2021 9:00:00 AM 2.72 36.896 0.299 7.43 2.52 13.06
2/3/2021 9:15:00 AM 2.74 36.932 0.299 7.44 1.32 13.16
2/3/2021 9:30:00 AM 2.76 36.968 0.3 7.46 1.22 13.2
2/3/2021 9:45:00 AM 2.8 37.04 0.299 7.47 4.42 13.26
2/3/2021 10:00:00 AM 2.83 37.094 0.302 7.48 0.57 13.32
2/3/2021 10:15:00 AM 2.86 37.148 0.302 7.51 0.7 13.34
2/3/2021 10:30:00 AM 2.92 37.256 0.301 7.52 0.69 13.42
2/3/2021 10:45:00 AM 2.97 37.346 0.301 7.53 2.73 13.49
2/3/2021 11:00:00 AM 3.03 37.454 0.3 7.55 0.71 13.54
2/3/2021 11:15:00 AM 3.07 37.526 0.299 7.56 1.07 13.6
2/3/2021 11:30:00 AM 3.12 37.616 0.297 7.56 0.74 13.65
2/3/2021 11:45:00 AM 3.18 37.724 0.296 7.53 0.75 13.72
2/3/2021 12:00:00 PM 3.24 37.832 0.296 7.53 0.6 13.73
2/3/2021 12:15:00 PM 3.31 37.958 0.296 7.51 1.15 13.8
2/3/2021 12:30:00 PM 3.38 38.084 0.296 7.48 0.61 13.85
2/3/2021 12:45:00 PM 3.43 38.174 0.297 7.51 0.65 13.87
2/3/2021 1:00:00 PM 3.46 38.228 0.297 7.51 0.65 13.9
2/3/2021 1:15:00 PM 3.52 38.336 0.297 7.5 1.32 13.89
2/3/2021 1:30:00 PM 3.55 38.39 0.297 7.47 1.35 13.94
2/3/2021 1:45:00 PM 3.58 38.444 0.297 7.48 1.11 13.96
2/3/2021 2:00:00 PM 3.64 38.552 0.296 7.44 0.61 13.96
2/3/2021 2:15:00 PM 3.67 38.606 0.295 7.39 1.11 13.98
2/3/2021 2:30:00 PM 3.73 38.714 0.295 7.37 0.51 14
2/3/2021 2:45:00 PM 3.8 38.84 0.295 7.33 0.74 14.01
2/3/2021 3:00:00 PM 3.86 38.948 0.294 7.33 1.23 14.03
2/3/2021 3:15:00 PM 3.91 39.038 0.294 7.34 0.66 14.06
2/3/2021 3:30:00 PM 3.95 39.11 0.294 7.33 1 14.07
2/3/2021 3:45:00 PM 3.99 39.182 0.294 7.34 0.61 14.08
2/3/2021 4:00:00 PM 4.01 39.218 0.295 7.34 0.88 14.07
2/3/2021 4:15:00 PM 4.02 39.236 0.295 7.36 0.61 14.07
2/3/2021 4:30:00 PM 4.02 39.236 0.296 7.36 0.85 14.02
2/3/2021 4:45:00 PM 4.01 39.218 0.295 7.35 1.11 13.99
2/3/2021 5:00:00 PM 4 39.2 0.295 7.36 0.9 13.92
2/3/2021 5:15:00 PM 3.99 39.182 0.295 7.37 0.54 13.88
2/3/2021 5:30:00 PM 3.97 39.146 0.295 7.39 0.5 13.82
2/3/2021 5:45:00 PM 3.95 39.11 0.295 7.39 1.27 13.76
2/3/2021 6:00:00 PM 3.93 39.074 0.262 7.4 0.68 13.68
2/3/2021 6:15:00 PM 3.92 39.056 0.265 7.41 0.67 13.63
2/3/2021 6:30:00 PM 3.91 39.038 0.296 7.39 0.77 13.55
2/3/2021 6:45:00 PM 3.89 39.002 0.254 7.39 1.27 13.5
2/3/2021 7:00:00 PM 3.86 38.948 0.275 7.39 1.45 13.44
2/3/2021 7:15:00 PM 3.84 38.912 0.284 7.37 1.7 13.39
2/3/2021 7:30:00 PM 3.83 38.894 0.282 7.37 1.27 13.33
2/3/2021 7:45:00 PM 3.8 38.84 0.261 7.36 1.06 13.27
2/3/2021 8:00:00 PM 3.79 38.822 0.263 7.35 0.93 13.25
2/3/2021 8:15:00 PM 3.77 38.786 0.263 7.36 0.59 13.19
2/3/2021 8:30:00 PM 3.75 38.75 0.262 7.39 0.42 13.15
2/3/2021 8:45:00 PM 3.73 38.714 0.287 7.4 0.44 13.11
2/3/2021 9:00:00 PM 3.71 38.678 0.296 7.45 0.47 13.06
2/3/2021 9:15:00 PM 3.7 38.66 0.293 7.5 0.77 13.01
2/3/2021 9:30:00 PM 3.68 38.624 0.29 7.51 0.97 12.96
2/3/2021 9:45:00 PM 3.67 38.606 0.309 7.51 0.82 12.91
2/3/2021 10:00:00 PM 3.65 38.57 0.297 7.51 0.74 12.88
2/3/2021 10:15:00 PM 3.64 38.552 0.306 7.52 1.37 12.87
2/3/2021 10:30:00 PM 3.62 38.516 0.309 7.53 1.17 12.83
2/3/2021 10:45:00 PM 3.6 38.48 0.309 7.55 1.29 12.81
2/3/2021 11:00:00 PM 3.58 38.444 0.31 7.57 0.66 12.79
2/3/2021 11:15:00 PM 3.56 38.408 0.306 7.59 0.85 12.78
2/3/2021 11:30:00 PM 3.53 38.354 0.304 7.63 0.84 12.75
2/3/2021 11:45:00 PM 3.52 38.336 0.306 7.66 1.44 12.73
2/4/2021 12:00:00 AM 3.5 38.3 0.302 7.68 1.03 12.73
2/4/2021 12:15:00 AM 3.45 38.21 0.29 7.71 1.09 12.73
2/4/2021 12:30:00 AM 3.46 38.228 0.307 7.74 0.9 12.7
2/4/2021 12:45:00 AM 3.44 38.192 0.312 7.79 1.25 12.7
2/4/2021 1:00:00 AM 3.42 38.156 0.312 7.81 0.89 12.66
2/4/2021 1:15:00 AM 3.4 38.12 0.309 7.8 0.99 12.65
2/4/2021 1:30:00 AM 3.39 38.102 0.309 7.81 1.56 12.67
2/4/2021 1:45:00 AM 3.36 38.048 0.308 7.81 0.82 12.65
2/4/2021 2:00:00 AM 3.34 38.012 0.306 7.86 1.27 12.65
2/4/2021 2:15:00 AM 3.31 37.958 0.305 7.88 1.01 12.67
2/4/2021 2:30:00 AM 3.27 37.886 0.304 7.92 1.24 12.67
2/4/2021 2:45:00 AM 3.25 37.85 0.303 7.9 1.15 12.66
2/4/2021 3:00:00 AM 3.2 37.76 0.302 7.86 0.63 12.67
2/4/2021 3:15:00 AM 3.18 37.724 0.302 7.84 2.82 12.68
2/4/2021 3:30:00 AM 3.15 37.67 0.303 7.83 0.99 12.68
2/4/2021 3:45:00 AM 3.13 37.634 0.304 7.82 3.76 12.69
2/4/2021 4:00:00 AM 3.09 37.562 0.305 7.85 9.25 12.67
2/4/2021 4:15:00 AM 3.06 37.508 0.298 7.88 27.33 12.68
2/4/2021 4:30:00 AM 3.02 37.436 0.301 7.9 9.46 12.7
2/4/2021 4:45:00 AM 2.98 37.364 0.291 7.92 3.02 12.69
2/4/2021 5:00:00 AM 2.94 37.292 0.279 7.95 5.65 12.73
2/4/2021 5:15:00 AM 2.9 37.22 0.289 7.97 1.75 12.73
2/4/2021 5:30:00 AM 2.85 37.13 0.27 7.98 6.55 12.74
2/4/2021 5:45:00 AM 2.81 37.058 0.28 7.99 3.84 12.76
2/4/2021 6:00:00 AM 2.76 36.968 0.288 8 0.96 12.78
2/4/2021 6:15:00 AM 2.73 36.914 0.309 8.01 1.83 12.79
2/4/2021 6:30:00 AM 2.69 36.842 0.304 8.01 1.76 12.81
2/4/2021 6:45:00 AM 2.65 36.77 0.301 8.01 20.54 12.79
2/4/2021 7:00:00 AM 2.61 36.698 0.291 7.99 48.77 12.76
2/4/2021 7:15:00 AM 2.56 36.608 0.265 8.01 2.53 12.79
2/4/2021 7:30:00 AM 2.53 36.554 0.312 8.01 4.74 12.82
2/4/2021 7:45:00 AM 2.5 36.5 0.288 8.02 2.41 12.87
2/4/2021 8:00:00 AM 2.47 36.446 0.295 8.02 2.52 12.89
2/4/2021 8:15:00 AM 2.46 36.428 0.31 8.01 4.47 12.9
2/4/2021 8:30:00 AM 2.48 36.464 0.307 8.01 5.15 12.99
2/4/2021 8:45:00 AM 2.51 36.518 0.281 7.97 0.91 13.06
2/4/2021 9:00:00 AM 2.52 36.536 0.3 7.87 0.91 13.11
2/4/2021 9:15:00 AM 2.54 36.572 0.301 7.79 0.92 13.16
2/4/2021 9:30:00 AM 2.58 36.644 0.275 7.72 0.45 13.24
2/4/2021 9:45:00 AM 2.63 36.734 0.288 7.66 1.1 13.28
2/4/2021 10:00:00 AM 2.68 36.824 0.306 7.65 0.99 13.34
2/4/2021 10:15:00 AM 2.72 36.896 0.301 7.64 0.81 13.39
2/4/2021 10:30:00 AM 2.78 37.004 0.29 7.63 2.21 13.44
2/4/2021 10:45:00 AM 2.85 37.13 0.294 7.61 1.04 13.49
2/4/2021 11:00:00 AM 2.93 37.274 0.3 7.56 0.92 13.57
2/4/2021 11:15:00 AM 3 37.4 0.298 7.53 0.57 13.62
2/4/2021 11:30:00 AM 3.08 37.544 0.297 7.48 1.2 13.65
2/4/2021 11:45:00 AM 3.15 37.67 0.294 7.41 0.87 13.71
2/4/2021 12:00:00 PM 3.22 37.796 0.295 7.33 0.86 13.78
2/4/2021 12:15:00 PM 3.31 37.958 0.294 7.25 1.15 13.79
2/4/2021 12:30:00 PM 3.38 38.084 0.293 7.19 0.69 13.85
2/4/2021 12:45:00 PM 3.47 38.246 0.293 7.12 0.72 13.87
2/4/2021 1:00:00 PM 3.56 38.408 0.293 7.08 1.19 13.89
2/4/2021 1:15:00 PM 3.63 38.534 0.293 7.03 0.89 13.92
2/4/2021 1:30:00 PM 3.71 38.678 0.293 6.95 0.82 13.93
2/4/2021 1:45:00 PM 3.77 38.786 0.292 6.93 0.91 13.97
2/4/2021 2:00:00 PM 3.85 38.93 0.291 6.91 0.49 13.96
2/4/2021 2:15:00 PM 3.91 39.038 0.29 6.9 1.64 13.99
2/4/2021 2:30:00 PM 3.97 39.146 0.289 6.86 0.83 13.99
2/4/2021 2:45:00 PM 4 39.2 0.288 6.86 0.97 14.01
2/4/2021 3:00:00 PM 4.05 39.29 0.287 6.85 0.85 13.99
2/4/2021 3:15:00 PM 4.07 39.326 0.287 6.84 0.86 14
2/4/2021 3:30:00 PM 4.1 39.38 0.287 6.82 0.85 14
2/4/2021 3:45:00 PM 4.12 39.416 0.287 6.82 0.54 14
2/4/2021 4:00:00 PM 4.14 39.452 0.286 6.79 0.52 13.97
2/4/2021 4:15:00 PM 4.13 39.434 0.286 6.82 0.67 13.95
2/4/2021 4:30:00 PM 4.13 39.434 0.286 6.82 0.96 13.94
2/4/2021 4:45:00 PM 4.12 39.416 0.259 6.87 0.85 13.88
2/4/2021 5:00:00 PM 4.08 39.344 0.253 6.94 0.71 13.84
2/4/2021 5:15:00 PM 4.05 39.29 0.277 7.11 0.55 13.79
2/4/2021 5:30:00 PM 4.02 39.236 0.28 7.31 0.57 13.71
2/4/2021 5:45:00 PM 3.99 39.182 0.279 7.52 0.69 13.65
2/4/2021 6:00:00 PM 3.95 39.11 0.281 7.74 0.5 13.6
2/4/2021 6:15:00 PM 3.93 39.074 0.268 7.78 0.69 13.51
2/4/2021 6:30:00 PM 3.9 39.02 0.271 7.85 1.03 13.46
2/4/2021 6:45:00 PM 3.88 38.984 0.258 7.86 0.79 13.4
2/4/2021 7:00:00 PM 3.86 38.948 0.274 7.89 1.16 13.35
2/4/2021 7:15:00 PM 3.84 38.912 0.283 7.89 3.1 13.27
2/4/2021 7:30:00 PM 3.82 38.876 0.258 7.87 1.84 13.24
2/4/2021 7:45:00 PM 3.8 38.84 0.254 7.93 1.75 13.19
2/4/2021 8:00:00 PM 3.79 38.822 0.244 7.91 2.11 13.16
2/4/2021 8:15:00 PM 3.78 38.804 0.249 7.92 1.28 13.13
2/4/2021 8:30:00 PM 3.78 38.804 0.254 7.92 1.45 13.08
2/4/2021 8:45:00 PM 3.77 38.786 0.255 7.94 1.27 13.04
2/4/2021 9:00:00 PM 3.76 38.768 0.244 7.91 0.91 13.01
2/4/2021 9:15:00 PM 3.76 38.768 0.262 7.91 0.89 12.97
2/4/2021 9:30:00 PM 3.77 38.786 0.253 7.9 0.87 12.89
2/4/2021 9:45:00 PM 3.78 38.804 0.24 7.9 1.31 12.86
2/4/2021 10:00:00 PM 3.8 38.84 0.241 7.88 1.01 12.81
2/4/2021 10:15:00 PM 3.82 38.876 0.241 7.89 0.76 12.79
2/4/2021 10:30:00 PM 3.83 38.894 0.246 7.87 1.18 12.75
2/4/2021 10:45:00 PM 3.86 38.948 0.271 7.85 1.28 12.72
2/4/2021 11:00:00 PM 3.87 38.966 0.28 7.83 0.97 12.68
2/4/2021 11:15:00 PM 3.87 38.966 0.28 7.82 1.11 12.64
2/4/2021 11:30:00 PM 3.91 39.038 0.264 7.8 0.8 12.61
2/4/2021 11:45:00 PM 3.92 39.056 0.243 7.77 0.76 12.58
2/5/2021 12:00:00 AM 3.95 39.11 0.238 7.74 0.78 12.55
2/5/2021 12:15:00 AM 3.97 39.146 0.238 7.74 1.31 12.53
2/5/2021 12:30:00 AM 3.99 39.182 0.247 7.72 0.58 12.5
2/5/2021 12:45:00 AM 4.01 39.218 0.231 7.7 1.87 12.46
2/5/2021 1:00:00 AM 4.03 39.254 0.235 7.69 1.04 12.45
2/5/2021 1:15:00 AM 4.06 39.308 0.232 7.6 0.86 12.42
2/5/2021 1:30:00 AM 4.08 39.344 0.236 7.53 1.22 12.42
2/5/2021 1:45:00 AM 4.11 39.398 0.236 7.46 1.32 12.38
2/5/2021 2:00:00 AM 4.13 39.434 0.249 7.38 1.18 12.37
2/5/2021 2:15:00 AM 4.14 39.452 0.244 7.31 0.75 12.34
2/5/2021 2:30:00 AM 4.14 39.452 0.243 7.28 0.85 12.33
2/5/2021 2:45:00 AM 4.15 39.47 0.246 7.28 0.42 12.32
2/5/2021 3:00:00 AM 4.16 39.488 0.243 7.29 1.11 12.31
2/5/2021 3:15:00 AM 4.16 39.488 0.245 7.28 1.4 12.29
2/5/2021 3:30:00 AM 4.17 39.506 0.247 7.27 1.22 12.27
2/5/2021 3:45:00 AM 4.18 39.524 0.248 7.26 1.11 12.29
2/5/2021 4:00:00 AM 4.18 39.524 0.247 7.24 1.92 12.27
2/5/2021 4:15:00 AM 4.18 39.524 0.234 7.16 0.88 12.25
2/5/2021 4:30:00 AM 4.19 39.542 0.244 7.08 1.27 12.27
2/5/2021 4:45:00 AM 4.18 39.524 0.242 7.04 0.75 12.25
2/5/2021 5:00:00 AM 4.18 39.524 0.245 7.04 0.99 12.26
2/5/2021 5:15:00 AM 4.17 39.506 0.237 7.04 0.97 12.26
2/5/2021 5:30:00 AM 4.15 39.47 0.255 7.01 1.22 12.25
2/5/2021 5:45:00 AM 4.14 39.452 0.254 6.99 1.23 12.25
2/5/2021 6:00:00 AM 4.14 39.452 0.253 6.98 0.63 12.24
2/5/2021 6:15:00 AM 4.14 39.452 0.252 6.97 0.98 12.24
2/5/2021 6:30:00 AM 4.14 39.452 0.257 6.97 1.33 12.25
2/5/2021 6:45:00 AM 4.13 39.434 0.257 6.97 1.7 12.23
2/5/2021 7:00:00 AM 4.13 39.434 0.257 6.96 1.89 12.23
2/5/2021 7:15:00 AM 4.13 39.434 0.264 6.95 1.04 12.23
2/5/2021 7:30:00 AM 4.13 39.434 0.26 6.94 0.39 12.22
2/5/2021 7:45:00 AM 4.13 39.434 0.26 6.93 0.87 12.23
2/5/2021 8:00:00 AM 4.12 39.416 0.261 6.91 0.67 12.26
2/5/2021 8:15:00 AM 4.11 39.398 0.261 6.91 1.22 12.28
2/5/2021 8:30:00 AM 4.12 39.416 0.26 6.86 1.04 12.34
2/5/2021 8:45:00 AM 4.15 39.47 0.258 6.69 1.12 12.39
2/5/2021 9:00:00 AM 4.17 39.506 0.257 6.58 2.83 12.47
2/5/2021 9:15:00 AM 4.19 39.542 0.254 6.51 1.77 12.53
2/5/2021 9:30:00 AM 4.24 39.632 0.243 6.42 1.19 12.58
2/5/2021 9:45:00 AM 4.28 39.704 0.246 6.34 1.03 12.66
2/5/2021 10:00:00 AM 4.35 39.83 0.25 6.3 1.17 12.71
2/5/2021 10:15:00 AM 4.41 39.938 0.253 6.27 0.72 12.78
2/5/2021 10:30:00 AM 4.53 40.154 0.252 6.3 0.67 12.84</